<?xml version="1.0" encoding="UTF-8" standalone="no" ?>
<gpx xmlns="http://www.topografix.com/GPX/1/1" xmlns:xsi="http://www.w3.org/2001/XMLSchema-instance" xsi:schemaLocation="http://www.topografix.com/GPX/1/1 http://www.topografix.com/GPX/1/1/gpx.xsd" version="1.1" creator="VisuGPX - https://www.visugpx.com">
  <metadata>
    <name>Grand Ferrand</name>
    <desc><![CDATA[Tentative d\'ascension (mauvais temps oblige) du Grand Ferrand depuis La Chaup (Agnières en Dévoluy), avec les randonneurs de l\'ASVEL Ski Montagne (69). ]]></desc>
  </metadata>
  <trk>
    <name><![CDATA[Grand Ferrand]]></name>
    <trkseg>
      <trkpt lat="44.69197" lon="5.8639">
        <ele>1394.682</ele>
        <time>2014-07-19T05:45:30Z</time>
      </trkpt>
      <trkpt lat="44.69198" lon="5.86386">
        <ele>1394.989</ele>
        <time>2014-07-19T05:45:33Z</time>
      </trkpt>
      <trkpt lat="44.69199" lon="5.86384">
        <ele>1394.44</ele>
        <time>2014-07-19T05:45:35Z</time>
      </trkpt>
      <trkpt lat="44.69199" lon="5.86381">
        <ele>1395.709</ele>
        <time>2014-07-19T05:45:37Z</time>
      </trkpt>
      <trkpt lat="44.69208" lon="5.86382">
        <ele>1395.763</ele>
        <time>2014-07-19T05:45:51Z</time>
      </trkpt>
      <trkpt lat="44.69218" lon="5.86383">
        <ele>1396.058</ele>
        <time>2014-07-19T05:45:57Z</time>
      </trkpt>
      <trkpt lat="44.69229" lon="5.86379">
        <ele>1396.166</ele>
        <time>2014-07-19T05:46:06Z</time>
      </trkpt>
      <trkpt lat="44.69231" lon="5.86385">
        <ele>1396.347</ele>
        <time>2014-07-19T05:46:11Z</time>
      </trkpt>
      <trkpt lat="44.6925" lon="5.86382">
        <ele>1396.497</ele>
        <time>2014-07-19T05:46:25Z</time>
      </trkpt>
      <trkpt lat="44.69256" lon="5.86389">
        <ele>1396.457</ele>
        <time>2014-07-19T05:46:30Z</time>
      </trkpt>
      <trkpt lat="44.69259" lon="5.86393">
        <ele>1396.193</ele>
        <time>2014-07-19T05:46:34Z</time>
      </trkpt>
      <trkpt lat="44.69275" lon="5.86408">
        <ele>1394.951</ele>
        <time>2014-07-19T05:46:49Z</time>
      </trkpt>
      <trkpt lat="44.69294" lon="5.86416">
        <ele>1394.367</ele>
        <time>2014-07-19T05:47:05Z</time>
      </trkpt>
      <trkpt lat="44.69305" lon="5.86402">
        <ele>1396.247</ele>
        <time>2014-07-19T05:47:20Z</time>
      </trkpt>
      <trkpt lat="44.69317" lon="5.86382">
        <ele>1397.868</ele>
        <time>2014-07-19T05:47:36Z</time>
      </trkpt>
      <trkpt lat="44.69323" lon="5.86374">
        <ele>1398.722</ele>
        <time>2014-07-19T05:47:50Z</time>
      </trkpt>
      <trkpt lat="44.6934" lon="5.86368">
        <ele>1400.007</ele>
        <time>2014-07-19T05:48:07Z</time>
      </trkpt>
      <trkpt lat="44.69357" lon="5.8637">
        <ele>1401.63</ele>
        <time>2014-07-19T05:48:23Z</time>
      </trkpt>
      <trkpt lat="44.69363" lon="5.8637">
        <ele>1402.31</ele>
        <time>2014-07-19T05:48:28Z</time>
      </trkpt>
      <trkpt lat="44.6938" lon="5.86369">
        <ele>1402.339</ele>
        <time>2014-07-19T05:48:45Z</time>
      </trkpt>
      <trkpt lat="44.69402" lon="5.86358">
        <ele>1402.877</ele>
        <time>2014-07-19T05:49:05Z</time>
      </trkpt>
      <trkpt lat="44.6941" lon="5.86353">
        <ele>1403.674</ele>
        <time>2014-07-19T05:49:12Z</time>
      </trkpt>
      <trkpt lat="44.69425" lon="5.86342">
        <ele>1404.988</ele>
        <time>2014-07-19T05:49:27Z</time>
      </trkpt>
      <trkpt lat="44.69434" lon="5.86339">
        <ele>1405.739</ele>
        <time>2014-07-19T05:49:35Z</time>
      </trkpt>
      <trkpt lat="44.69437" lon="5.86339">
        <ele>1406.258</ele>
        <time>2014-07-19T05:49:38Z</time>
      </trkpt>
      <trkpt lat="44.69458" lon="5.86334">
        <ele>1407.917</ele>
        <time>2014-07-19T05:50:00Z</time>
      </trkpt>
      <trkpt lat="44.6948" lon="5.86326">
        <ele>1410.244</ele>
        <time>2014-07-19T05:50:20Z</time>
      </trkpt>
      <trkpt lat="44.69486" lon="5.86325">
        <ele>1410.065</ele>
        <time>2014-07-19T05:50:26Z</time>
      </trkpt>
      <trkpt lat="44.69504" lon="5.8633">
        <ele>1413.301</ele>
        <time>2014-07-19T05:50:44Z</time>
      </trkpt>
      <trkpt lat="44.69515" lon="5.86333">
        <ele>1414.716</ele>
        <time>2014-07-19T05:50:55Z</time>
      </trkpt>
      <trkpt lat="44.69526" lon="5.86332">
        <ele>1416.446</ele>
        <time>2014-07-19T05:51:08Z</time>
      </trkpt>
      <trkpt lat="44.69528" lon="5.86332">
        <ele>1416.999</ele>
        <time>2014-07-19T05:51:11Z</time>
      </trkpt>
      <trkpt lat="44.69548" lon="5.8633">
        <ele>1419.317</ele>
        <time>2014-07-19T05:51:31Z</time>
      </trkpt>
      <trkpt lat="44.69557" lon="5.8633">
        <ele>1420.193</ele>
        <time>2014-07-19T05:51:40Z</time>
      </trkpt>
      <trkpt lat="44.69579" lon="5.86335">
        <ele>1421.458</ele>
        <time>2014-07-19T05:52:01Z</time>
      </trkpt>
      <trkpt lat="44.69595" lon="5.86334">
        <ele>1423.055</ele>
        <time>2014-07-19T05:52:17Z</time>
      </trkpt>
      <trkpt lat="44.69613" lon="5.86339">
        <ele>1426.274</ele>
        <time>2014-07-19T05:52:35Z</time>
      </trkpt>
      <trkpt lat="44.69619" lon="5.86338">
        <ele>1427.493</ele>
        <time>2014-07-19T05:52:42Z</time>
      </trkpt>
      <trkpt lat="44.69636" lon="5.86336">
        <ele>1430.161</ele>
        <time>2014-07-19T05:53:00Z</time>
      </trkpt>
      <trkpt lat="44.69652" lon="5.86335">
        <ele>1431.544</ele>
        <time>2014-07-19T05:53:17Z</time>
      </trkpt>
      <trkpt lat="44.69654" lon="5.86335">
        <ele>1431.848</ele>
        <time>2014-07-19T05:53:19Z</time>
      </trkpt>
      <trkpt lat="44.69667" lon="5.8633">
        <ele>1433.322</ele>
        <time>2014-07-19T05:53:33Z</time>
      </trkpt>
      <trkpt lat="44.69688" lon="5.8633">
        <ele>1436.092</ele>
        <time>2014-07-19T05:53:54Z</time>
      </trkpt>
      <trkpt lat="44.69704" lon="5.86333">
        <ele>1438.279</ele>
        <time>2014-07-19T05:54:10Z</time>
      </trkpt>
      <trkpt lat="44.69722" lon="5.86336">
        <ele>1440.382</ele>
        <time>2014-07-19T05:54:28Z</time>
      </trkpt>
      <trkpt lat="44.69726" lon="5.86337">
        <ele>1440.985</ele>
        <time>2014-07-19T05:54:32Z</time>
      </trkpt>
      <trkpt lat="44.69736" lon="5.86337">
        <ele>1442.019</ele>
        <time>2014-07-19T05:54:42Z</time>
      </trkpt>
      <trkpt lat="44.69757" lon="5.86346">
        <ele>1443.961</ele>
        <time>2014-07-19T05:55:02Z</time>
      </trkpt>
      <trkpt lat="44.69774" lon="5.86345">
        <ele>1446.199</ele>
        <time>2014-07-19T05:55:17Z</time>
      </trkpt>
      <trkpt lat="44.69778" lon="5.86346">
        <ele>1446.537</ele>
        <time>2014-07-19T05:55:21Z</time>
      </trkpt>
      <trkpt lat="44.69799" lon="5.86349">
        <ele>1447.554</ele>
        <time>2014-07-19T05:55:41Z</time>
      </trkpt>
      <trkpt lat="44.6982" lon="5.8635">
        <ele>1447.703</ele>
        <time>2014-07-19T05:55:57Z</time>
      </trkpt>
      <trkpt lat="44.69846" lon="5.86356">
        <ele>1449.154</ele>
        <time>2014-07-19T05:56:18Z</time>
      </trkpt>
      <trkpt lat="44.6987" lon="5.86358">
        <ele>1449.367</ele>
        <time>2014-07-19T05:56:37Z</time>
      </trkpt>
      <trkpt lat="44.69878" lon="5.86361">
        <ele>1449.765</ele>
        <time>2014-07-19T05:56:44Z</time>
      </trkpt>
      <trkpt lat="44.69883" lon="5.86362">
        <ele>1449.642</ele>
        <time>2014-07-19T05:56:48Z</time>
      </trkpt>
      <trkpt lat="44.69888" lon="5.86366">
        <ele>1450.246</ele>
        <time>2014-07-19T05:56:53Z</time>
      </trkpt>
      <trkpt lat="44.699" lon="5.86371">
        <ele>1450.212</ele>
        <time>2014-07-19T05:57:05Z</time>
      </trkpt>
      <trkpt lat="44.69919" lon="5.86386">
        <ele>1450.331</ele>
        <time>2014-07-19T05:57:21Z</time>
      </trkpt>
      <trkpt lat="44.69922" lon="5.86387">
        <ele>1450.242</ele>
        <time>2014-07-19T05:57:23Z</time>
      </trkpt>
      <trkpt lat="44.69928" lon="5.86395">
        <ele>1450.282</ele>
        <time>2014-07-19T05:57:29Z</time>
      </trkpt>
      <trkpt lat="44.6994" lon="5.86408">
        <ele>1450.51</ele>
        <time>2014-07-19T05:57:41Z</time>
      </trkpt>
      <trkpt lat="44.69965" lon="5.86428">
        <ele>1450.251</ele>
        <time>2014-07-19T05:58:02Z</time>
      </trkpt>
      <trkpt lat="44.69996" lon="5.86447">
        <ele>1449.581</ele>
        <time>2014-07-19T05:58:27Z</time>
      </trkpt>
      <trkpt lat="44.70012" lon="5.86451">
        <ele>1449.07</ele>
        <time>2014-07-19T05:58:40Z</time>
      </trkpt>
      <trkpt lat="44.70016" lon="5.86451">
        <ele>1449.127</ele>
        <time>2014-07-19T05:58:43Z</time>
      </trkpt>
      <trkpt lat="44.7002" lon="5.86452">
        <ele>1449.394</ele>
        <time>2014-07-19T05:58:47Z</time>
      </trkpt>
      <trkpt lat="44.70038" lon="5.86456">
        <ele>1449.589</ele>
        <time>2014-07-19T05:59:02Z</time>
      </trkpt>
      <trkpt lat="44.70052" lon="5.86459">
        <ele>1450.311</ele>
        <time>2014-07-19T05:59:17Z</time>
      </trkpt>
      <trkpt lat="44.70076" lon="5.86471">
        <ele>1451.394</ele>
        <time>2014-07-19T05:59:36Z</time>
      </trkpt>
      <trkpt lat="44.70085" lon="5.86472">
        <ele>1451.776</ele>
        <time>2014-07-19T05:59:43Z</time>
      </trkpt>
      <trkpt lat="44.70096" lon="5.86471">
        <ele>1451.981</ele>
        <time>2014-07-19T05:59:53Z</time>
      </trkpt>
      <trkpt lat="44.7011" lon="5.86468">
        <ele>1453.392</ele>
        <time>2014-07-19T06:00:07Z</time>
      </trkpt>
      <trkpt lat="44.7013" lon="5.86471">
        <ele>1455.251</ele>
        <time>2014-07-19T06:00:24Z</time>
      </trkpt>
      <trkpt lat="44.70133" lon="5.86475">
        <ele>1455.642</ele>
        <time>2014-07-19T06:00:28Z</time>
      </trkpt>
      <trkpt lat="44.70141" lon="5.86479">
        <ele>1456.046</ele>
        <time>2014-07-19T06:00:36Z</time>
      </trkpt>
      <trkpt lat="44.70145" lon="5.86481">
        <ele>1456.5</ele>
        <time>2014-07-19T06:00:40Z</time>
      </trkpt>
      <trkpt lat="44.7016" lon="5.86483">
        <ele>1457.348</ele>
        <time>2014-07-19T06:00:52Z</time>
      </trkpt>
      <trkpt lat="44.70164" lon="5.86482">
        <ele>1457.842</ele>
        <time>2014-07-19T06:00:56Z</time>
      </trkpt>
      <trkpt lat="44.7018" lon="5.86491">
        <ele>1460.268</ele>
        <time>2014-07-19T06:01:14Z</time>
      </trkpt>
      <trkpt lat="44.7019" lon="5.86496">
        <ele>1460.817</ele>
        <time>2014-07-19T06:01:33Z</time>
      </trkpt>
      <trkpt lat="44.70192" lon="5.86495">
        <ele>1461.657</ele>
        <time>2014-07-19T06:02:17Z</time>
      </trkpt>
      <trkpt lat="44.70199" lon="5.86489">
        <ele>1463.179</ele>
        <time>2014-07-19T06:02:59Z</time>
      </trkpt>
      <trkpt lat="44.702" lon="5.86487">
        <ele>1463.532</ele>
        <time>2014-07-19T06:03:01Z</time>
      </trkpt>
      <trkpt lat="44.7021" lon="5.86466">
        <ele>1465.426</ele>
        <time>2014-07-19T06:03:16Z</time>
      </trkpt>
      <trkpt lat="44.70217" lon="5.86444">
        <ele>1468.499</ele>
        <time>2014-07-19T06:03:34Z</time>
      </trkpt>
      <trkpt lat="44.70223" lon="5.86428">
        <ele>1471.734</ele>
        <time>2014-07-19T06:03:51Z</time>
      </trkpt>
      <trkpt lat="44.70226" lon="5.86409">
        <ele>1475.215</ele>
        <time>2014-07-19T06:04:07Z</time>
      </trkpt>
      <trkpt lat="44.70228" lon="5.86402">
        <ele>1476.544</ele>
        <time>2014-07-19T06:04:21Z</time>
      </trkpt>
      <trkpt lat="44.70226" lon="5.86385">
        <ele>1479.056</ele>
        <time>2014-07-19T06:04:36Z</time>
      </trkpt>
      <trkpt lat="44.70228" lon="5.86377">
        <ele>1480.692</ele>
        <time>2014-07-19T06:04:44Z</time>
      </trkpt>
      <trkpt lat="44.7023" lon="5.86372">
        <ele>1481.565</ele>
        <time>2014-07-19T06:04:47Z</time>
      </trkpt>
      <trkpt lat="44.70236" lon="5.86362">
        <ele>1484.062</ele>
        <time>2014-07-19T06:04:59Z</time>
      </trkpt>
      <trkpt lat="44.70243" lon="5.86353">
        <ele>1485.222</ele>
        <time>2014-07-19T06:05:11Z</time>
      </trkpt>
      <trkpt lat="44.70259" lon="5.86343">
        <ele>1487.498</ele>
        <time>2014-07-19T06:05:28Z</time>
      </trkpt>
      <trkpt lat="44.70262" lon="5.8634">
        <ele>1487.59</ele>
        <time>2014-07-19T06:05:34Z</time>
      </trkpt>
      <trkpt lat="44.70267" lon="5.86327">
        <ele>1489.076</ele>
        <time>2014-07-19T06:05:44Z</time>
      </trkpt>
      <trkpt lat="44.70272" lon="5.86314">
        <ele>1491.514</ele>
        <time>2014-07-19T06:05:59Z</time>
      </trkpt>
      <trkpt lat="44.70279" lon="5.86301">
        <ele>1493.254</ele>
        <time>2014-07-19T06:06:12Z</time>
      </trkpt>
      <trkpt lat="44.70297" lon="5.86296">
        <ele>1495.752</ele>
        <time>2014-07-19T06:06:30Z</time>
      </trkpt>
      <trkpt lat="44.70302" lon="5.86279">
        <ele>1498.998</ele>
        <time>2014-07-19T06:06:49Z</time>
      </trkpt>
      <trkpt lat="44.70301" lon="5.86274">
        <ele>1499.607</ele>
        <time>2014-07-19T06:06:54Z</time>
      </trkpt>
      <trkpt lat="44.70301" lon="5.86257">
        <ele>1501.777</ele>
        <time>2014-07-19T06:07:08Z</time>
      </trkpt>
      <trkpt lat="44.70311" lon="5.86246">
        <ele>1504.134</ele>
        <time>2014-07-19T06:07:26Z</time>
      </trkpt>
      <trkpt lat="44.7033" lon="5.86239">
        <ele>1507.604</ele>
        <time>2014-07-19T06:07:45Z</time>
      </trkpt>
      <trkpt lat="44.70346" lon="5.86225">
        <ele>1510.867</ele>
        <time>2014-07-19T06:08:05Z</time>
      </trkpt>
      <trkpt lat="44.70361" lon="5.86215">
        <ele>1513.956</ele>
        <time>2014-07-19T06:08:26Z</time>
      </trkpt>
      <trkpt lat="44.70377" lon="5.8621">
        <ele>1516.775</ele>
        <time>2014-07-19T06:08:46Z</time>
      </trkpt>
      <trkpt lat="44.70384" lon="5.86205">
        <ele>1517.952</ele>
        <time>2014-07-19T06:08:57Z</time>
      </trkpt>
      <trkpt lat="44.70402" lon="5.862">
        <ele>1521.091</ele>
        <time>2014-07-19T06:09:18Z</time>
      </trkpt>
      <trkpt lat="44.70419" lon="5.86194">
        <ele>1522.696</ele>
        <time>2014-07-19T06:09:38Z</time>
      </trkpt>
      <trkpt lat="44.7043" lon="5.86179">
        <ele>1525.751</ele>
        <time>2014-07-19T06:09:59Z</time>
      </trkpt>
      <trkpt lat="44.70434" lon="5.86176">
        <ele>1526.42</ele>
        <time>2014-07-19T06:10:03Z</time>
      </trkpt>
      <trkpt lat="44.70444" lon="5.86161">
        <ele>1529.757</ele>
        <time>2014-07-19T06:10:25Z</time>
      </trkpt>
      <trkpt lat="44.70453" lon="5.86143">
        <ele>1532.855</ele>
        <time>2014-07-19T06:10:45Z</time>
      </trkpt>
      <trkpt lat="44.70464" lon="5.86141">
        <ele>1534.663</ele>
        <time>2014-07-19T06:11:04Z</time>
      </trkpt>
      <trkpt lat="44.70475" lon="5.86143">
        <ele>1537.913</ele>
        <time>2014-07-19T06:11:22Z</time>
      </trkpt>
      <trkpt lat="44.70489" lon="5.86137">
        <ele>1541.046</ele>
        <time>2014-07-19T06:11:41Z</time>
      </trkpt>
      <trkpt lat="44.70494" lon="5.86126">
        <ele>1541.933</ele>
        <time>2014-07-19T06:11:53Z</time>
      </trkpt>
      <trkpt lat="44.70494" lon="5.86111">
        <ele>1543.116</ele>
        <time>2014-07-19T06:12:08Z</time>
      </trkpt>
      <trkpt lat="44.70495" lon="5.86093">
        <ele>1545.557</ele>
        <time>2014-07-19T06:12:23Z</time>
      </trkpt>
      <trkpt lat="44.70493" lon="5.86075">
        <ele>1547.852</ele>
        <time>2014-07-19T06:12:40Z</time>
      </trkpt>
      <trkpt lat="44.70489" lon="5.86062">
        <ele>1550.335</ele>
        <time>2014-07-19T06:12:54Z</time>
      </trkpt>
      <trkpt lat="44.70491" lon="5.86053">
        <ele>1552.019</ele>
        <time>2014-07-19T06:13:02Z</time>
      </trkpt>
      <trkpt lat="44.70483" lon="5.86035">
        <ele>1553.051</ele>
        <time>2014-07-19T06:13:18Z</time>
      </trkpt>
      <trkpt lat="44.7048" lon="5.86012">
        <ele>1553.307</ele>
        <time>2014-07-19T06:13:32Z</time>
      </trkpt>
      <trkpt lat="44.70474" lon="5.85992">
        <ele>1555.831</ele>
        <time>2014-07-19T06:13:50Z</time>
      </trkpt>
      <trkpt lat="44.70471" lon="5.85987">
        <ele>1556.731</ele>
        <time>2014-07-19T06:13:56Z</time>
      </trkpt>
      <trkpt lat="44.70466" lon="5.85974">
        <ele>1559.883</ele>
        <time>2014-07-19T06:14:13Z</time>
      </trkpt>
      <trkpt lat="44.70465" lon="5.85971">
        <ele>1560.439</ele>
        <time>2014-07-19T06:14:17Z</time>
      </trkpt>
      <trkpt lat="44.70461" lon="5.85966">
        <ele>1561.377</ele>
        <time>2014-07-19T06:14:22Z</time>
      </trkpt>
      <trkpt lat="44.70456" lon="5.85956">
        <ele>1561.4</ele>
        <time>2014-07-19T06:14:35Z</time>
      </trkpt>
      <trkpt lat="44.70453" lon="5.85949">
        <ele>1561.755</ele>
        <time>2014-07-19T06:14:44Z</time>
      </trkpt>
      <trkpt lat="44.70452" lon="5.85946">
        <ele>1561.897</ele>
        <time>2014-07-19T06:14:46Z</time>
      </trkpt>
      <trkpt lat="44.70454" lon="5.85943">
        <ele>1562.315</ele>
        <time>2014-07-19T06:14:55Z</time>
      </trkpt>
      <trkpt lat="44.70451" lon="5.85938">
        <ele>1562.131</ele>
        <time>2014-07-19T06:14:59Z</time>
      </trkpt>
      <trkpt lat="44.70446" lon="5.85925">
        <ele>1562.694</ele>
        <time>2014-07-19T06:15:08Z</time>
      </trkpt>
      <trkpt lat="44.70445" lon="5.85921">
        <ele>1562.869</ele>
        <time>2014-07-19T06:15:11Z</time>
      </trkpt>
      <trkpt lat="44.70449" lon="5.85897">
        <ele>1563.849</ele>
        <time>2014-07-19T06:15:26Z</time>
      </trkpt>
      <trkpt lat="44.70449" lon="5.85893">
        <ele>1563.544</ele>
        <time>2014-07-19T06:15:29Z</time>
      </trkpt>
      <trkpt lat="44.70447" lon="5.85883">
        <ele>1564.494</ele>
        <time>2014-07-19T06:15:35Z</time>
      </trkpt>
      <trkpt lat="44.70449" lon="5.85865">
        <ele>1566.344</ele>
        <time>2014-07-19T06:15:49Z</time>
      </trkpt>
      <trkpt lat="44.7045" lon="5.85849">
        <ele>1568.757</ele>
        <time>2014-07-19T06:16:04Z</time>
      </trkpt>
      <trkpt lat="44.70452" lon="5.85835">
        <ele>1572.029</ele>
        <time>2014-07-19T06:16:21Z</time>
      </trkpt>
      <trkpt lat="44.70457" lon="5.85822">
        <ele>1573.946</ele>
        <time>2014-07-19T06:16:33Z</time>
      </trkpt>
      <trkpt lat="44.70458" lon="5.8581">
        <ele>1575.622</ele>
        <time>2014-07-19T06:16:54Z</time>
      </trkpt>
      <trkpt lat="44.7046" lon="5.85807">
        <ele>1576.096</ele>
        <time>2014-07-19T06:16:58Z</time>
      </trkpt>
      <trkpt lat="44.7046" lon="5.85803">
        <ele>1576.317</ele>
        <time>2014-07-19T06:17:00Z</time>
      </trkpt>
      <trkpt lat="44.70462" lon="5.85784">
        <ele>1578.895</ele>
        <time>2014-07-19T06:17:16Z</time>
      </trkpt>
      <trkpt lat="44.70459" lon="5.85769">
        <ele>1582.542</ele>
        <time>2014-07-19T06:17:31Z</time>
      </trkpt>
      <trkpt lat="44.70456" lon="5.85757">
        <ele>1584.499</ele>
        <time>2014-07-19T06:17:44Z</time>
      </trkpt>
      <trkpt lat="44.70453" lon="5.85732">
        <ele>1587.728</ele>
        <time>2014-07-19T06:18:05Z</time>
      </trkpt>
      <trkpt lat="44.70455" lon="5.85719">
        <ele>1590.408</ele>
        <time>2014-07-19T06:18:19Z</time>
      </trkpt>
      <trkpt lat="44.70454" lon="5.85706">
        <ele>1592.083</ele>
        <time>2014-07-19T06:18:32Z</time>
      </trkpt>
      <trkpt lat="44.70455" lon="5.85689">
        <ele>1593.665</ele>
        <time>2014-07-19T06:18:46Z</time>
      </trkpt>
      <trkpt lat="44.70457" lon="5.85679">
        <ele>1593.99</ele>
        <time>2014-07-19T06:19:07Z</time>
      </trkpt>
      <trkpt lat="44.7046" lon="5.85658">
        <ele>1596.494</ele>
        <time>2014-07-19T06:19:23Z</time>
      </trkpt>
      <trkpt lat="44.70461" lon="5.85646">
        <ele>1598.5</ele>
        <time>2014-07-19T06:19:41Z</time>
      </trkpt>
      <trkpt lat="44.70463" lon="5.85639">
        <ele>1599.457</ele>
        <time>2014-07-19T06:20:28Z</time>
      </trkpt>
      <trkpt lat="44.70459" lon="5.85619">
        <ele>1601.677</ele>
        <time>2014-07-19T06:20:45Z</time>
      </trkpt>
      <trkpt lat="44.70457" lon="5.85606">
        <ele>1602.8</ele>
        <time>2014-07-19T06:20:54Z</time>
      </trkpt>
      <trkpt lat="44.70456" lon="5.85579">
        <ele>1604.515</ele>
        <time>2014-07-19T06:21:14Z</time>
      </trkpt>
      <trkpt lat="44.70455" lon="5.85573">
        <ele>1605.172</ele>
        <time>2014-07-19T06:21:18Z</time>
      </trkpt>
      <trkpt lat="44.70457" lon="5.85564">
        <ele>1605.656</ele>
        <time>2014-07-19T06:21:25Z</time>
      </trkpt>
      <trkpt lat="44.70456" lon="5.85539">
        <ele>1607.636</ele>
        <time>2014-07-19T06:21:44Z</time>
      </trkpt>
      <trkpt lat="44.70463" lon="5.85519">
        <ele>1610.236</ele>
        <time>2014-07-19T06:22:02Z</time>
      </trkpt>
      <trkpt lat="44.70475" lon="5.85517">
        <ele>1612.682</ele>
        <time>2014-07-19T06:22:17Z</time>
      </trkpt>
      <trkpt lat="44.70477" lon="5.85515">
        <ele>1613.73</ele>
        <time>2014-07-19T06:22:20Z</time>
      </trkpt>
      <trkpt lat="44.7048" lon="5.85509">
        <ele>1614.417</ele>
        <time>2014-07-19T06:22:26Z</time>
      </trkpt>
      <trkpt lat="44.70481" lon="5.85502">
        <ele>1615.333</ele>
        <time>2014-07-19T06:22:33Z</time>
      </trkpt>
      <trkpt lat="44.70484" lon="5.85495">
        <ele>1616.934</ele>
        <time>2014-07-19T06:22:41Z</time>
      </trkpt>
      <trkpt lat="44.70484" lon="5.85479">
        <ele>1619.534</ele>
        <time>2014-07-19T06:22:56Z</time>
      </trkpt>
      <trkpt lat="44.70483" lon="5.85473">
        <ele>1619.739</ele>
        <time>2014-07-19T06:23:01Z</time>
      </trkpt>
      <trkpt lat="44.7048" lon="5.85452">
        <ele>1622.171</ele>
        <time>2014-07-19T06:23:18Z</time>
      </trkpt>
      <trkpt lat="44.70476" lon="5.85432">
        <ele>1625.248</ele>
        <time>2014-07-19T06:23:36Z</time>
      </trkpt>
      <trkpt lat="44.70475" lon="5.85428">
        <ele>1626.005</ele>
        <time>2014-07-19T06:23:39Z</time>
      </trkpt>
      <trkpt lat="44.70467" lon="5.85423">
        <ele>1627.929</ele>
        <time>2014-07-19T06:23:53Z</time>
      </trkpt>
      <trkpt lat="44.70465" lon="5.85423">
        <ele>1628.73</ele>
        <time>2014-07-19T06:24:12Z</time>
      </trkpt>
      <trkpt lat="44.70457" lon="5.85417">
        <ele>1630.028</ele>
        <time>2014-07-19T06:24:20Z</time>
      </trkpt>
      <trkpt lat="44.70445" lon="5.85405">
        <ele>1631.547</ele>
        <time>2014-07-19T06:24:37Z</time>
      </trkpt>
      <trkpt lat="44.70445" lon="5.85395">
        <ele>1633.234</ele>
        <time>2014-07-19T06:24:46Z</time>
      </trkpt>
      <trkpt lat="44.70459" lon="5.85387">
        <ele>1635.882</ele>
        <time>2014-07-19T06:25:04Z</time>
      </trkpt>
      <trkpt lat="44.70466" lon="5.8538">
        <ele>1637.736</ele>
        <time>2014-07-19T06:25:14Z</time>
      </trkpt>
      <trkpt lat="44.70477" lon="5.85369">
        <ele>1639.454</ele>
        <time>2014-07-19T06:25:29Z</time>
      </trkpt>
      <trkpt lat="44.70475" lon="5.85356">
        <ele>1641.364</ele>
        <time>2014-07-19T06:25:47Z</time>
      </trkpt>
      <trkpt lat="44.70453" lon="5.85356">
        <ele>1644.661</ele>
        <time>2014-07-19T06:26:12Z</time>
      </trkpt>
      <trkpt lat="44.70438" lon="5.85345">
        <ele>1647.106</ele>
        <time>2014-07-19T06:26:32Z</time>
      </trkpt>
      <trkpt lat="44.70428" lon="5.85339">
        <ele>1650.164</ele>
        <time>2014-07-19T06:26:46Z</time>
      </trkpt>
      <trkpt lat="44.70409" lon="5.85331">
        <ele>1652.861</ele>
        <time>2014-07-19T06:27:08Z</time>
      </trkpt>
      <trkpt lat="44.70406" lon="5.85328">
        <ele>1653.913</ele>
        <time>2014-07-19T06:27:13Z</time>
      </trkpt>
      <trkpt lat="44.70394" lon="5.85312">
        <ele>1657.426</ele>
        <time>2014-07-19T06:27:33Z</time>
      </trkpt>
      <trkpt lat="44.70398" lon="5.85301">
        <ele>1660.572</ele>
        <time>2014-07-19T06:27:47Z</time>
      </trkpt>
      <trkpt lat="44.70404" lon="5.85293">
        <ele>1662.48</ele>
        <time>2014-07-19T06:28:03Z</time>
      </trkpt>
      <trkpt lat="44.70406" lon="5.8528">
        <ele>1664.473</ele>
        <time>2014-07-19T06:28:23Z</time>
      </trkpt>
      <trkpt lat="44.70398" lon="5.85267">
        <ele>1667.656</ele>
        <time>2014-07-19T06:28:40Z</time>
      </trkpt>
      <trkpt lat="44.70391" lon="5.85251">
        <ele>1670.885</ele>
        <time>2014-07-19T06:28:58Z</time>
      </trkpt>
      <trkpt lat="44.70386" lon="5.85233">
        <ele>1674.043</ele>
        <time>2014-07-19T06:29:15Z</time>
      </trkpt>
      <trkpt lat="44.70378" lon="5.85218">
        <ele>1676.216</ele>
        <time>2014-07-19T06:29:30Z</time>
      </trkpt>
      <trkpt lat="44.70371" lon="5.85206">
        <ele>1679.685</ele>
        <time>2014-07-19T06:29:44Z</time>
      </trkpt>
      <trkpt lat="44.70359" lon="5.85196">
        <ele>1682.815</ele>
        <time>2014-07-19T06:30:05Z</time>
      </trkpt>
      <trkpt lat="44.70345" lon="5.85194">
        <ele>1684.466</ele>
        <time>2014-07-19T06:30:21Z</time>
      </trkpt>
      <trkpt lat="44.70322" lon="5.85191">
        <ele>1685.483</ele>
        <time>2014-07-19T06:30:43Z</time>
      </trkpt>
      <trkpt lat="44.70304" lon="5.85189">
        <ele>1687.862</ele>
        <time>2014-07-19T06:31:05Z</time>
      </trkpt>
      <trkpt lat="44.70302" lon="5.8519">
        <ele>1687.581</ele>
        <time>2014-07-19T06:31:08Z</time>
      </trkpt>
      <trkpt lat="44.70285" lon="5.85188">
        <ele>1690.288</ele>
        <time>2014-07-19T06:31:27Z</time>
      </trkpt>
      <trkpt lat="44.70275" lon="5.8518">
        <ele>1692.994</ele>
        <time>2014-07-19T06:31:42Z</time>
      </trkpt>
      <trkpt lat="44.70277" lon="5.8517">
        <ele>1694.849</ele>
        <time>2014-07-19T06:31:57Z</time>
      </trkpt>
      <trkpt lat="44.7029" lon="5.85159">
        <ele>1697.501</ele>
        <time>2014-07-19T06:32:24Z</time>
      </trkpt>
      <trkpt lat="44.70297" lon="5.85148">
        <ele>1699.122</ele>
        <time>2014-07-19T06:32:38Z</time>
      </trkpt>
      <trkpt lat="44.70304" lon="5.85134">
        <ele>1700.83</ele>
        <time>2014-07-19T06:32:51Z</time>
      </trkpt>
      <trkpt lat="44.70301" lon="5.85128">
        <ele>1702.008</ele>
        <time>2014-07-19T06:32:57Z</time>
      </trkpt>
      <trkpt lat="44.7029" lon="5.85117">
        <ele>1703.224</ele>
        <time>2014-07-19T06:33:12Z</time>
      </trkpt>
      <trkpt lat="44.70275" lon="5.85109">
        <ele>1706.127</ele>
        <time>2014-07-19T06:33:32Z</time>
      </trkpt>
      <trkpt lat="44.70273" lon="5.85106">
        <ele>1707.363</ele>
        <time>2014-07-19T06:33:35Z</time>
      </trkpt>
      <trkpt lat="44.70267" lon="5.85094">
        <ele>1709.93</ele>
        <time>2014-07-19T06:33:50Z</time>
      </trkpt>
      <trkpt lat="44.70262" lon="5.85089">
        <ele>1710.149</ele>
        <time>2014-07-19T06:33:57Z</time>
      </trkpt>
      <trkpt lat="44.7026" lon="5.85089">
        <ele>1710.545</ele>
        <time>2014-07-19T06:33:59Z</time>
      </trkpt>
      <trkpt lat="44.70252" lon="5.85082">
        <ele>1712.165</ele>
        <time>2014-07-19T06:34:12Z</time>
      </trkpt>
      <trkpt lat="44.70243" lon="5.85074">
        <ele>1714.211</ele>
        <time>2014-07-19T06:34:32Z</time>
      </trkpt>
      <trkpt lat="44.70231" lon="5.85068">
        <ele>1715.467</ele>
        <time>2014-07-19T06:35:27Z</time>
      </trkpt>
      <trkpt lat="44.70225" lon="5.85068">
        <ele>1714.037</ele>
        <time>2014-07-19T06:35:31Z</time>
      </trkpt>
      <trkpt lat="44.70213" lon="5.85058">
        <ele>1713.633</ele>
        <time>2014-07-19T06:35:46Z</time>
      </trkpt>
      <trkpt lat="44.70205" lon="5.85039">
        <ele>1713.816</ele>
        <time>2014-07-19T06:36:02Z</time>
      </trkpt>
      <trkpt lat="44.70195" lon="5.85014">
        <ele>1713.547</ele>
        <time>2014-07-19T06:36:19Z</time>
      </trkpt>
      <trkpt lat="44.70193" lon="5.84991">
        <ele>1716.551</ele>
        <time>2014-07-19T06:36:37Z</time>
      </trkpt>
      <trkpt lat="44.70192" lon="5.84986">
        <ele>1717.403</ele>
        <time>2014-07-19T06:36:41Z</time>
      </trkpt>
      <trkpt lat="44.70194" lon="5.84974">
        <ele>1720.478</ele>
        <time>2014-07-19T06:36:51Z</time>
      </trkpt>
      <trkpt lat="44.7019" lon="5.84952">
        <ele>1722.756</ele>
        <time>2014-07-19T06:37:12Z</time>
      </trkpt>
      <trkpt lat="44.70188" lon="5.84927">
        <ele>1723.879</ele>
        <time>2014-07-19T06:37:29Z</time>
      </trkpt>
      <trkpt lat="44.70187" lon="5.8491">
        <ele>1722.275</ele>
        <time>2014-07-19T06:37:40Z</time>
      </trkpt>
      <trkpt lat="44.70194" lon="5.84888">
        <ele>1722.825</ele>
        <time>2014-07-19T06:37:56Z</time>
      </trkpt>
      <trkpt lat="44.70201" lon="5.84874">
        <ele>1725.771</ele>
        <time>2014-07-19T06:38:11Z</time>
      </trkpt>
      <trkpt lat="44.70207" lon="5.8486">
        <ele>1728.559</ele>
        <time>2014-07-19T06:38:26Z</time>
      </trkpt>
      <trkpt lat="44.70207" lon="5.84857">
        <ele>1727.649</ele>
        <time>2014-07-19T06:38:46Z</time>
      </trkpt>
      <trkpt lat="44.70204" lon="5.84843">
        <ele>1729.617</ele>
        <time>2014-07-19T06:39:09Z</time>
      </trkpt>
      <trkpt lat="44.70201" lon="5.84836">
        <ele>1732.071</ele>
        <time>2014-07-19T06:39:23Z</time>
      </trkpt>
      <trkpt lat="44.70197" lon="5.84827">
        <ele>1734.295</ele>
        <time>2014-07-19T06:39:39Z</time>
      </trkpt>
      <trkpt lat="44.70199" lon="5.84816">
        <ele>1736.204</ele>
        <time>2014-07-19T06:39:54Z</time>
      </trkpt>
      <trkpt lat="44.70204" lon="5.84809">
        <ele>1738.615</ele>
        <time>2014-07-19T06:40:06Z</time>
      </trkpt>
      <trkpt lat="44.7021" lon="5.84801">
        <ele>1741.715</ele>
        <time>2014-07-19T06:40:19Z</time>
      </trkpt>
      <trkpt lat="44.70214" lon="5.84787">
        <ele>1744.975</ele>
        <time>2014-07-19T06:40:37Z</time>
      </trkpt>
      <trkpt lat="44.70219" lon="5.84777">
        <ele>1747.438</ele>
        <time>2014-07-19T06:40:50Z</time>
      </trkpt>
      <trkpt lat="44.70222" lon="5.84773">
        <ele>1749.518</ele>
        <time>2014-07-19T06:40:58Z</time>
      </trkpt>
      <trkpt lat="44.70233" lon="5.84765">
        <ele>1752.077</ele>
        <time>2014-07-19T06:41:13Z</time>
      </trkpt>
      <trkpt lat="44.70237" lon="5.84762">
        <ele>1752.525</ele>
        <time>2014-07-19T06:41:20Z</time>
      </trkpt>
      <trkpt lat="44.70241" lon="5.84758">
        <ele>1754.332</ele>
        <time>2014-07-19T06:41:26Z</time>
      </trkpt>
      <trkpt lat="44.70246" lon="5.84749">
        <ele>1756.121</ele>
        <time>2014-07-19T06:41:36Z</time>
      </trkpt>
      <trkpt lat="44.70253" lon="5.84736">
        <ele>1755.967</ele>
        <time>2014-07-19T06:41:51Z</time>
      </trkpt>
      <trkpt lat="44.70256" lon="5.84728">
        <ele>1756.867</ele>
        <time>2014-07-19T06:41:57Z</time>
      </trkpt>
      <trkpt lat="44.70261" lon="5.84719">
        <ele>1756.871</ele>
        <time>2014-07-19T06:42:05Z</time>
      </trkpt>
      <trkpt lat="44.70271" lon="5.8471">
        <ele>1759.559</ele>
        <time>2014-07-19T06:42:23Z</time>
      </trkpt>
      <trkpt lat="44.70274" lon="5.84707">
        <ele>1760.652</ele>
        <time>2014-07-19T06:42:28Z</time>
      </trkpt>
      <trkpt lat="44.70277" lon="5.84705">
        <ele>1763.007</ele>
        <time>2014-07-19T06:42:35Z</time>
      </trkpt>
      <trkpt lat="44.70282" lon="5.84701">
        <ele>1762.704</ele>
        <time>2014-07-19T06:42:52Z</time>
      </trkpt>
      <trkpt lat="44.70287" lon="5.84695">
        <ele>1763.899</ele>
        <time>2014-07-19T06:42:58Z</time>
      </trkpt>
      <trkpt lat="44.70295" lon="5.84681">
        <ele>1764.97</ele>
        <time>2014-07-19T06:43:12Z</time>
      </trkpt>
      <trkpt lat="44.70301" lon="5.84669">
        <ele>1768.147</ele>
        <time>2014-07-19T06:43:29Z</time>
      </trkpt>
      <trkpt lat="44.70303" lon="5.84663">
        <ele>1769.154</ele>
        <time>2014-07-19T06:43:35Z</time>
      </trkpt>
      <trkpt lat="44.70307" lon="5.84652">
        <ele>1770.825</ele>
        <time>2014-07-19T06:43:47Z</time>
      </trkpt>
      <trkpt lat="44.70312" lon="5.84628">
        <ele>1773.314</ele>
        <time>2014-07-19T06:44:08Z</time>
      </trkpt>
      <trkpt lat="44.70318" lon="5.84612">
        <ele>1775.571</ele>
        <time>2014-07-19T06:44:25Z</time>
      </trkpt>
      <trkpt lat="44.70324" lon="5.84601">
        <ele>1776.313</ele>
        <time>2014-07-19T06:44:37Z</time>
      </trkpt>
      <trkpt lat="44.7033" lon="5.84591">
        <ele>1779.077</ele>
        <time>2014-07-19T06:44:49Z</time>
      </trkpt>
      <trkpt lat="44.70336" lon="5.84577">
        <ele>1780.815</ele>
        <time>2014-07-19T06:45:06Z</time>
      </trkpt>
      <trkpt lat="44.70341" lon="5.84566">
        <ele>1782.942</ele>
        <time>2014-07-19T06:45:19Z</time>
      </trkpt>
      <trkpt lat="44.70345" lon="5.84551">
        <ele>1784.977</ele>
        <time>2014-07-19T06:45:34Z</time>
      </trkpt>
      <trkpt lat="44.70347" lon="5.84537">
        <ele>1786.855</ele>
        <time>2014-07-19T06:45:46Z</time>
      </trkpt>
      <trkpt lat="44.7035" lon="5.84524">
        <ele>1787.615</ele>
        <time>2014-07-19T06:45:57Z</time>
      </trkpt>
      <trkpt lat="44.70357" lon="5.84505">
        <ele>1790.138</ele>
        <time>2014-07-19T06:46:15Z</time>
      </trkpt>
      <trkpt lat="44.70358" lon="5.84502">
        <ele>1790.498</ele>
        <time>2014-07-19T06:46:18Z</time>
      </trkpt>
      <trkpt lat="44.70362" lon="5.84486">
        <ele>1792.821</ele>
        <time>2014-07-19T06:46:31Z</time>
      </trkpt>
      <trkpt lat="44.70366" lon="5.84465">
        <ele>1795.567</ele>
        <time>2014-07-19T06:46:51Z</time>
      </trkpt>
      <trkpt lat="44.70371" lon="5.84453">
        <ele>1798.602</ele>
        <time>2014-07-19T06:47:06Z</time>
      </trkpt>
      <trkpt lat="44.70375" lon="5.84441">
        <ele>1798.295</ele>
        <time>2014-07-19T06:47:27Z</time>
      </trkpt>
      <trkpt lat="44.70377" lon="5.84435">
        <ele>1797.994</ele>
        <time>2014-07-19T06:47:32Z</time>
      </trkpt>
      <trkpt lat="44.70384" lon="5.84415">
        <ele>1797.542</ele>
        <time>2014-07-19T06:47:48Z</time>
      </trkpt>
      <trkpt lat="44.7039" lon="5.84392">
        <ele>1797.385</ele>
        <time>2014-07-19T06:48:07Z</time>
      </trkpt>
      <trkpt lat="44.70392" lon="5.84381">
        <ele>1797.958</ele>
        <time>2014-07-19T06:48:15Z</time>
      </trkpt>
      <trkpt lat="44.70392" lon="5.84371">
        <ele>1798.248</ele>
        <time>2014-07-19T06:48:23Z</time>
      </trkpt>
      <trkpt lat="44.70392" lon="5.84365">
        <ele>1799.419</ele>
        <time>2014-07-19T06:48:29Z</time>
      </trkpt>
      <trkpt lat="44.70393" lon="5.84362">
        <ele>1798.735</ele>
        <time>2014-07-19T06:48:32Z</time>
      </trkpt>
      <trkpt lat="44.70399" lon="5.84353">
        <ele>1798.198</ele>
        <time>2014-07-19T06:48:40Z</time>
      </trkpt>
      <trkpt lat="44.70406" lon="5.84327">
        <ele>1795.939</ele>
        <time>2014-07-19T06:48:58Z</time>
      </trkpt>
      <trkpt lat="44.7041" lon="5.84319">
        <ele>1796.587</ele>
        <time>2014-07-19T06:49:04Z</time>
      </trkpt>
      <trkpt lat="44.70425" lon="5.843">
        <ele>1797.454</ele>
        <time>2014-07-19T06:49:22Z</time>
      </trkpt>
      <trkpt lat="44.70444" lon="5.84289">
        <ele>1799.731</ele>
        <time>2014-07-19T06:49:45Z</time>
      </trkpt>
      <trkpt lat="44.70451" lon="5.84285">
        <ele>1801.141</ele>
        <time>2014-07-19T06:49:54Z</time>
      </trkpt>
      <trkpt lat="44.70464" lon="5.84278">
        <ele>1802.745</ele>
        <time>2014-07-19T06:50:10Z</time>
      </trkpt>
      <trkpt lat="44.70468" lon="5.84276">
        <ele>1803.568</ele>
        <time>2014-07-19T06:50:14Z</time>
      </trkpt>
      <trkpt lat="44.70478" lon="5.8427">
        <ele>1803.907</ele>
        <time>2014-07-19T06:50:24Z</time>
      </trkpt>
      <trkpt lat="44.70489" lon="5.84258">
        <ele>1805.349</ele>
        <time>2014-07-19T06:50:38Z</time>
      </trkpt>
      <trkpt lat="44.70496" lon="5.84252">
        <ele>1805.699</ele>
        <time>2014-07-19T06:50:46Z</time>
      </trkpt>
      <trkpt lat="44.70499" lon="5.84248">
        <ele>1806.025</ele>
        <time>2014-07-19T06:50:51Z</time>
      </trkpt>
      <trkpt lat="44.70509" lon="5.84235">
        <ele>1806.704</ele>
        <time>2014-07-19T06:51:06Z</time>
      </trkpt>
      <trkpt lat="44.7052" lon="5.84226">
        <ele>1808.924</ele>
        <time>2014-07-19T06:51:21Z</time>
      </trkpt>
      <trkpt lat="44.70534" lon="5.84221">
        <ele>1811.238</ele>
        <time>2014-07-19T06:51:38Z</time>
      </trkpt>
      <trkpt lat="44.70536" lon="5.84219">
        <ele>1811.189</ele>
        <time>2014-07-19T06:51:40Z</time>
      </trkpt>
      <trkpt lat="44.7055" lon="5.8421">
        <ele>1812</ele>
        <time>2014-07-19T06:51:55Z</time>
      </trkpt>
      <trkpt lat="44.70563" lon="5.84199">
        <ele>1812.936</ele>
        <time>2014-07-19T06:52:11Z</time>
      </trkpt>
      <trkpt lat="44.70576" lon="5.84189">
        <ele>1813.597</ele>
        <time>2014-07-19T06:52:25Z</time>
      </trkpt>
      <trkpt lat="44.70584" lon="5.84186">
        <ele>1813.484</ele>
        <time>2014-07-19T06:52:33Z</time>
      </trkpt>
      <trkpt lat="44.70598" lon="5.84181">
        <ele>1813.952</ele>
        <time>2014-07-19T06:52:48Z</time>
      </trkpt>
      <trkpt lat="44.70601" lon="5.84181">
        <ele>1813.875</ele>
        <time>2014-07-19T06:52:50Z</time>
      </trkpt>
      <trkpt lat="44.70612" lon="5.84178">
        <ele>1816.125</ele>
        <time>2014-07-19T06:53:10Z</time>
      </trkpt>
      <trkpt lat="44.70619" lon="5.84175">
        <ele>1815.472</ele>
        <time>2014-07-19T06:53:43Z</time>
      </trkpt>
      <trkpt lat="44.70621" lon="5.84171">
        <ele>1815.908</ele>
        <time>2014-07-19T06:53:45Z</time>
      </trkpt>
      <trkpt lat="44.70625" lon="5.84167">
        <ele>1815.167</ele>
        <time>2014-07-19T06:53:50Z</time>
      </trkpt>
      <trkpt lat="44.70632" lon="5.84161">
        <ele>1815.242</ele>
        <time>2014-07-19T06:53:55Z</time>
      </trkpt>
      <trkpt lat="44.70646" lon="5.84147">
        <ele>1815.161</ele>
        <time>2014-07-19T06:54:08Z</time>
      </trkpt>
      <trkpt lat="44.70649" lon="5.84146">
        <ele>1815.362</ele>
        <time>2014-07-19T06:54:10Z</time>
      </trkpt>
      <trkpt lat="44.70655" lon="5.84144">
        <ele>1815.357</ele>
        <time>2014-07-19T06:54:15Z</time>
      </trkpt>
      <trkpt lat="44.70667" lon="5.84136">
        <ele>1816.156</ele>
        <time>2014-07-19T06:54:31Z</time>
      </trkpt>
      <trkpt lat="44.70675" lon="5.84135">
        <ele>1815.706</ele>
        <time>2014-07-19T06:54:49Z</time>
      </trkpt>
      <trkpt lat="44.70684" lon="5.84128">
        <ele>1815.565</ele>
        <time>2014-07-19T06:55:05Z</time>
      </trkpt>
      <trkpt lat="44.7069" lon="5.84121">
        <ele>1815.905</ele>
        <time>2014-07-19T06:55:13Z</time>
      </trkpt>
      <trkpt lat="44.70695" lon="5.84117">
        <ele>1815.668</ele>
        <time>2014-07-19T06:55:17Z</time>
      </trkpt>
      <trkpt lat="44.70698" lon="5.84113">
        <ele>1814.817</ele>
        <time>2014-07-19T06:55:21Z</time>
      </trkpt>
      <trkpt lat="44.70702" lon="5.84114">
        <ele>1813</ele>
        <time>2014-07-19T06:55:26Z</time>
      </trkpt>
      <trkpt lat="44.70701" lon="5.84101">
        <ele>1811.061</ele>
        <time>2014-07-19T06:55:39Z</time>
      </trkpt>
      <trkpt lat="44.70688" lon="5.84084">
        <ele>1809.153</ele>
        <time>2014-07-19T06:55:54Z</time>
      </trkpt>
      <trkpt lat="44.70691" lon="5.84079">
        <ele>1807.995</ele>
        <time>2014-07-19T06:55:59Z</time>
      </trkpt>
      <trkpt lat="44.70696" lon="5.84077">
        <ele>1806.654</ele>
        <time>2014-07-19T06:56:03Z</time>
      </trkpt>
      <trkpt lat="44.70701" lon="5.84074">
        <ele>1805.316</ele>
        <time>2014-07-19T06:56:09Z</time>
      </trkpt>
      <trkpt lat="44.70712" lon="5.84071">
        <ele>1803.211</ele>
        <time>2014-07-19T06:56:21Z</time>
      </trkpt>
      <trkpt lat="44.70716" lon="5.84068">
        <ele>1802.515</ele>
        <time>2014-07-19T06:56:26Z</time>
      </trkpt>
      <trkpt lat="44.7072" lon="5.84063">
        <ele>1800.797</ele>
        <time>2014-07-19T06:56:32Z</time>
      </trkpt>
      <trkpt lat="44.70723" lon="5.84057">
        <ele>1799.88</ele>
        <time>2014-07-19T06:56:37Z</time>
      </trkpt>
      <trkpt lat="44.70726" lon="5.84054">
        <ele>1798.045</ele>
        <time>2014-07-19T06:56:42Z</time>
      </trkpt>
      <trkpt lat="44.7073" lon="5.84046">
        <ele>1794.235</ele>
        <time>2014-07-19T06:57:35Z</time>
      </trkpt>
      <trkpt lat="44.70733" lon="5.84041">
        <ele>1791.863</ele>
        <time>2014-07-19T06:57:57Z</time>
      </trkpt>
      <trkpt lat="44.70736" lon="5.84038">
        <ele>1791.519</ele>
        <time>2014-07-19T06:58:00Z</time>
      </trkpt>
      <trkpt lat="44.70739" lon="5.84031">
        <ele>1790.153</ele>
        <time>2014-07-19T06:58:07Z</time>
      </trkpt>
      <trkpt lat="44.70741" lon="5.84014">
        <ele>1787.773</ele>
        <time>2014-07-19T06:58:24Z</time>
      </trkpt>
      <trkpt lat="44.70738" lon="5.83986">
        <ele>1785.416</ele>
        <time>2014-07-19T06:58:42Z</time>
      </trkpt>
      <trkpt lat="44.70738" lon="5.83968">
        <ele>1782.384</ele>
        <time>2014-07-19T06:58:55Z</time>
      </trkpt>
      <trkpt lat="44.70731" lon="5.83942">
        <ele>1780.785</ele>
        <time>2014-07-19T06:59:13Z</time>
      </trkpt>
      <trkpt lat="44.70727" lon="5.8391">
        <ele>1779.34</ele>
        <time>2014-07-19T06:59:35Z</time>
      </trkpt>
      <trkpt lat="44.7073" lon="5.83897">
        <ele>1779.291</ele>
        <time>2014-07-19T06:59:45Z</time>
      </trkpt>
      <trkpt lat="44.70733" lon="5.8387">
        <ele>1776.675</ele>
        <time>2014-07-19T07:00:05Z</time>
      </trkpt>
      <trkpt lat="44.70734" lon="5.83865">
        <ele>1776.591</ele>
        <time>2014-07-19T07:00:10Z</time>
      </trkpt>
      <trkpt lat="44.70744" lon="5.83857">
        <ele>1774.367</ele>
        <time>2014-07-19T07:00:21Z</time>
      </trkpt>
      <trkpt lat="44.70746" lon="5.83851">
        <ele>1773.867</ele>
        <time>2014-07-19T07:00:26Z</time>
      </trkpt>
      <trkpt lat="44.70755" lon="5.83824">
        <ele>1773.028</ele>
        <time>2014-07-19T07:00:47Z</time>
      </trkpt>
      <trkpt lat="44.70759" lon="5.83813">
        <ele>1772.817</ele>
        <time>2014-07-19T07:00:56Z</time>
      </trkpt>
      <trkpt lat="44.70773" lon="5.83775">
        <ele>1772.055</ele>
        <time>2014-07-19T07:01:23Z</time>
      </trkpt>
      <trkpt lat="44.70773" lon="5.83773">
        <ele>1772.285</ele>
        <time>2014-07-19T07:01:25Z</time>
      </trkpt>
      <trkpt lat="44.70777" lon="5.83764">
        <ele>1772.795</ele>
        <time>2014-07-19T07:01:31Z</time>
      </trkpt>
      <trkpt lat="44.70783" lon="5.83747">
        <ele>1773.406</ele>
        <time>2014-07-19T07:01:45Z</time>
      </trkpt>
      <trkpt lat="44.70785" lon="5.83742">
        <ele>1773.951</ele>
        <time>2014-07-19T07:02:18Z</time>
      </trkpt>
      <trkpt lat="44.70794" lon="5.83719">
        <ele>1775.993</ele>
        <time>2014-07-19T07:02:38Z</time>
      </trkpt>
      <trkpt lat="44.70804" lon="5.837">
        <ele>1778.894</ele>
        <time>2014-07-19T07:02:58Z</time>
      </trkpt>
      <trkpt lat="44.70805" lon="5.83697">
        <ele>1779.589</ele>
        <time>2014-07-19T07:03:00Z</time>
      </trkpt>
      <trkpt lat="44.70814" lon="5.8368">
        <ele>1781.615</ele>
        <time>2014-07-19T07:03:17Z</time>
      </trkpt>
      <trkpt lat="44.7082" lon="5.83671">
        <ele>1781.266</ele>
        <time>2014-07-19T07:03:31Z</time>
      </trkpt>
      <trkpt lat="44.7083" lon="5.83655">
        <ele>1779.098</ele>
        <time>2014-07-19T07:03:47Z</time>
      </trkpt>
      <trkpt lat="44.70835" lon="5.83649">
        <ele>1778.109</ele>
        <time>2014-07-19T07:04:05Z</time>
      </trkpt>
      <trkpt lat="44.70839" lon="5.83641">
        <ele>1777.952</ele>
        <time>2014-07-19T07:04:11Z</time>
      </trkpt>
      <trkpt lat="44.70846" lon="5.83623">
        <ele>1778.832</ele>
        <time>2014-07-19T07:04:24Z</time>
      </trkpt>
      <trkpt lat="44.70848" lon="5.83616">
        <ele>1776.6</ele>
        <time>2014-07-19T07:04:29Z</time>
      </trkpt>
      <trkpt lat="44.70854" lon="5.83602">
        <ele>1776.238</ele>
        <time>2014-07-19T07:04:39Z</time>
      </trkpt>
      <trkpt lat="44.70864" lon="5.83582">
        <ele>1774.968</ele>
        <time>2014-07-19T07:04:55Z</time>
      </trkpt>
      <trkpt lat="44.70869" lon="5.83563">
        <ele>1774.243</ele>
        <time>2014-07-19T07:05:07Z</time>
      </trkpt>
      <trkpt lat="44.70874" lon="5.83558">
        <ele>1774.916</ele>
        <time>2014-07-19T07:05:11Z</time>
      </trkpt>
      <trkpt lat="44.70883" lon="5.83532">
        <ele>1775.52</ele>
        <time>2014-07-19T07:05:29Z</time>
      </trkpt>
      <trkpt lat="44.70895" lon="5.835">
        <ele>1774.912</ele>
        <time>2014-07-19T07:05:51Z</time>
      </trkpt>
      <trkpt lat="44.70905" lon="5.8347">
        <ele>1775.587</ele>
        <time>2014-07-19T07:06:10Z</time>
      </trkpt>
      <trkpt lat="44.70914" lon="5.83451">
        <ele>1775.988</ele>
        <time>2014-07-19T07:06:26Z</time>
      </trkpt>
      <trkpt lat="44.70919" lon="5.83436">
        <ele>1777.271</ele>
        <time>2014-07-19T07:06:37Z</time>
      </trkpt>
      <trkpt lat="44.70923" lon="5.83431">
        <ele>1778.204</ele>
        <time>2014-07-19T07:06:42Z</time>
      </trkpt>
      <trkpt lat="44.70927" lon="5.83411">
        <ele>1781.702</ele>
        <time>2014-07-19T07:06:59Z</time>
      </trkpt>
      <trkpt lat="44.7093" lon="5.83406">
        <ele>1782.685</ele>
        <time>2014-07-19T07:07:46Z</time>
      </trkpt>
      <trkpt lat="44.70934" lon="5.83379">
        <ele>1781.602</ele>
        <time>2014-07-19T07:08:14Z</time>
      </trkpt>
      <trkpt lat="44.70942" lon="5.83358">
        <ele>1784.569</ele>
        <time>2014-07-19T07:08:32Z</time>
      </trkpt>
      <trkpt lat="44.70943" lon="5.83337">
        <ele>1784.153</ele>
        <time>2014-07-19T07:08:44Z</time>
      </trkpt>
      <trkpt lat="44.70944" lon="5.8333">
        <ele>1784.302</ele>
        <time>2014-07-19T07:08:48Z</time>
      </trkpt>
      <trkpt lat="44.70944" lon="5.83327">
        <ele>1784.228</ele>
        <time>2014-07-19T07:08:50Z</time>
      </trkpt>
      <trkpt lat="44.70949" lon="5.83291">
        <ele>1785.932</ele>
        <time>2014-07-19T07:09:14Z</time>
      </trkpt>
      <trkpt lat="44.70954" lon="5.83264">
        <ele>1788.028</ele>
        <time>2014-07-19T07:09:32Z</time>
      </trkpt>
      <trkpt lat="44.70956" lon="5.83225">
        <ele>1790.05</ele>
        <time>2014-07-19T07:09:57Z</time>
      </trkpt>
      <trkpt lat="44.70954" lon="5.83215">
        <ele>1790.138</ele>
        <time>2014-07-19T07:10:03Z</time>
      </trkpt>
      <trkpt lat="44.70954" lon="5.83206">
        <ele>1790.423</ele>
        <time>2014-07-19T07:10:09Z</time>
      </trkpt>
      <trkpt lat="44.70957" lon="5.83198">
        <ele>1790.668</ele>
        <time>2014-07-19T07:10:15Z</time>
      </trkpt>
      <trkpt lat="44.70962" lon="5.8317">
        <ele>1792.293</ele>
        <time>2014-07-19T07:10:35Z</time>
      </trkpt>
      <trkpt lat="44.70956" lon="5.83135">
        <ele>1793.819</ele>
        <time>2014-07-19T07:10:57Z</time>
      </trkpt>
      <trkpt lat="44.70957" lon="5.83103">
        <ele>1795.369</ele>
        <time>2014-07-19T07:11:18Z</time>
      </trkpt>
      <trkpt lat="44.70959" lon="5.83092">
        <ele>1796.132</ele>
        <time>2014-07-19T07:11:25Z</time>
      </trkpt>
      <trkpt lat="44.70962" lon="5.8305">
        <ele>1799.128</ele>
        <time>2014-07-19T07:11:52Z</time>
      </trkpt>
      <trkpt lat="44.70965" lon="5.83024">
        <ele>1800.319</ele>
        <time>2014-07-19T07:12:10Z</time>
      </trkpt>
      <trkpt lat="44.70962" lon="5.82998">
        <ele>1802.197</ele>
        <time>2014-07-19T07:12:27Z</time>
      </trkpt>
      <trkpt lat="44.70963" lon="5.82992">
        <ele>1802.395</ele>
        <time>2014-07-19T07:12:31Z</time>
      </trkpt>
      <trkpt lat="44.70962" lon="5.8298">
        <ele>1802.797</ele>
        <time>2014-07-19T07:12:39Z</time>
      </trkpt>
      <trkpt lat="44.7096" lon="5.82974">
        <ele>1803.199</ele>
        <time>2014-07-19T07:12:43Z</time>
      </trkpt>
      <trkpt lat="44.70959" lon="5.82969">
        <ele>1803.764</ele>
        <time>2014-07-19T07:12:47Z</time>
      </trkpt>
      <trkpt lat="44.70958" lon="5.82957">
        <ele>1806.077</ele>
        <time>2014-07-19T07:12:54Z</time>
      </trkpt>
      <trkpt lat="44.70956" lon="5.82932">
        <ele>1807.929</ele>
        <time>2014-07-19T07:13:17Z</time>
      </trkpt>
      <trkpt lat="44.70954" lon="5.82914">
        <ele>1810.959</ele>
        <time>2014-07-19T07:13:33Z</time>
      </trkpt>
      <trkpt lat="44.70953" lon="5.82904">
        <ele>1813.975</ele>
        <time>2014-07-19T07:13:44Z</time>
      </trkpt>
      <trkpt lat="44.70954" lon="5.82899">
        <ele>1812.795</ele>
        <time>2014-07-19T07:14:02Z</time>
      </trkpt>
      <trkpt lat="44.70954" lon="5.82895">
        <ele>1815.568</ele>
        <time>2014-07-19T07:14:13Z</time>
      </trkpt>
      <trkpt lat="44.70962" lon="5.82872">
        <ele>1813.924</ele>
        <time>2014-07-19T07:14:29Z</time>
      </trkpt>
      <trkpt lat="44.70967" lon="5.82852">
        <ele>1815.79</ele>
        <time>2014-07-19T07:14:46Z</time>
      </trkpt>
      <trkpt lat="44.70963" lon="5.82828">
        <ele>1818.375</ele>
        <time>2014-07-19T07:15:08Z</time>
      </trkpt>
      <trkpt lat="44.70962" lon="5.8282">
        <ele>1821.481</ele>
        <time>2014-07-19T07:15:17Z</time>
      </trkpt>
      <trkpt lat="44.70955" lon="5.82808">
        <ele>1825.21</ele>
        <time>2014-07-19T07:15:35Z</time>
      </trkpt>
      <trkpt lat="44.70951" lon="5.82792">
        <ele>1827.039</ele>
        <time>2014-07-19T07:15:55Z</time>
      </trkpt>
      <trkpt lat="44.70954" lon="5.82775">
        <ele>1829.055</ele>
        <time>2014-07-19T07:16:13Z</time>
      </trkpt>
      <trkpt lat="44.7096" lon="5.82748">
        <ele>1830.258</ele>
        <time>2014-07-19T07:16:38Z</time>
      </trkpt>
      <trkpt lat="44.70958" lon="5.8273">
        <ele>1833.609</ele>
        <time>2014-07-19T07:16:57Z</time>
      </trkpt>
      <trkpt lat="44.70952" lon="5.82726">
        <ele>1836.651</ele>
        <time>2014-07-19T07:17:10Z</time>
      </trkpt>
      <trkpt lat="44.70946" lon="5.8272">
        <ele>1840.055</ele>
        <time>2014-07-19T07:17:26Z</time>
      </trkpt>
      <trkpt lat="44.70944" lon="5.82716">
        <ele>1843.077</ele>
        <time>2014-07-19T07:17:36Z</time>
      </trkpt>
      <trkpt lat="44.70933" lon="5.82715">
        <ele>1844.665</ele>
        <time>2014-07-19T07:17:51Z</time>
      </trkpt>
      <trkpt lat="44.70931" lon="5.82713">
        <ele>1845.198</ele>
        <time>2014-07-19T07:17:54Z</time>
      </trkpt>
      <trkpt lat="44.7093" lon="5.82711">
        <ele>1845.968</ele>
        <time>2014-07-19T07:17:56Z</time>
      </trkpt>
      <trkpt lat="44.7092" lon="5.82704">
        <ele>1849.146</ele>
        <time>2014-07-19T07:18:11Z</time>
      </trkpt>
      <trkpt lat="44.70914" lon="5.82703">
        <ele>1852.417</ele>
        <time>2014-07-19T07:18:22Z</time>
      </trkpt>
      <trkpt lat="44.70912" lon="5.827">
        <ele>1855.514</ele>
        <time>2014-07-19T07:18:34Z</time>
      </trkpt>
      <trkpt lat="44.70907" lon="5.82696">
        <ele>1858.778</ele>
        <time>2014-07-19T07:18:50Z</time>
      </trkpt>
      <trkpt lat="44.709" lon="5.82689">
        <ele>1861.985</ele>
        <time>2014-07-19T07:19:06Z</time>
      </trkpt>
      <trkpt lat="44.70894" lon="5.82684">
        <ele>1865.603</ele>
        <time>2014-07-19T07:19:20Z</time>
      </trkpt>
      <trkpt lat="44.70886" lon="5.82678">
        <ele>1867.549</ele>
        <time>2014-07-19T07:19:33Z</time>
      </trkpt>
      <trkpt lat="44.70884" lon="5.82656">
        <ele>1865.948</ele>
        <time>2014-07-19T07:19:51Z</time>
      </trkpt>
      <trkpt lat="44.70876" lon="5.82633">
        <ele>1868.599</ele>
        <time>2014-07-19T07:20:13Z</time>
      </trkpt>
      <trkpt lat="44.70873" lon="5.82619">
        <ele>1871.611</ele>
        <time>2014-07-19T07:20:30Z</time>
      </trkpt>
      <trkpt lat="44.70869" lon="5.82608">
        <ele>1873.962</ele>
        <time>2014-07-19T07:20:45Z</time>
      </trkpt>
      <trkpt lat="44.70869" lon="5.82605">
        <ele>1876.724</ele>
        <time>2014-07-19T07:20:49Z</time>
      </trkpt>
      <trkpt lat="44.70865" lon="5.82594">
        <ele>1880.458</ele>
        <time>2014-07-19T07:21:14Z</time>
      </trkpt>
      <trkpt lat="44.70864" lon="5.82588">
        <ele>1881.714</ele>
        <time>2014-07-19T07:21:22Z</time>
      </trkpt>
      <trkpt lat="44.70863" lon="5.82584">
        <ele>1884.14</ele>
        <time>2014-07-19T07:21:29Z</time>
      </trkpt>
      <trkpt lat="44.70862" lon="5.82577">
        <ele>1884.459</ele>
        <time>2014-07-19T07:21:36Z</time>
      </trkpt>
      <trkpt lat="44.70857" lon="5.82563">
        <ele>1885.96</ele>
        <time>2014-07-19T07:21:56Z</time>
      </trkpt>
      <trkpt lat="44.70857" lon="5.82559">
        <ele>1885.679</ele>
        <time>2014-07-19T07:21:59Z</time>
      </trkpt>
      <trkpt lat="44.70844" lon="5.82532">
        <ele>1884.974</ele>
        <time>2014-07-19T07:22:18Z</time>
      </trkpt>
      <trkpt lat="44.70842" lon="5.8252">
        <ele>1884.872</ele>
        <time>2014-07-19T07:27:28Z</time>
      </trkpt>
      <trkpt lat="44.70843" lon="5.82516">
        <ele>1885.27</ele>
        <time>2014-07-19T07:30:24Z</time>
      </trkpt>
      <trkpt lat="44.70836" lon="5.82494">
        <ele>1887.47</ele>
        <time>2014-07-19T07:30:46Z</time>
      </trkpt>
      <trkpt lat="44.70831" lon="5.82482">
        <ele>1891.155</ele>
        <time>2014-07-19T07:31:02Z</time>
      </trkpt>
      <trkpt lat="44.70827" lon="5.82472">
        <ele>1891.723</ele>
        <time>2014-07-19T07:31:11Z</time>
      </trkpt>
      <trkpt lat="44.70827" lon="5.82469">
        <ele>1891.67</ele>
        <time>2014-07-19T07:31:14Z</time>
      </trkpt>
      <trkpt lat="44.70816" lon="5.8244">
        <ele>1892.593</ele>
        <time>2014-07-19T07:31:36Z</time>
      </trkpt>
      <trkpt lat="44.70807" lon="5.8242">
        <ele>1894.962</ele>
        <time>2014-07-19T07:31:53Z</time>
      </trkpt>
      <trkpt lat="44.70798" lon="5.82405">
        <ele>1895.716</ele>
        <time>2014-07-19T07:32:08Z</time>
      </trkpt>
      <trkpt lat="44.70783" lon="5.82385">
        <ele>1898.194</ele>
        <time>2014-07-19T07:32:28Z</time>
      </trkpt>
      <trkpt lat="44.70779" lon="5.82375">
        <ele>1898.53</ele>
        <time>2014-07-19T07:32:37Z</time>
      </trkpt>
      <trkpt lat="44.70768" lon="5.82348">
        <ele>1901.631</ele>
        <time>2014-07-19T07:33:02Z</time>
      </trkpt>
      <trkpt lat="44.7076" lon="5.82319">
        <ele>1904.363</ele>
        <time>2014-07-19T07:33:26Z</time>
      </trkpt>
      <trkpt lat="44.70757" lon="5.82307">
        <ele>1906.654</ele>
        <time>2014-07-19T07:33:38Z</time>
      </trkpt>
      <trkpt lat="44.7075" lon="5.82286">
        <ele>1909.793</ele>
        <time>2014-07-19T07:34:00Z</time>
      </trkpt>
      <trkpt lat="44.70749" lon="5.82272">
        <ele>1913.202</ele>
        <time>2014-07-19T07:34:18Z</time>
      </trkpt>
      <trkpt lat="44.70751" lon="5.82262">
        <ele>1915.917</ele>
        <time>2014-07-19T07:34:36Z</time>
      </trkpt>
      <trkpt lat="44.7075" lon="5.82254">
        <ele>1917.69</ele>
        <time>2014-07-19T07:34:50Z</time>
      </trkpt>
      <trkpt lat="44.70747" lon="5.82245">
        <ele>1921.205</ele>
        <time>2014-07-19T07:35:05Z</time>
      </trkpt>
      <trkpt lat="44.70744" lon="5.8223">
        <ele>1924.32</ele>
        <time>2014-07-19T07:35:26Z</time>
      </trkpt>
      <trkpt lat="44.70737" lon="5.82215">
        <ele>1927.58</ele>
        <time>2014-07-19T07:35:44Z</time>
      </trkpt>
      <trkpt lat="44.70736" lon="5.82212">
        <ele>1928.918</ele>
        <time>2014-07-19T07:35:48Z</time>
      </trkpt>
      <trkpt lat="44.70728" lon="5.822">
        <ele>1931.933</ele>
        <time>2014-07-19T07:36:08Z</time>
      </trkpt>
      <trkpt lat="44.70723" lon="5.82191">
        <ele>1935.078</ele>
        <time>2014-07-19T07:36:23Z</time>
      </trkpt>
      <trkpt lat="44.70718" lon="5.82181">
        <ele>1938.281</ele>
        <time>2014-07-19T07:36:35Z</time>
      </trkpt>
      <trkpt lat="44.70714" lon="5.82177">
        <ele>1939.893</ele>
        <time>2014-07-19T07:36:39Z</time>
      </trkpt>
      <trkpt lat="44.70711" lon="5.82175">
        <ele>1941.581</ele>
        <time>2014-07-19T07:36:45Z</time>
      </trkpt>
      <trkpt lat="44.70702" lon="5.82161">
        <ele>1942.561</ele>
        <time>2014-07-19T07:37:06Z</time>
      </trkpt>
      <trkpt lat="44.7069" lon="5.82151">
        <ele>1945.302</ele>
        <time>2014-07-19T07:37:23Z</time>
      </trkpt>
      <trkpt lat="44.70689" lon="5.82142">
        <ele>1945.386</ele>
        <time>2014-07-19T07:37:47Z</time>
      </trkpt>
      <trkpt lat="44.70693" lon="5.82141">
        <ele>1945.763</ele>
        <time>2014-07-19T07:38:40Z</time>
      </trkpt>
      <trkpt lat="44.70696" lon="5.82141">
        <ele>1947.207</ele>
        <time>2014-07-19T07:38:44Z</time>
      </trkpt>
      <trkpt lat="44.70704" lon="5.82138">
        <ele>1950.61</ele>
        <time>2014-07-19T07:38:59Z</time>
      </trkpt>
      <trkpt lat="44.70715" lon="5.8213">
        <ele>1954.105</ele>
        <time>2014-07-19T07:39:19Z</time>
      </trkpt>
      <trkpt lat="44.7073" lon="5.82126">
        <ele>1954.035</ele>
        <time>2014-07-19T07:39:39Z</time>
      </trkpt>
      <trkpt lat="44.70742" lon="5.8213">
        <ele>1957.319</ele>
        <time>2014-07-19T07:39:57Z</time>
      </trkpt>
      <trkpt lat="44.7075" lon="5.82135">
        <ele>1957.791</ele>
        <time>2014-07-19T07:40:16Z</time>
      </trkpt>
      <trkpt lat="44.70755" lon="5.82128">
        <ele>1959.89</ele>
        <time>2014-07-19T07:40:35Z</time>
      </trkpt>
      <trkpt lat="44.7076" lon="5.82114">
        <ele>1963.394</ele>
        <time>2014-07-19T07:40:55Z</time>
      </trkpt>
      <trkpt lat="44.70764" lon="5.821">
        <ele>1965.591</ele>
        <time>2014-07-19T07:41:15Z</time>
      </trkpt>
      <trkpt lat="44.70764" lon="5.8209">
        <ele>1968.888</ele>
        <time>2014-07-19T07:41:36Z</time>
      </trkpt>
      <trkpt lat="44.70765" lon="5.8208">
        <ele>1972.05</ele>
        <time>2014-07-19T07:42:04Z</time>
      </trkpt>
      <trkpt lat="44.70766" lon="5.82076">
        <ele>1975.253</ele>
        <time>2014-07-19T07:42:22Z</time>
      </trkpt>
      <trkpt lat="44.70767" lon="5.82062">
        <ele>1978.327</ele>
        <time>2014-07-19T07:42:39Z</time>
      </trkpt>
      <trkpt lat="44.70765" lon="5.82042">
        <ele>1980.902</ele>
        <time>2014-07-19T07:43:02Z</time>
      </trkpt>
      <trkpt lat="44.70767" lon="5.82031">
        <ele>1983.992</ele>
        <time>2014-07-19T07:43:16Z</time>
      </trkpt>
      <trkpt lat="44.7077" lon="5.82021">
        <ele>1987.401</ele>
        <time>2014-07-19T07:43:32Z</time>
      </trkpt>
      <trkpt lat="44.70775" lon="5.82021">
        <ele>1991.202</ele>
        <time>2014-07-19T07:43:51Z</time>
      </trkpt>
      <trkpt lat="44.70783" lon="5.82029">
        <ele>1994.277</ele>
        <time>2014-07-19T07:44:13Z</time>
      </trkpt>
      <trkpt lat="44.70789" lon="5.82034">
        <ele>1996.997</ele>
        <time>2014-07-19T07:44:39Z</time>
      </trkpt>
      <trkpt lat="44.70791" lon="5.82037">
        <ele>1998.291</ele>
        <time>2014-07-19T07:44:43Z</time>
      </trkpt>
      <trkpt lat="44.70792" lon="5.82025">
        <ele>2001.548</ele>
        <time>2014-07-19T07:44:58Z</time>
      </trkpt>
      <trkpt lat="44.70797" lon="5.8201">
        <ele>2005.338</ele>
        <time>2014-07-19T07:45:14Z</time>
      </trkpt>
      <trkpt lat="44.70798" lon="5.82003">
        <ele>2007.895</ele>
        <time>2014-07-19T07:45:40Z</time>
      </trkpt>
      <trkpt lat="44.708" lon="5.82006">
        <ele>2009.71</ele>
        <time>2014-07-19T07:45:53Z</time>
      </trkpt>
      <trkpt lat="44.70805" lon="5.82011">
        <ele>2015.158</ele>
        <time>2014-07-19T07:46:09Z</time>
      </trkpt>
      <trkpt lat="44.7081" lon="5.82004">
        <ele>2017.895</ele>
        <time>2014-07-19T07:46:26Z</time>
      </trkpt>
      <trkpt lat="44.7081" lon="5.81991">
        <ele>2021.081</ele>
        <time>2014-07-19T07:46:46Z</time>
      </trkpt>
      <trkpt lat="44.70813" lon="5.81976">
        <ele>2023.546</ele>
        <time>2014-07-19T07:47:07Z</time>
      </trkpt>
      <trkpt lat="44.70815" lon="5.81962">
        <ele>2026.618</ele>
        <time>2014-07-19T07:47:24Z</time>
      </trkpt>
      <trkpt lat="44.70815" lon="5.81949">
        <ele>2029.901</ele>
        <time>2014-07-19T07:47:40Z</time>
      </trkpt>
      <trkpt lat="44.70822" lon="5.81951">
        <ele>2033.165</ele>
        <time>2014-07-19T07:47:54Z</time>
      </trkpt>
      <trkpt lat="44.70826" lon="5.8194">
        <ele>2036.389</ele>
        <time>2014-07-19T07:48:10Z</time>
      </trkpt>
      <trkpt lat="44.70827" lon="5.81926">
        <ele>2039.24</ele>
        <time>2014-07-19T07:48:30Z</time>
      </trkpt>
      <trkpt lat="44.70829" lon="5.81925">
        <ele>2040.723</ele>
        <time>2014-07-19T07:49:03Z</time>
      </trkpt>
      <trkpt lat="44.70829" lon="5.81913">
        <ele>2043.726</ele>
        <time>2014-07-19T07:49:17Z</time>
      </trkpt>
      <trkpt lat="44.7083" lon="5.81906">
        <ele>2046.753</ele>
        <time>2014-07-19T07:49:29Z</time>
      </trkpt>
      <trkpt lat="44.70831" lon="5.81896">
        <ele>2049.977</ele>
        <time>2014-07-19T07:49:47Z</time>
      </trkpt>
      <trkpt lat="44.70836" lon="5.8189">
        <ele>2053.313</ele>
        <time>2014-07-19T07:50:05Z</time>
      </trkpt>
      <trkpt lat="44.70845" lon="5.81885">
        <ele>2056.493</ele>
        <time>2014-07-19T07:50:22Z</time>
      </trkpt>
      <trkpt lat="44.70855" lon="5.81878">
        <ele>2059.316</ele>
        <time>2014-07-19T07:50:45Z</time>
      </trkpt>
      <trkpt lat="44.7086" lon="5.81882">
        <ele>2061.099</ele>
        <time>2014-07-19T07:51:10Z</time>
      </trkpt>
      <trkpt lat="44.70869" lon="5.81885">
        <ele>2064.128</ele>
        <time>2014-07-19T07:51:34Z</time>
      </trkpt>
      <trkpt lat="44.70882" lon="5.81888">
        <ele>2066.9</ele>
        <time>2014-07-19T07:53:52Z</time>
      </trkpt>
      <trkpt lat="44.70892" lon="5.81887">
        <ele>2067.546</ele>
        <time>2014-07-19T07:54:08Z</time>
      </trkpt>
      <trkpt lat="44.70903" lon="5.81881">
        <ele>2070.64</ele>
        <time>2014-07-19T07:54:27Z</time>
      </trkpt>
      <trkpt lat="44.70913" lon="5.81875">
        <ele>2073.684</ele>
        <time>2014-07-19T07:54:43Z</time>
      </trkpt>
      <trkpt lat="44.7092" lon="5.81875">
        <ele>2076.393</ele>
        <time>2014-07-19T07:54:54Z</time>
      </trkpt>
      <trkpt lat="44.70931" lon="5.81871">
        <ele>2077.212</ele>
        <time>2014-07-19T07:55:09Z</time>
      </trkpt>
      <trkpt lat="44.70945" lon="5.81862">
        <ele>2079.895</ele>
        <time>2014-07-19T07:55:29Z</time>
      </trkpt>
      <trkpt lat="44.70956" lon="5.81863">
        <ele>2083.091</ele>
        <time>2014-07-19T07:55:46Z</time>
      </trkpt>
      <trkpt lat="44.70964" lon="5.81859">
        <ele>2086.115</ele>
        <time>2014-07-19T07:56:00Z</time>
      </trkpt>
      <trkpt lat="44.70974" lon="5.81869">
        <ele>2089.288</ele>
        <time>2014-07-19T07:56:18Z</time>
      </trkpt>
      <trkpt lat="44.70981" lon="5.81874">
        <ele>2091.396</ele>
        <time>2014-07-19T07:56:32Z</time>
      </trkpt>
      <trkpt lat="44.70989" lon="5.81886">
        <ele>2094.431</ele>
        <time>2014-07-19T07:56:49Z</time>
      </trkpt>
      <trkpt lat="44.70995" lon="5.81901">
        <ele>2097.912</ele>
        <time>2014-07-19T07:57:07Z</time>
      </trkpt>
      <trkpt lat="44.70997" lon="5.81902">
        <ele>2098.965</ele>
        <time>2014-07-19T07:57:31Z</time>
      </trkpt>
      <trkpt lat="44.71005" lon="5.8191">
        <ele>2101.076</ele>
        <time>2014-07-19T07:57:52Z</time>
      </trkpt>
      <trkpt lat="44.71016" lon="5.81922">
        <ele>2104.536</ele>
        <time>2014-07-19T07:58:10Z</time>
      </trkpt>
      <trkpt lat="44.71028" lon="5.81925">
        <ele>2108.1</ele>
        <time>2014-07-19T07:58:28Z</time>
      </trkpt>
      <trkpt lat="44.71037" lon="5.81937">
        <ele>2110.093</ele>
        <time>2014-07-19T07:58:45Z</time>
      </trkpt>
      <trkpt lat="44.71043" lon="5.81949">
        <ele>2113.363</ele>
        <time>2014-07-19T07:59:00Z</time>
      </trkpt>
      <trkpt lat="44.71052" lon="5.81939">
        <ele>2115.55</ele>
        <time>2014-07-19T07:59:22Z</time>
      </trkpt>
      <trkpt lat="44.71062" lon="5.8193">
        <ele>2118.706</ele>
        <time>2014-07-19T07:59:54Z</time>
      </trkpt>
      <trkpt lat="44.71074" lon="5.81919">
        <ele>2121.789</ele>
        <time>2014-07-19T08:00:15Z</time>
      </trkpt>
      <trkpt lat="44.71084" lon="5.81922">
        <ele>2124.878</ele>
        <time>2014-07-19T08:00:31Z</time>
      </trkpt>
      <trkpt lat="44.71097" lon="5.81912">
        <ele>2127.746</ele>
        <time>2014-07-19T08:00:49Z</time>
      </trkpt>
      <trkpt lat="44.71099" lon="5.8191">
        <ele>2128.985</ele>
        <time>2014-07-19T08:01:08Z</time>
      </trkpt>
      <trkpt lat="44.71114" lon="5.81915">
        <ele>2129.324</ele>
        <time>2014-07-19T08:01:34Z</time>
      </trkpt>
      <trkpt lat="44.71123" lon="5.81921">
        <ele>2132.375</ele>
        <time>2014-07-19T08:01:47Z</time>
      </trkpt>
      <trkpt lat="44.71134" lon="5.81921">
        <ele>2134.706</ele>
        <time>2014-07-19T08:02:19Z</time>
      </trkpt>
      <trkpt lat="44.71147" lon="5.81912">
        <ele>2137.601</ele>
        <time>2014-07-19T08:03:28Z</time>
      </trkpt>
      <trkpt lat="44.7116" lon="5.81893">
        <ele>2139.778</ele>
        <time>2014-07-19T08:03:50Z</time>
      </trkpt>
      <trkpt lat="44.71175" lon="5.8188">
        <ele>2142.105</ele>
        <time>2014-07-19T08:04:15Z</time>
      </trkpt>
      <trkpt lat="44.71191" lon="5.81885">
        <ele>2145.605</ele>
        <time>2014-07-19T08:04:39Z</time>
      </trkpt>
      <trkpt lat="44.71197" lon="5.81884">
        <ele>2147.535</ele>
        <time>2014-07-19T08:04:47Z</time>
      </trkpt>
      <trkpt lat="44.71213" lon="5.81888">
        <ele>2149.334</ele>
        <time>2014-07-19T08:05:10Z</time>
      </trkpt>
      <trkpt lat="44.71222" lon="5.81873">
        <ele>2152.26</ele>
        <time>2014-07-19T08:05:35Z</time>
      </trkpt>
      <trkpt lat="44.71221" lon="5.81862">
        <ele>2153.711</ele>
        <time>2014-07-19T08:05:46Z</time>
      </trkpt>
      <trkpt lat="44.71228" lon="5.81851">
        <ele>2154.534</ele>
        <time>2014-07-19T08:06:02Z</time>
      </trkpt>
      <trkpt lat="44.71238" lon="5.81847">
        <ele>2157.818</ele>
        <time>2014-07-19T08:06:20Z</time>
      </trkpt>
      <trkpt lat="44.71248" lon="5.81844">
        <ele>2160.849</ele>
        <time>2014-07-19T08:06:41Z</time>
      </trkpt>
      <trkpt lat="44.71255" lon="5.81836">
        <ele>2163.938</ele>
        <time>2014-07-19T08:07:00Z</time>
      </trkpt>
      <trkpt lat="44.71264" lon="5.81832">
        <ele>2167.475</ele>
        <time>2014-07-19T08:07:19Z</time>
      </trkpt>
      <trkpt lat="44.71279" lon="5.81834">
        <ele>2170.137</ele>
        <time>2014-07-19T08:07:42Z</time>
      </trkpt>
      <trkpt lat="44.71296" lon="5.81836">
        <ele>2172.668</ele>
        <time>2014-07-19T08:08:08Z</time>
      </trkpt>
      <trkpt lat="44.71307" lon="5.81837">
        <ele>2175.696</ele>
        <time>2014-07-19T08:08:23Z</time>
      </trkpt>
      <trkpt lat="44.71312" lon="5.81835">
        <ele>2178.701</ele>
        <time>2014-07-19T08:08:37Z</time>
      </trkpt>
      <trkpt lat="44.7132" lon="5.81838">
        <ele>2182.06</ele>
        <time>2014-07-19T08:09:02Z</time>
      </trkpt>
      <trkpt lat="44.7133" lon="5.8184">
        <ele>2185.099</ele>
        <time>2014-07-19T08:09:21Z</time>
      </trkpt>
      <trkpt lat="44.71339" lon="5.81839">
        <ele>2188.18</ele>
        <time>2014-07-19T08:09:35Z</time>
      </trkpt>
      <trkpt lat="44.71351" lon="5.81845">
        <ele>2191.345</ele>
        <time>2014-07-19T08:09:54Z</time>
      </trkpt>
      <trkpt lat="44.71363" lon="5.81838">
        <ele>2194.701</ele>
        <time>2014-07-19T08:10:14Z</time>
      </trkpt>
      <trkpt lat="44.71372" lon="5.8183">
        <ele>2198.129</ele>
        <time>2014-07-19T08:10:31Z</time>
      </trkpt>
      <trkpt lat="44.71377" lon="5.81824">
        <ele>2200.157</ele>
        <time>2014-07-19T08:11:00Z</time>
      </trkpt>
      <trkpt lat="44.71375" lon="5.81813">
        <ele>2201.608</ele>
        <time>2014-07-19T08:11:17Z</time>
      </trkpt>
      <trkpt lat="44.71378" lon="5.818">
        <ele>2204.996</ele>
        <time>2014-07-19T08:11:38Z</time>
      </trkpt>
      <trkpt lat="44.71383" lon="5.81795">
        <ele>2208.288</ele>
        <time>2014-07-19T08:11:54Z</time>
      </trkpt>
      <trkpt lat="44.71389" lon="5.8179">
        <ele>2211.466</ele>
        <time>2014-07-19T08:12:12Z</time>
      </trkpt>
      <trkpt lat="44.71395" lon="5.81784">
        <ele>2214.828</ele>
        <time>2014-07-19T08:12:28Z</time>
      </trkpt>
      <trkpt lat="44.71401" lon="5.81773">
        <ele>2218.201</ele>
        <time>2014-07-19T08:12:52Z</time>
      </trkpt>
      <trkpt lat="44.71406" lon="5.81768">
        <ele>2221.525</ele>
        <time>2014-07-19T08:13:10Z</time>
      </trkpt>
      <trkpt lat="44.71411" lon="5.81761">
        <ele>2224.525</ele>
        <time>2014-07-19T08:13:27Z</time>
      </trkpt>
      <trkpt lat="44.71418" lon="5.81751">
        <ele>2227.873</ele>
        <time>2014-07-19T08:13:48Z</time>
      </trkpt>
      <trkpt lat="44.71423" lon="5.81747">
        <ele>2230.998</ele>
        <time>2014-07-19T08:14:08Z</time>
      </trkpt>
      <trkpt lat="44.7143" lon="5.81748">
        <ele>2232.974</ele>
        <time>2014-07-19T08:14:37Z</time>
      </trkpt>
      <trkpt lat="44.71436" lon="5.81756">
        <ele>2235.156</ele>
        <time>2014-07-19T08:14:57Z</time>
      </trkpt>
      <trkpt lat="44.71437" lon="5.8176">
        <ele>2234.645</ele>
        <time>2014-07-19T08:15:20Z</time>
      </trkpt>
      <trkpt lat="44.71439" lon="5.81766">
        <ele>2237.872</ele>
        <time>2014-07-19T08:15:40Z</time>
      </trkpt>
      <trkpt lat="44.71445" lon="5.81767">
        <ele>2241.565</ele>
        <time>2014-07-19T08:15:52Z</time>
      </trkpt>
      <trkpt lat="44.7145" lon="5.81768">
        <ele>2244.626</ele>
        <time>2014-07-19T08:16:09Z</time>
      </trkpt>
      <trkpt lat="44.71458" lon="5.81765">
        <ele>2247.949</ele>
        <time>2014-07-19T08:16:30Z</time>
      </trkpt>
      <trkpt lat="44.71466" lon="5.81761">
        <ele>2250.99</ele>
        <time>2014-07-19T08:16:50Z</time>
      </trkpt>
      <trkpt lat="44.71466" lon="5.81768">
        <ele>2252.844</ele>
        <time>2014-07-19T08:17:02Z</time>
      </trkpt>
      <trkpt lat="44.71468" lon="5.81776">
        <ele>2256.118</ele>
        <time>2014-07-19T08:17:18Z</time>
      </trkpt>
      <trkpt lat="44.71472" lon="5.81788">
        <ele>2258.859</ele>
        <time>2014-07-19T08:17:40Z</time>
      </trkpt>
      <trkpt lat="44.71475" lon="5.81794">
        <ele>2260.311</ele>
        <time>2014-07-19T08:17:58Z</time>
      </trkpt>
      <trkpt lat="44.71479" lon="5.81798">
        <ele>2262.584</ele>
        <time>2014-07-19T08:18:10Z</time>
      </trkpt>
      <trkpt lat="44.71488" lon="5.81808">
        <ele>2266.017</ele>
        <time>2014-07-19T08:18:28Z</time>
      </trkpt>
      <trkpt lat="44.71494" lon="5.81797">
        <ele>2269.355</ele>
        <time>2014-07-19T08:18:46Z</time>
      </trkpt>
      <trkpt lat="44.71497" lon="5.81785">
        <ele>2272.883</ele>
        <time>2014-07-19T08:19:00Z</time>
      </trkpt>
      <trkpt lat="44.71503" lon="5.81774">
        <ele>2275.506</ele>
        <time>2014-07-19T08:19:19Z</time>
      </trkpt>
      <trkpt lat="44.71507" lon="5.81767">
        <ele>2279.83</ele>
        <time>2014-07-19T08:19:32Z</time>
      </trkpt>
      <trkpt lat="44.71515" lon="5.81759">
        <ele>2279.397</ele>
        <time>2014-07-19T08:19:54Z</time>
      </trkpt>
      <trkpt lat="44.71517" lon="5.81757">
        <ele>2279.841</ele>
        <time>2014-07-19T08:20:13Z</time>
      </trkpt>
      <trkpt lat="44.71525" lon="5.81739">
        <ele>2280.591</ele>
        <time>2014-07-19T08:20:33Z</time>
      </trkpt>
      <trkpt lat="44.71529" lon="5.81734">
        <ele>2281.096</ele>
        <time>2014-07-19T08:20:41Z</time>
      </trkpt>
      <trkpt lat="44.71542" lon="5.81717">
        <ele>2284.152</ele>
        <time>2014-07-19T08:21:05Z</time>
      </trkpt>
      <trkpt lat="44.71553" lon="5.81707">
        <ele>2287.331</ele>
        <time>2014-07-19T08:21:28Z</time>
      </trkpt>
      <trkpt lat="44.71558" lon="5.81704">
        <ele>2289.767</ele>
        <time>2014-07-19T08:21:39Z</time>
      </trkpt>
      <trkpt lat="44.71562" lon="5.81697">
        <ele>2291.996</ele>
        <time>2014-07-19T08:21:56Z</time>
      </trkpt>
      <trkpt lat="44.71566" lon="5.81689">
        <ele>2295.009</ele>
        <time>2014-07-19T08:22:15Z</time>
      </trkpt>
      <trkpt lat="44.71569" lon="5.8169">
        <ele>2296.092</ele>
        <time>2014-07-19T08:22:37Z</time>
      </trkpt>
      <trkpt lat="44.71572" lon="5.81687">
        <ele>2299.593</ele>
        <time>2014-07-19T08:23:56Z</time>
      </trkpt>
      <trkpt lat="44.7158" lon="5.81682">
        <ele>2302.733</ele>
        <time>2014-07-19T08:24:15Z</time>
      </trkpt>
      <trkpt lat="44.71587" lon="5.81678">
        <ele>2304.857</ele>
        <time>2014-07-19T08:24:32Z</time>
      </trkpt>
      <trkpt lat="44.7159" lon="5.81674">
        <ele>2308.12</ele>
        <time>2014-07-19T08:24:45Z</time>
      </trkpt>
      <trkpt lat="44.71596" lon="5.8167">
        <ele>2311.164</ele>
        <time>2014-07-19T08:25:01Z</time>
      </trkpt>
      <trkpt lat="44.71599" lon="5.81662">
        <ele>2314.742</ele>
        <time>2014-07-19T08:25:20Z</time>
      </trkpt>
      <trkpt lat="44.71601" lon="5.81654">
        <ele>2318.422</ele>
        <time>2014-07-19T08:25:45Z</time>
      </trkpt>
      <trkpt lat="44.71601" lon="5.81644">
        <ele>2320.708</ele>
        <time>2014-07-19T08:25:57Z</time>
      </trkpt>
      <trkpt lat="44.71605" lon="5.81643">
        <ele>2321.946</ele>
        <time>2014-07-19T08:26:13Z</time>
      </trkpt>
      <trkpt lat="44.71614" lon="5.81641">
        <ele>2326.811</ele>
        <time>2014-07-19T08:26:36Z</time>
      </trkpt>
      <trkpt lat="44.7162" lon="5.81644">
        <ele>2329.002</ele>
        <time>2014-07-19T08:26:56Z</time>
      </trkpt>
      <trkpt lat="44.71624" lon="5.81645">
        <ele>2333.236</ele>
        <time>2014-07-19T08:27:23Z</time>
      </trkpt>
      <trkpt lat="44.71633" lon="5.81644">
        <ele>2333.133</ele>
        <time>2014-07-19T08:27:41Z</time>
      </trkpt>
      <trkpt lat="44.71638" lon="5.81644">
        <ele>2334.384</ele>
        <time>2014-07-19T08:27:47Z</time>
      </trkpt>
      <trkpt lat="44.7164" lon="5.81645">
        <ele>2336.51</ele>
        <time>2014-07-19T08:28:08Z</time>
      </trkpt>
      <trkpt lat="44.71649" lon="5.81643">
        <ele>2339.712</ele>
        <time>2014-07-19T08:28:27Z</time>
      </trkpt>
      <trkpt lat="44.7165" lon="5.81634">
        <ele>2342.911</ele>
        <time>2014-07-19T08:28:44Z</time>
      </trkpt>
      <trkpt lat="44.7165" lon="5.81623">
        <ele>2344.918</ele>
        <time>2014-07-19T08:29:01Z</time>
      </trkpt>
      <trkpt lat="44.7165" lon="5.81615">
        <ele>2348.45</ele>
        <time>2014-07-19T08:29:14Z</time>
      </trkpt>
      <trkpt lat="44.71648" lon="5.81605">
        <ele>2351.821</ele>
        <time>2014-07-19T08:29:32Z</time>
      </trkpt>
      <trkpt lat="44.71646" lon="5.81597">
        <ele>2355.002</ele>
        <time>2014-07-19T08:29:44Z</time>
      </trkpt>
      <trkpt lat="44.71643" lon="5.8159">
        <ele>2357.418</ele>
        <time>2014-07-19T08:30:15Z</time>
      </trkpt>
      <trkpt lat="44.71644" lon="5.81584">
        <ele>2360.442</ele>
        <time>2014-07-19T08:30:28Z</time>
      </trkpt>
      <trkpt lat="44.71643" lon="5.81579">
        <ele>2363.607</ele>
        <time>2014-07-19T08:30:37Z</time>
      </trkpt>
      <trkpt lat="44.71644" lon="5.81573">
        <ele>2367.603</ele>
        <time>2014-07-19T08:30:56Z</time>
      </trkpt>
      <trkpt lat="44.71644" lon="5.81567">
        <ele>2369.583</ele>
        <time>2014-07-19T08:31:11Z</time>
      </trkpt>
      <trkpt lat="44.71642" lon="5.81564">
        <ele>2371.843</ele>
        <time>2014-07-19T08:31:18Z</time>
      </trkpt>
      <trkpt lat="44.71638" lon="5.81563">
        <ele>2376.674</ele>
        <time>2014-07-19T08:31:27Z</time>
      </trkpt>
      <trkpt lat="44.71634" lon="5.81562">
        <ele>2379.963</ele>
        <time>2014-07-19T08:34:09Z</time>
      </trkpt>
      <trkpt lat="44.71639" lon="5.81562">
        <ele>2379.75</ele>
        <time>2014-07-19T08:34:32Z</time>
      </trkpt>
      <trkpt lat="44.71645" lon="5.81561">
        <ele>2381.335</ele>
        <time>2014-07-19T08:34:47Z</time>
      </trkpt>
      <trkpt lat="44.71653" lon="5.81557">
        <ele>2382.585</ele>
        <time>2014-07-19T08:35:04Z</time>
      </trkpt>
      <trkpt lat="44.71657" lon="5.81552">
        <ele>2384.475</ele>
        <time>2014-07-19T08:35:14Z</time>
      </trkpt>
      <trkpt lat="44.71659" lon="5.81551">
        <ele>2386.544</ele>
        <time>2014-07-19T08:35:18Z</time>
      </trkpt>
      <trkpt lat="44.71663" lon="5.8155">
        <ele>2388.409</ele>
        <time>2014-07-19T08:35:29Z</time>
      </trkpt>
      <trkpt lat="44.71669" lon="5.81547">
        <ele>2390.411</ele>
        <time>2014-07-19T08:35:44Z</time>
      </trkpt>
      <trkpt lat="44.71672" lon="5.81545">
        <ele>2391.88</ele>
        <time>2014-07-19T08:35:57Z</time>
      </trkpt>
      <trkpt lat="44.71677" lon="5.81547">
        <ele>2395.002</ele>
        <time>2014-07-19T08:36:11Z</time>
      </trkpt>
      <trkpt lat="44.71685" lon="5.81545">
        <ele>2396.957</ele>
        <time>2014-07-19T08:36:30Z</time>
      </trkpt>
      <trkpt lat="44.7169" lon="5.81543">
        <ele>2400.461</ele>
        <time>2014-07-19T08:36:47Z</time>
      </trkpt>
      <trkpt lat="44.71699" lon="5.81542">
        <ele>2403.846</ele>
        <time>2014-07-19T08:37:04Z</time>
      </trkpt>
      <trkpt lat="44.71701" lon="5.81541">
        <ele>2406.889</ele>
        <time>2014-07-19T08:37:18Z</time>
      </trkpt>
      <trkpt lat="44.71712" lon="5.81545">
        <ele>2408.66</ele>
        <time>2014-07-19T08:37:41Z</time>
      </trkpt>
      <trkpt lat="44.7172" lon="5.81545">
        <ele>2411.201</ele>
        <time>2014-07-19T08:37:58Z</time>
      </trkpt>
      <trkpt lat="44.7173" lon="5.8155">
        <ele>2414.057</ele>
        <time>2014-07-19T08:38:17Z</time>
      </trkpt>
      <trkpt lat="44.71739" lon="5.8155">
        <ele>2416.7</ele>
        <time>2014-07-19T08:38:35Z</time>
      </trkpt>
      <trkpt lat="44.71746" lon="5.81547">
        <ele>2418.802</ele>
        <time>2014-07-19T08:38:47Z</time>
      </trkpt>
      <trkpt lat="44.71751" lon="5.81549">
        <ele>2423.866</ele>
        <time>2014-07-19T08:38:58Z</time>
      </trkpt>
      <trkpt lat="44.71756" lon="5.81549">
        <ele>2428.109</ele>
        <time>2014-07-19T08:39:13Z</time>
      </trkpt>
      <trkpt lat="44.7176" lon="5.81549">
        <ele>2430.451</ele>
        <time>2014-07-19T08:39:21Z</time>
      </trkpt>
      <trkpt lat="44.71762" lon="5.81546">
        <ele>2429.67</ele>
        <time>2014-07-19T08:39:28Z</time>
      </trkpt>
      <trkpt lat="44.71765" lon="5.81545">
        <ele>2432.652</ele>
        <time>2014-07-19T08:39:38Z</time>
      </trkpt>
      <trkpt lat="44.71768" lon="5.81548">
        <ele>2432.092</ele>
        <time>2014-07-19T08:40:07Z</time>
      </trkpt>
      <trkpt lat="44.71773" lon="5.81548">
        <ele>2433.638</ele>
        <time>2014-07-19T08:40:26Z</time>
      </trkpt>
      <trkpt lat="44.71777" lon="5.81548">
        <ele>2436.558</ele>
        <time>2014-07-19T08:40:40Z</time>
      </trkpt>
      <trkpt lat="44.71779" lon="5.8155">
        <ele>2439.706</ele>
        <time>2014-07-19T08:40:53Z</time>
      </trkpt>
      <trkpt lat="44.71783" lon="5.81551">
        <ele>2442.404</ele>
        <time>2014-07-19T08:41:05Z</time>
      </trkpt>
      <trkpt lat="44.71788" lon="5.81551">
        <ele>2445.449</ele>
        <time>2014-07-19T08:41:19Z</time>
      </trkpt>
      <trkpt lat="44.71787" lon="5.81555">
        <ele>2447.607</ele>
        <time>2014-07-19T08:41:33Z</time>
      </trkpt>
      <trkpt lat="44.71789" lon="5.81555">
        <ele>2451.191</ele>
        <time>2014-07-19T08:41:56Z</time>
      </trkpt>
      <trkpt lat="44.71791" lon="5.8156">
        <ele>2454.024</ele>
        <time>2014-07-19T08:42:08Z</time>
      </trkpt>
      <trkpt lat="44.71795" lon="5.81563">
        <ele>2453.079</ele>
        <time>2014-07-19T08:42:17Z</time>
      </trkpt>
      <trkpt lat="44.71799" lon="5.81566">
        <ele>2453.242</ele>
        <time>2014-07-19T08:42:29Z</time>
      </trkpt>
      <trkpt lat="44.71802" lon="5.8157">
        <ele>2456.566</ele>
        <time>2014-07-19T08:42:39Z</time>
      </trkpt>
      <trkpt lat="44.71806" lon="5.81573">
        <ele>2458.649</ele>
        <time>2014-07-19T08:42:54Z</time>
      </trkpt>
      <trkpt lat="44.7181" lon="5.81572">
        <ele>2459.695</ele>
        <time>2014-07-19T08:43:11Z</time>
      </trkpt>
      <trkpt lat="44.71814" lon="5.81573">
        <ele>2461.823</ele>
        <time>2014-07-19T08:43:22Z</time>
      </trkpt>
      <trkpt lat="44.71818" lon="5.81575">
        <ele>2465.731</ele>
        <time>2014-07-19T08:43:33Z</time>
      </trkpt>
      <trkpt lat="44.7182" lon="5.81576">
        <ele>2469.266</ele>
        <time>2014-07-19T08:43:39Z</time>
      </trkpt>
      <trkpt lat="44.71824" lon="5.81577">
        <ele>2472.851</ele>
        <time>2014-07-19T08:43:46Z</time>
      </trkpt>
      <trkpt lat="44.71828" lon="5.81576">
        <ele>2475.343</ele>
        <time>2014-07-19T08:44:01Z</time>
      </trkpt>
      <trkpt lat="44.7183" lon="5.81576">
        <ele>2473.436</ele>
        <time>2014-07-19T08:44:09Z</time>
      </trkpt>
      <trkpt lat="44.71836" lon="5.81577">
        <ele>2480.802</ele>
        <time>2014-07-19T08:44:27Z</time>
      </trkpt>
      <trkpt lat="44.71839" lon="5.81581">
        <ele>2484.312</ele>
        <time>2014-07-19T08:44:38Z</time>
      </trkpt>
      <trkpt lat="44.71841" lon="5.81582">
        <ele>2486.365</ele>
        <time>2014-07-19T08:44:41Z</time>
      </trkpt>
      <trkpt lat="44.71843" lon="5.81587">
        <ele>2487.247</ele>
        <time>2014-07-19T08:44:48Z</time>
      </trkpt>
      <trkpt lat="44.71845" lon="5.81588">
        <ele>2484.092</ele>
        <time>2014-07-19T08:45:03Z</time>
      </trkpt>
      <trkpt lat="44.71847" lon="5.81589">
        <ele>2478.817</ele>
        <time>2014-07-19T08:55:43Z</time>
      </trkpt>
      <trkpt lat="44.71854" lon="5.81589">
        <ele>2478.987</ele>
        <time>2014-07-19T08:56:08Z</time>
      </trkpt>
      <trkpt lat="44.71857" lon="5.81593">
        <ele>2482.636</ele>
        <time>2014-07-19T08:56:21Z</time>
      </trkpt>
      <trkpt lat="44.71863" lon="5.81593">
        <ele>2486.611</ele>
        <time>2014-07-19T08:56:33Z</time>
      </trkpt>
      <trkpt lat="44.7187" lon="5.81591">
        <ele>2489.692</ele>
        <time>2014-07-19T08:56:45Z</time>
      </trkpt>
      <trkpt lat="44.71878" lon="5.81574">
        <ele>2490.718</ele>
        <time>2014-07-19T08:57:05Z</time>
      </trkpt>
      <trkpt lat="44.71879" lon="5.8157">
        <ele>2488.094</ele>
        <time>2014-07-19T08:57:09Z</time>
      </trkpt>
      <trkpt lat="44.71883" lon="5.8156">
        <ele>2491.173</ele>
        <time>2014-07-19T08:57:24Z</time>
      </trkpt>
      <trkpt lat="44.71889" lon="5.81553">
        <ele>2494.639</ele>
        <time>2014-07-19T08:57:43Z</time>
      </trkpt>
      <trkpt lat="44.71891" lon="5.81548">
        <ele>2495.059</ele>
        <time>2014-07-19T08:58:12Z</time>
      </trkpt>
      <trkpt lat="44.71889" lon="5.81548">
        <ele>2490.156</ele>
        <time>2014-07-19T08:58:43Z</time>
      </trkpt>
      <trkpt lat="44.71889" lon="5.81552">
        <ele>2490.312</ele>
        <time>2014-07-19T08:58:53Z</time>
      </trkpt>
      <trkpt lat="44.71885" lon="5.81556">
        <ele>2488.076</ele>
        <time>2014-07-19T08:59:07Z</time>
      </trkpt>
      <trkpt lat="44.71879" lon="5.8155">
        <ele>2489.085</ele>
        <time>2014-07-19T09:02:19Z</time>
      </trkpt>
      <trkpt lat="44.71876" lon="5.81548">
        <ele>2488.094</ele>
        <time>2014-07-19T09:02:22Z</time>
      </trkpt>
      <trkpt lat="44.71873" lon="5.81545">
        <ele>2486.839</ele>
        <time>2014-07-19T09:02:26Z</time>
      </trkpt>
      <trkpt lat="44.7187" lon="5.81542">
        <ele>2485.297</ele>
        <time>2014-07-19T09:02:29Z</time>
      </trkpt>
      <trkpt lat="44.71869" lon="5.81538">
        <ele>2482.551</ele>
        <time>2014-07-19T09:02:33Z</time>
      </trkpt>
      <trkpt lat="44.71863" lon="5.81535">
        <ele>2483.116</ele>
        <time>2014-07-19T09:03:24Z</time>
      </trkpt>
      <trkpt lat="44.7186" lon="5.81531">
        <ele>2480.928</ele>
        <time>2014-07-19T09:03:29Z</time>
      </trkpt>
      <trkpt lat="44.71857" lon="5.81529">
        <ele>2477.612</ele>
        <time>2014-07-19T09:03:35Z</time>
      </trkpt>
      <trkpt lat="44.71848" lon="5.81527">
        <ele>2474.187</ele>
        <time>2014-07-19T09:03:49Z</time>
      </trkpt>
      <trkpt lat="44.71847" lon="5.81524">
        <ele>2472.437</ele>
        <time>2014-07-19T09:04:01Z</time>
      </trkpt>
      <trkpt lat="44.71845" lon="5.81525">
        <ele>2472.29</ele>
        <time>2014-07-19T09:04:20Z</time>
      </trkpt>
      <trkpt lat="44.71835" lon="5.81529">
        <ele>2472.428</ele>
        <time>2014-07-19T09:04:32Z</time>
      </trkpt>
      <trkpt lat="44.71826" lon="5.81541">
        <ele>2471.704</ele>
        <time>2014-07-19T09:04:42Z</time>
      </trkpt>
      <trkpt lat="44.71824" lon="5.81544">
        <ele>2469.796</ele>
        <time>2014-07-19T09:04:45Z</time>
      </trkpt>
      <trkpt lat="44.71819" lon="5.81548">
        <ele>2466.978</ele>
        <time>2014-07-19T09:04:50Z</time>
      </trkpt>
      <trkpt lat="44.71818" lon="5.8155">
        <ele>2465.86</ele>
        <time>2014-07-19T09:05:04Z</time>
      </trkpt>
      <trkpt lat="44.71815" lon="5.81556">
        <ele>2462.656</ele>
        <time>2014-07-19T09:05:12Z</time>
      </trkpt>
      <trkpt lat="44.71808" lon="5.81571">
        <ele>2459.7</ele>
        <time>2014-07-19T09:05:28Z</time>
      </trkpt>
      <trkpt lat="44.71804" lon="5.81572">
        <ele>2458.902</ele>
        <time>2014-07-19T09:05:35Z</time>
      </trkpt>
      <trkpt lat="44.71803" lon="5.81567">
        <ele>2456.269</ele>
        <time>2014-07-19T09:05:41Z</time>
      </trkpt>
      <trkpt lat="44.71796" lon="5.81566">
        <ele>2455.154</ele>
        <time>2014-07-19T09:05:52Z</time>
      </trkpt>
      <trkpt lat="44.71794" lon="5.81566">
        <ele>2453.701</ele>
        <time>2014-07-19T09:05:55Z</time>
      </trkpt>
      <trkpt lat="44.71792" lon="5.81562">
        <ele>2452.016</ele>
        <time>2014-07-19T09:06:02Z</time>
      </trkpt>
      <trkpt lat="44.71786" lon="5.81558">
        <ele>2447.453</ele>
        <time>2014-07-19T09:06:22Z</time>
      </trkpt>
      <trkpt lat="44.71786" lon="5.81554">
        <ele>2444.421</ele>
        <time>2014-07-19T09:06:31Z</time>
      </trkpt>
      <trkpt lat="44.71777" lon="5.81553">
        <ele>2441.488</ele>
        <time>2014-07-19T09:06:44Z</time>
      </trkpt>
      <trkpt lat="44.71772" lon="5.81548">
        <ele>2438.456</ele>
        <time>2014-07-19T09:06:56Z</time>
      </trkpt>
      <trkpt lat="44.71771" lon="5.81544">
        <ele>2439.12</ele>
        <time>2014-07-19T09:07:09Z</time>
      </trkpt>
      <trkpt lat="44.71765" lon="5.81547">
        <ele>2436.23</ele>
        <time>2014-07-19T09:07:27Z</time>
      </trkpt>
      <trkpt lat="44.7176" lon="5.81545">
        <ele>2433.104</ele>
        <time>2014-07-19T09:07:35Z</time>
      </trkpt>
      <trkpt lat="44.71754" lon="5.81546">
        <ele>2431.062</ele>
        <time>2014-07-19T09:07:46Z</time>
      </trkpt>
      <trkpt lat="44.71752" lon="5.81545">
        <ele>2428.865</ele>
        <time>2014-07-19T09:07:51Z</time>
      </trkpt>
      <trkpt lat="44.7175" lon="5.81546">
        <ele>2425.895</ele>
        <time>2014-07-19T09:07:56Z</time>
      </trkpt>
      <trkpt lat="44.71747" lon="5.81545">
        <ele>2427.227</ele>
        <time>2014-07-19T09:08:00Z</time>
      </trkpt>
      <trkpt lat="44.71744" lon="5.81544">
        <ele>2424.075</ele>
        <time>2014-07-19T09:08:06Z</time>
      </trkpt>
      <trkpt lat="44.71742" lon="5.81543">
        <ele>2422.16</ele>
        <time>2014-07-19T09:08:10Z</time>
      </trkpt>
      <trkpt lat="44.71735" lon="5.81544">
        <ele>2425.528</ele>
        <time>2014-07-19T09:08:21Z</time>
      </trkpt>
      <trkpt lat="44.7173" lon="5.81544">
        <ele>2420.173</ele>
        <time>2014-07-19T09:08:47Z</time>
      </trkpt>
      <trkpt lat="44.71724" lon="5.81543">
        <ele>2422.607</ele>
        <time>2014-07-19T09:08:55Z</time>
      </trkpt>
      <trkpt lat="44.71719" lon="5.81542">
        <ele>2419.595</ele>
        <time>2014-07-19T09:09:02Z</time>
      </trkpt>
      <trkpt lat="44.71715" lon="5.81541">
        <ele>2420.693</ele>
        <time>2014-07-19T09:09:07Z</time>
      </trkpt>
      <trkpt lat="44.71711" lon="5.81542">
        <ele>2415.295</ele>
        <time>2014-07-19T09:09:11Z</time>
      </trkpt>
      <trkpt lat="44.7171" lon="5.8154">
        <ele>2412.026</ele>
        <time>2014-07-19T09:09:13Z</time>
      </trkpt>
      <trkpt lat="44.71708" lon="5.81542">
        <ele>2412.026</ele>
        <time>2014-07-19T09:09:14Z</time>
      </trkpt>
      <trkpt lat="44.717" lon="5.8154">
        <ele>2414.425</ele>
        <time>2014-07-19T09:09:23Z</time>
      </trkpt>
      <trkpt lat="44.71702" lon="5.8154">
        <ele>2415.637</ele>
        <time>2014-07-19T09:09:28Z</time>
      </trkpt>
      <trkpt lat="44.71694" lon="5.8154">
        <ele>2409.239</ele>
        <time>2014-07-19T09:11:51Z</time>
      </trkpt>
      <trkpt lat="44.71689" lon="5.81542">
        <ele>2405.548</ele>
        <time>2014-07-19T09:12:01Z</time>
      </trkpt>
      <trkpt lat="44.71687" lon="5.81545">
        <ele>2406.871</ele>
        <time>2014-07-19T09:12:05Z</time>
      </trkpt>
      <trkpt lat="44.71684" lon="5.81543">
        <ele>2402.677</ele>
        <time>2014-07-19T09:12:14Z</time>
      </trkpt>
      <trkpt lat="44.71676" lon="5.81541">
        <ele>2399.504</ele>
        <time>2014-07-19T09:12:30Z</time>
      </trkpt>
      <trkpt lat="44.71671" lon="5.81546">
        <ele>2401.874</ele>
        <time>2014-07-19T09:12:38Z</time>
      </trkpt>
      <trkpt lat="44.7167" lon="5.81543">
        <ele>2399.03</ele>
        <time>2014-07-19T09:12:42Z</time>
      </trkpt>
      <trkpt lat="44.71669" lon="5.81545">
        <ele>2397.226</ele>
        <time>2014-07-19T09:12:44Z</time>
      </trkpt>
      <trkpt lat="44.71667" lon="5.81547">
        <ele>2397.859</ele>
        <time>2014-07-19T09:12:49Z</time>
      </trkpt>
      <trkpt lat="44.71665" lon="5.81546">
        <ele>2402.059</ele>
        <time>2014-07-19T09:12:52Z</time>
      </trkpt>
      <trkpt lat="44.71663" lon="5.81546">
        <ele>2394.709</ele>
        <time>2014-07-19T09:12:55Z</time>
      </trkpt>
      <trkpt lat="44.71657" lon="5.8155">
        <ele>2397.698</ele>
        <time>2014-07-19T09:13:03Z</time>
      </trkpt>
      <trkpt lat="44.71655" lon="5.8155">
        <ele>2400</ele>
        <time>2014-07-19T09:13:05Z</time>
      </trkpt>
      <trkpt lat="44.71652" lon="5.81551">
        <ele>2395.548</ele>
        <time>2014-07-19T09:13:08Z</time>
      </trkpt>
      <trkpt lat="44.7165" lon="5.81552">
        <ele>2397.993</ele>
        <time>2014-07-19T09:13:12Z</time>
      </trkpt>
      <trkpt lat="44.71648" lon="5.81554">
        <ele>2391.029</ele>
        <time>2014-07-19T09:13:15Z</time>
      </trkpt>
      <trkpt lat="44.71646" lon="5.81555">
        <ele>2395.505</ele>
        <time>2014-07-19T09:13:17Z</time>
      </trkpt>
      <trkpt lat="44.71642" lon="5.81555">
        <ele>2392.143</ele>
        <time>2014-07-19T09:13:21Z</time>
      </trkpt>
      <trkpt lat="44.71638" lon="5.81556">
        <ele>2390.141</ele>
        <time>2014-07-19T09:13:28Z</time>
      </trkpt>
      <trkpt lat="44.71638" lon="5.81554">
        <ele>2384.552</ele>
        <time>2014-07-19T09:13:31Z</time>
      </trkpt>
      <trkpt lat="44.7164" lon="5.81548">
        <ele>2384.866</ele>
        <time>2014-07-19T09:13:40Z</time>
      </trkpt>
      <trkpt lat="44.71641" lon="5.81543">
        <ele>2383.84</ele>
        <time>2014-07-19T09:14:17Z</time>
      </trkpt>
      <trkpt lat="44.71642" lon="5.81529">
        <ele>2381.14</ele>
        <time>2014-07-19T09:14:28Z</time>
      </trkpt>
      <trkpt lat="44.71644" lon="5.81524">
        <ele>2382</ele>
        <time>2014-07-19T09:14:31Z</time>
      </trkpt>
      <trkpt lat="44.71646" lon="5.8151">
        <ele>2378.602</ele>
        <time>2014-07-19T09:14:40Z</time>
      </trkpt>
      <trkpt lat="44.71647" lon="5.81507">
        <ele>2374.186</ele>
        <time>2014-07-19T09:14:43Z</time>
      </trkpt>
      <trkpt lat="44.7165" lon="5.81501">
        <ele>2373.518</ele>
        <time>2014-07-19T09:14:47Z</time>
      </trkpt>
      <trkpt lat="44.7165" lon="5.81498">
        <ele>2371.78</ele>
        <time>2014-07-19T09:14:49Z</time>
      </trkpt>
      <trkpt lat="44.7165" lon="5.81491">
        <ele>2369.918</ele>
        <time>2014-07-19T09:14:54Z</time>
      </trkpt>
      <trkpt lat="44.71651" lon="5.81488">
        <ele>2367.695</ele>
        <time>2014-07-19T09:14:56Z</time>
      </trkpt>
      <trkpt lat="44.71651" lon="5.81485">
        <ele>2368.985</ele>
        <time>2014-07-19T09:14:58Z</time>
      </trkpt>
      <trkpt lat="44.71653" lon="5.81476">
        <ele>2365.538</ele>
        <time>2014-07-19T09:15:05Z</time>
      </trkpt>
      <trkpt lat="44.71655" lon="5.81471">
        <ele>2367.291</ele>
        <time>2014-07-19T09:15:08Z</time>
      </trkpt>
      <trkpt lat="44.71654" lon="5.81466">
        <ele>2364.266</ele>
        <time>2014-07-19T09:15:12Z</time>
      </trkpt>
      <trkpt lat="44.71654" lon="5.81462">
        <ele>2364.595</ele>
        <time>2014-07-19T09:15:22Z</time>
      </trkpt>
      <trkpt lat="44.71653" lon="5.81461">
        <ele>2362.879</ele>
        <time>2014-07-19T09:15:31Z</time>
      </trkpt>
      <trkpt lat="44.71651" lon="5.81457">
        <ele>2362.898</ele>
        <time>2014-07-19T09:15:56Z</time>
      </trkpt>
      <trkpt lat="44.71645" lon="5.81437">
        <ele>2366.177</ele>
        <time>2014-07-19T09:16:14Z</time>
      </trkpt>
      <trkpt lat="44.71645" lon="5.81414">
        <ele>2367.384</ele>
        <time>2014-07-19T09:16:36Z</time>
      </trkpt>
      <trkpt lat="44.71648" lon="5.81391">
        <ele>2370.341</ele>
        <time>2014-07-19T09:16:58Z</time>
      </trkpt>
      <trkpt lat="44.71649" lon="5.81387">
        <ele>2373.454</ele>
        <time>2014-07-19T09:17:03Z</time>
      </trkpt>
      <trkpt lat="44.7165" lon="5.81384">
        <ele>2374.715</ele>
        <time>2014-07-19T09:17:06Z</time>
      </trkpt>
      <trkpt lat="44.7165" lon="5.8138">
        <ele>2377.046</ele>
        <time>2014-07-19T09:17:11Z</time>
      </trkpt>
      <trkpt lat="44.71656" lon="5.81373">
        <ele>2375.402</ele>
        <time>2014-07-19T09:17:22Z</time>
      </trkpt>
      <trkpt lat="44.71663" lon="5.81366">
        <ele>2372.207</ele>
        <time>2014-07-19T09:17:31Z</time>
      </trkpt>
      <trkpt lat="44.71675" lon="5.81344">
        <ele>2374.668</ele>
        <time>2014-07-19T09:17:54Z</time>
      </trkpt>
      <trkpt lat="44.71687" lon="5.8133">
        <ele>2376.716</ele>
        <time>2014-07-19T09:18:18Z</time>
      </trkpt>
      <trkpt lat="44.71695" lon="5.81311">
        <ele>2380.381</ele>
        <time>2014-07-19T09:18:37Z</time>
      </trkpt>
      <trkpt lat="44.71697" lon="5.81301">
        <ele>2382.97</ele>
        <time>2014-07-19T09:18:46Z</time>
      </trkpt>
      <trkpt lat="44.71698" lon="5.81272">
        <ele>2384.563</ele>
        <time>2014-07-19T09:19:11Z</time>
      </trkpt>
      <trkpt lat="44.71699" lon="5.81241">
        <ele>2385.632</ele>
        <time>2014-07-19T09:19:37Z</time>
      </trkpt>
      <trkpt lat="44.71705" lon="5.81222">
        <ele>2387.45</ele>
        <time>2014-07-19T09:19:57Z</time>
      </trkpt>
      <trkpt lat="44.71705" lon="5.81217">
        <ele>2388.366</ele>
        <time>2014-07-19T09:20:01Z</time>
      </trkpt>
      <trkpt lat="44.71712" lon="5.81191">
        <ele>2391.669</ele>
        <time>2014-07-19T09:20:25Z</time>
      </trkpt>
      <trkpt lat="44.71715" lon="5.81182">
        <ele>2395.734</ele>
        <time>2014-07-19T09:20:37Z</time>
      </trkpt>
      <trkpt lat="44.71717" lon="5.81177">
        <ele>2397.381</ele>
        <time>2014-07-19T09:20:43Z</time>
      </trkpt>
      <trkpt lat="44.71718" lon="5.81172">
        <ele>2397.565</ele>
        <time>2014-07-19T09:20:49Z</time>
      </trkpt>
      <trkpt lat="44.71717" lon="5.81169">
        <ele>2398.872</ele>
        <time>2014-07-19T09:20:52Z</time>
      </trkpt>
      <trkpt lat="44.71714" lon="5.81164">
        <ele>2400.329</ele>
        <time>2014-07-19T09:20:57Z</time>
      </trkpt>
      <trkpt lat="44.7171" lon="5.8116">
        <ele>2399.291</ele>
        <time>2014-07-19T09:21:04Z</time>
      </trkpt>
      <trkpt lat="44.71704" lon="5.81154">
        <ele>2401.971</ele>
        <time>2014-07-19T09:21:15Z</time>
      </trkpt>
      <trkpt lat="44.717" lon="5.81148">
        <ele>2404.826</ele>
        <time>2014-07-19T09:21:27Z</time>
      </trkpt>
      <trkpt lat="44.71698" lon="5.81144">
        <ele>2407.537</ele>
        <time>2014-07-19T09:21:34Z</time>
      </trkpt>
      <trkpt lat="44.71695" lon="5.81141">
        <ele>2410.785</ele>
        <time>2014-07-19T09:21:44Z</time>
      </trkpt>
      <trkpt lat="44.71693" lon="5.81134">
        <ele>2412.461</ele>
        <time>2014-07-19T09:21:58Z</time>
      </trkpt>
      <trkpt lat="44.71694" lon="5.81127">
        <ele>2414.916</ele>
        <time>2014-07-19T09:22:09Z</time>
      </trkpt>
      <trkpt lat="44.71696" lon="5.81125">
        <ele>2416.592</ele>
        <time>2014-07-19T09:22:15Z</time>
      </trkpt>
      <trkpt lat="44.71697" lon="5.81122">
        <ele>2417.47</ele>
        <time>2014-07-19T09:22:23Z</time>
      </trkpt>
      <trkpt lat="44.717" lon="5.81118">
        <ele>2416.712</ele>
        <time>2014-07-19T09:22:30Z</time>
      </trkpt>
      <trkpt lat="44.71705" lon="5.81111">
        <ele>2418.476</ele>
        <time>2014-07-19T09:22:48Z</time>
      </trkpt>
      <trkpt lat="44.71707" lon="5.81116">
        <ele>2420.343</ele>
        <time>2014-07-19T09:26:14Z</time>
      </trkpt>
      <trkpt lat="44.71711" lon="5.81119">
        <ele>2414.634</ele>
        <time>2014-07-19T09:26:18Z</time>
      </trkpt>
      <trkpt lat="44.71713" lon="5.81122">
        <ele>2410.2</ele>
        <time>2014-07-19T09:26:24Z</time>
      </trkpt>
      <trkpt lat="44.7171" lon="5.81126">
        <ele>2406.298</ele>
        <time>2014-07-19T09:26:31Z</time>
      </trkpt>
      <trkpt lat="44.71702" lon="5.8114">
        <ele>2402.24</ele>
        <time>2014-07-19T09:26:48Z</time>
      </trkpt>
      <trkpt lat="44.71703" lon="5.81149">
        <ele>2398.466</ele>
        <time>2014-07-19T09:26:57Z</time>
      </trkpt>
      <trkpt lat="44.71704" lon="5.81158">
        <ele>2395.957</ele>
        <time>2014-07-19T09:27:21Z</time>
      </trkpt>
      <trkpt lat="44.71705" lon="5.81166">
        <ele>2394.804</ele>
        <time>2014-07-19T09:27:29Z</time>
      </trkpt>
      <trkpt lat="44.71701" lon="5.81171">
        <ele>2393.401</ele>
        <time>2014-07-19T09:27:34Z</time>
      </trkpt>
      <trkpt lat="44.71697" lon="5.81178">
        <ele>2392.757</ele>
        <time>2014-07-19T09:27:52Z</time>
      </trkpt>
      <trkpt lat="44.71692" lon="5.81189">
        <ele>2389.6</ele>
        <time>2014-07-19T09:28:06Z</time>
      </trkpt>
      <trkpt lat="44.71689" lon="5.81196">
        <ele>2388.39</ele>
        <time>2014-07-19T09:28:12Z</time>
      </trkpt>
      <trkpt lat="44.7169" lon="5.81205">
        <ele>2389.766</ele>
        <time>2014-07-19T09:28:19Z</time>
      </trkpt>
      <trkpt lat="44.71688" lon="5.81215">
        <ele>2386.037</ele>
        <time>2014-07-19T09:28:27Z</time>
      </trkpt>
      <trkpt lat="44.71688" lon="5.81223">
        <ele>2387.478</ele>
        <time>2014-07-19T09:28:40Z</time>
      </trkpt>
      <trkpt lat="44.71686" lon="5.81228">
        <ele>2387.938</ele>
        <time>2014-07-19T09:29:31Z</time>
      </trkpt>
      <trkpt lat="44.71685" lon="5.81236">
        <ele>2385.608</ele>
        <time>2014-07-19T09:29:37Z</time>
      </trkpt>
      <trkpt lat="44.71683" lon="5.8124">
        <ele>2384.275</ele>
        <time>2014-07-19T09:29:40Z</time>
      </trkpt>
      <trkpt lat="44.71676" lon="5.81243">
        <ele>2384.176</ele>
        <time>2014-07-19T09:29:47Z</time>
      </trkpt>
      <trkpt lat="44.7167" lon="5.81254">
        <ele>2380.337</ele>
        <time>2014-07-19T09:30:00Z</time>
      </trkpt>
      <trkpt lat="44.71667" lon="5.81267">
        <ele>2377.653</ele>
        <time>2014-07-19T09:30:13Z</time>
      </trkpt>
      <trkpt lat="44.71665" lon="5.81276">
        <ele>2375.281</ele>
        <time>2014-07-19T09:30:20Z</time>
      </trkpt>
      <trkpt lat="44.71663" lon="5.8128">
        <ele>2372.056</ele>
        <time>2014-07-19T09:30:26Z</time>
      </trkpt>
      <trkpt lat="44.71652" lon="5.81286">
        <ele>2369.846</ele>
        <time>2014-07-19T09:30:38Z</time>
      </trkpt>
      <trkpt lat="44.71634" lon="5.81299">
        <ele>2367.367</ele>
        <time>2014-07-19T09:30:55Z</time>
      </trkpt>
      <trkpt lat="44.71633" lon="5.81302">
        <ele>2366.885</ele>
        <time>2014-07-19T09:30:57Z</time>
      </trkpt>
      <trkpt lat="44.71627" lon="5.8131">
        <ele>2365.307</ele>
        <time>2014-07-19T09:31:04Z</time>
      </trkpt>
      <trkpt lat="44.71625" lon="5.81318">
        <ele>2363.003</ele>
        <time>2014-07-19T09:31:19Z</time>
      </trkpt>
      <trkpt lat="44.71614" lon="5.81327">
        <ele>2361.041</ele>
        <time>2014-07-19T09:31:32Z</time>
      </trkpt>
      <trkpt lat="44.7161" lon="5.81334">
        <ele>2361.266</ele>
        <time>2014-07-19T09:31:38Z</time>
      </trkpt>
      <trkpt lat="44.71605" lon="5.81343">
        <ele>2361.24</ele>
        <time>2014-07-19T09:31:46Z</time>
      </trkpt>
      <trkpt lat="44.71602" lon="5.81347">
        <ele>2360.381</ele>
        <time>2014-07-19T09:31:49Z</time>
      </trkpt>
      <trkpt lat="44.71592" lon="5.81371">
        <ele>2359.521</ele>
        <time>2014-07-19T09:32:07Z</time>
      </trkpt>
      <trkpt lat="44.71589" lon="5.81376">
        <ele>2358.268</ele>
        <time>2014-07-19T09:32:11Z</time>
      </trkpt>
      <trkpt lat="44.71586" lon="5.81382">
        <ele>2357.325</ele>
        <time>2014-07-19T09:32:16Z</time>
      </trkpt>
      <trkpt lat="44.7158" lon="5.81388">
        <ele>2356.49</ele>
        <time>2014-07-19T09:32:22Z</time>
      </trkpt>
      <trkpt lat="44.71575" lon="5.81392">
        <ele>2356.782</ele>
        <time>2014-07-19T09:32:27Z</time>
      </trkpt>
      <trkpt lat="44.71574" lon="5.81396">
        <ele>2356.612</ele>
        <time>2014-07-19T09:32:35Z</time>
      </trkpt>
      <trkpt lat="44.71578" lon="5.81403">
        <ele>2352.754</ele>
        <time>2014-07-19T09:32:49Z</time>
      </trkpt>
      <trkpt lat="44.71578" lon="5.81409">
        <ele>2355.189</ele>
        <time>2014-07-19T09:33:14Z</time>
      </trkpt>
      <trkpt lat="44.71569" lon="5.81419">
        <ele>2354.211</ele>
        <time>2014-07-19T09:33:29Z</time>
      </trkpt>
      <trkpt lat="44.71566" lon="5.8142">
        <ele>2355.78</ele>
        <time>2014-07-19T09:33:31Z</time>
      </trkpt>
      <trkpt lat="44.71564" lon="5.81421">
        <ele>2354.009</ele>
        <time>2014-07-19T09:33:34Z</time>
      </trkpt>
      <trkpt lat="44.71561" lon="5.81424">
        <ele>2355.1</ele>
        <time>2014-07-19T09:33:38Z</time>
      </trkpt>
      <trkpt lat="44.71558" lon="5.81425">
        <ele>2353.502</ele>
        <time>2014-07-19T09:33:41Z</time>
      </trkpt>
      <trkpt lat="44.71554" lon="5.81427">
        <ele>2354.034</ele>
        <time>2014-07-19T09:33:47Z</time>
      </trkpt>
      <trkpt lat="44.71548" lon="5.81437">
        <ele>2352.583</ele>
        <time>2014-07-19T09:33:59Z</time>
      </trkpt>
      <trkpt lat="44.71546" lon="5.8144">
        <ele>2351.556</ele>
        <time>2014-07-19T09:34:12Z</time>
      </trkpt>
      <trkpt lat="44.71543" lon="5.81439">
        <ele>2347.281</ele>
        <time>2014-07-19T09:35:51Z</time>
      </trkpt>
      <trkpt lat="44.71535" lon="5.81435">
        <ele>2348.388</ele>
        <time>2014-07-19T09:36:02Z</time>
      </trkpt>
      <trkpt lat="44.71532" lon="5.81432">
        <ele>2347.861</ele>
        <time>2014-07-19T09:36:05Z</time>
      </trkpt>
      <trkpt lat="44.71513" lon="5.81424">
        <ele>2345.521</ele>
        <time>2014-07-19T09:36:23Z</time>
      </trkpt>
      <trkpt lat="44.71504" lon="5.81421">
        <ele>2343.687</ele>
        <time>2014-07-19T09:36:32Z</time>
      </trkpt>
      <trkpt lat="44.715" lon="5.81424">
        <ele>2340.976</ele>
        <time>2014-07-19T09:36:42Z</time>
      </trkpt>
      <trkpt lat="44.71494" lon="5.81426">
        <ele>2339.575</ele>
        <time>2014-07-19T09:36:49Z</time>
      </trkpt>
      <trkpt lat="44.7149" lon="5.81426">
        <ele>2337.957</ele>
        <time>2014-07-19T09:36:53Z</time>
      </trkpt>
      <trkpt lat="44.71481" lon="5.81424">
        <ele>2334.828</ele>
        <time>2014-07-19T09:37:01Z</time>
      </trkpt>
      <trkpt lat="44.71477" lon="5.81424">
        <ele>2333.608</ele>
        <time>2014-07-19T09:37:05Z</time>
      </trkpt>
      <trkpt lat="44.71473" lon="5.81424">
        <ele>2333.799</ele>
        <time>2014-07-19T09:37:08Z</time>
      </trkpt>
      <trkpt lat="44.7147" lon="5.81426">
        <ele>2331.987</ele>
        <time>2014-07-19T09:37:12Z</time>
      </trkpt>
      <trkpt lat="44.71463" lon="5.81436">
        <ele>2330.338</ele>
        <time>2014-07-19T09:37:19Z</time>
      </trkpt>
      <trkpt lat="44.71462" lon="5.81438">
        <ele>2329.63</ele>
        <time>2014-07-19T09:37:21Z</time>
      </trkpt>
      <trkpt lat="44.71461" lon="5.81441">
        <ele>2329.485</ele>
        <time>2014-07-19T09:37:23Z</time>
      </trkpt>
      <trkpt lat="44.71452" lon="5.81454">
        <ele>2326.81</ele>
        <time>2014-07-19T09:37:33Z</time>
      </trkpt>
      <trkpt lat="44.71449" lon="5.8146">
        <ele>2325.486</ele>
        <time>2014-07-19T09:37:37Z</time>
      </trkpt>
      <trkpt lat="44.71448" lon="5.81467">
        <ele>2323.747</ele>
        <time>2014-07-19T09:37:41Z</time>
      </trkpt>
      <trkpt lat="44.71446" lon="5.81484">
        <ele>2324.966</ele>
        <time>2014-07-19T09:37:50Z</time>
      </trkpt>
      <trkpt lat="44.71434" lon="5.81496">
        <ele>2322.147</ele>
        <time>2014-07-19T09:38:03Z</time>
      </trkpt>
      <trkpt lat="44.71428" lon="5.81497">
        <ele>2320.917</ele>
        <time>2014-07-19T09:38:09Z</time>
      </trkpt>
      <trkpt lat="44.7142" lon="5.81508">
        <ele>2321.815</ele>
        <time>2014-07-19T09:38:24Z</time>
      </trkpt>
      <trkpt lat="44.71412" lon="5.8151">
        <ele>2321.024</ele>
        <time>2014-07-19T09:38:45Z</time>
      </trkpt>
      <trkpt lat="44.71405" lon="5.81511">
        <ele>2320.707</ele>
        <time>2014-07-19T09:38:53Z</time>
      </trkpt>
      <trkpt lat="44.71387" lon="5.8151">
        <ele>2318.941</ele>
        <time>2014-07-19T09:39:10Z</time>
      </trkpt>
      <trkpt lat="44.71384" lon="5.81511">
        <ele>2319.349</ele>
        <time>2014-07-19T09:39:13Z</time>
      </trkpt>
      <trkpt lat="44.71373" lon="5.81511">
        <ele>2319.375</ele>
        <time>2014-07-19T09:39:24Z</time>
      </trkpt>
      <trkpt lat="44.71366" lon="5.81516">
        <ele>2319.619</ele>
        <time>2014-07-19T09:39:31Z</time>
      </trkpt>
      <trkpt lat="44.71359" lon="5.81514">
        <ele>2318.697</ele>
        <time>2014-07-19T09:39:37Z</time>
      </trkpt>
      <trkpt lat="44.7135" lon="5.81512">
        <ele>2315.089</ele>
        <time>2014-07-19T09:39:44Z</time>
      </trkpt>
      <trkpt lat="44.71338" lon="5.81517">
        <ele>2315.693</ele>
        <time>2014-07-19T09:39:56Z</time>
      </trkpt>
      <trkpt lat="44.71331" lon="5.81529">
        <ele>2315.722</ele>
        <time>2014-07-19T09:40:14Z</time>
      </trkpt>
      <trkpt lat="44.7133" lon="5.81538">
        <ele>2314.716</ele>
        <time>2014-07-19T09:40:43Z</time>
      </trkpt>
      <trkpt lat="44.71327" lon="5.81543">
        <ele>2313.768</ele>
        <time>2014-07-19T09:40:47Z</time>
      </trkpt>
      <trkpt lat="44.71325" lon="5.81543">
        <ele>2313.323</ele>
        <time>2014-07-19T09:40:49Z</time>
      </trkpt>
      <trkpt lat="44.71323" lon="5.81543">
        <ele>2312.499</ele>
        <time>2014-07-19T09:40:51Z</time>
      </trkpt>
      <trkpt lat="44.71315" lon="5.81547">
        <ele>2311.395</ele>
        <time>2014-07-19T09:40:59Z</time>
      </trkpt>
      <trkpt lat="44.71312" lon="5.81547">
        <ele>2310.993</ele>
        <time>2014-07-19T09:41:03Z</time>
      </trkpt>
      <trkpt lat="44.71302" lon="5.81554">
        <ele>2309.201</ele>
        <time>2014-07-19T09:41:13Z</time>
      </trkpt>
      <trkpt lat="44.71299" lon="5.81558">
        <ele>2308.87</ele>
        <time>2014-07-19T09:41:17Z</time>
      </trkpt>
      <trkpt lat="44.71296" lon="5.81557">
        <ele>2308.696</ele>
        <time>2014-07-19T09:41:19Z</time>
      </trkpt>
      <trkpt lat="44.7129" lon="5.81555">
        <ele>2310.292</ele>
        <time>2014-07-19T09:41:37Z</time>
      </trkpt>
      <trkpt lat="44.7129" lon="5.8155">
        <ele>2309.193</ele>
        <time>2014-07-19T09:41:53Z</time>
      </trkpt>
      <trkpt lat="44.71287" lon="5.8154">
        <ele>2303.713</ele>
        <time>2014-07-19T10:06:40Z</time>
      </trkpt>
      <trkpt lat="44.71287" lon="5.81544">
        <ele>2306.858</ele>
        <time>2014-07-19T10:29:49Z</time>
      </trkpt>
      <trkpt lat="44.71288" lon="5.81551">
        <ele>2307.121</ele>
        <time>2014-07-19T10:30:04Z</time>
      </trkpt>
      <trkpt lat="44.71287" lon="5.81554">
        <ele>2307.593</ele>
        <time>2014-07-19T10:30:07Z</time>
      </trkpt>
      <trkpt lat="44.71282" lon="5.81554">
        <ele>2307.017</ele>
        <time>2014-07-19T10:30:12Z</time>
      </trkpt>
      <trkpt lat="44.71278" lon="5.81554">
        <ele>2306.481</ele>
        <time>2014-07-19T10:30:16Z</time>
      </trkpt>
      <trkpt lat="44.71255" lon="5.81547">
        <ele>2304.01</ele>
        <time>2014-07-19T10:30:40Z</time>
      </trkpt>
      <trkpt lat="44.71236" lon="5.81537">
        <ele>2304.891</ele>
        <time>2014-07-19T10:30:59Z</time>
      </trkpt>
      <trkpt lat="44.71234" lon="5.81536">
        <ele>2305.131</ele>
        <time>2014-07-19T10:31:01Z</time>
      </trkpt>
      <trkpt lat="44.71224" lon="5.81534">
        <ele>2305.619</ele>
        <time>2014-07-19T10:31:22Z</time>
      </trkpt>
      <trkpt lat="44.71226" lon="5.81534">
        <ele>2305.975</ele>
        <time>2014-07-19T10:31:29Z</time>
      </trkpt>
      <trkpt lat="44.71246" lon="5.81545">
        <ele>2306.906</ele>
        <time>2014-07-19T10:31:49Z</time>
      </trkpt>
      <trkpt lat="44.7126" lon="5.81549">
        <ele>2306.068</ele>
        <time>2014-07-19T10:32:03Z</time>
      </trkpt>
      <trkpt lat="44.71277" lon="5.81561">
        <ele>2306.884</ele>
        <time>2014-07-19T10:32:21Z</time>
      </trkpt>
      <trkpt lat="44.71279" lon="5.81564">
        <ele>2306.835</ele>
        <time>2014-07-19T10:32:24Z</time>
      </trkpt>
      <trkpt lat="44.71294" lon="5.81573">
        <ele>2307.501</ele>
        <time>2014-07-19T10:32:42Z</time>
      </trkpt>
      <trkpt lat="44.713" lon="5.81575">
        <ele>2307.186</ele>
        <time>2014-07-19T10:32:47Z</time>
      </trkpt>
      <trkpt lat="44.71318" lon="5.81573">
        <ele>2307.263</ele>
        <time>2014-07-19T10:33:06Z</time>
      </trkpt>
      <trkpt lat="44.71323" lon="5.81577">
        <ele>2306.236</ele>
        <time>2014-07-19T10:33:23Z</time>
      </trkpt>
      <trkpt lat="44.71334" lon="5.81574">
        <ele>2305.038</ele>
        <time>2014-07-19T10:33:49Z</time>
      </trkpt>
      <trkpt lat="44.71345" lon="5.81574">
        <ele>2304.345</ele>
        <time>2014-07-19T10:34:08Z</time>
      </trkpt>
      <trkpt lat="44.71356" lon="5.81571">
        <ele>2303.585</ele>
        <time>2014-07-19T10:34:23Z</time>
      </trkpt>
      <trkpt lat="44.71367" lon="5.8157">
        <ele>2302.985</ele>
        <time>2014-07-19T10:34:37Z</time>
      </trkpt>
      <trkpt lat="44.71372" lon="5.81573">
        <ele>2300.886</ele>
        <time>2014-07-19T10:34:50Z</time>
      </trkpt>
      <trkpt lat="44.71379" lon="5.81573">
        <ele>2298.309</ele>
        <time>2014-07-19T10:35:06Z</time>
      </trkpt>
      <trkpt lat="44.71383" lon="5.81581">
        <ele>2294.781</ele>
        <time>2014-07-19T10:35:20Z</time>
      </trkpt>
      <trkpt lat="44.71388" lon="5.81583">
        <ele>2293.811</ele>
        <time>2014-07-19T10:35:37Z</time>
      </trkpt>
      <trkpt lat="44.71391" lon="5.81589">
        <ele>2290.45</ele>
        <time>2014-07-19T10:35:46Z</time>
      </trkpt>
      <trkpt lat="44.71394" lon="5.81601">
        <ele>2287.189</ele>
        <time>2014-07-19T10:35:59Z</time>
      </trkpt>
      <trkpt lat="44.71398" lon="5.81604">
        <ele>2283.449</ele>
        <time>2014-07-19T10:36:18Z</time>
      </trkpt>
      <trkpt lat="44.71398" lon="5.81612">
        <ele>2280.432</ele>
        <time>2014-07-19T10:36:29Z</time>
      </trkpt>
      <trkpt lat="44.71392" lon="5.81618">
        <ele>2277.758</ele>
        <time>2014-07-19T10:36:43Z</time>
      </trkpt>
      <trkpt lat="44.71389" lon="5.81621">
        <ele>2277.183</ele>
        <time>2014-07-19T10:36:47Z</time>
      </trkpt>
      <trkpt lat="44.71381" lon="5.81632">
        <ele>2273.55</ele>
        <time>2014-07-19T10:37:00Z</time>
      </trkpt>
      <trkpt lat="44.71376" lon="5.8164">
        <ele>2270.334</ele>
        <time>2014-07-19T10:37:09Z</time>
      </trkpt>
      <trkpt lat="44.71373" lon="5.81648">
        <ele>2269.019</ele>
        <time>2014-07-19T10:37:15Z</time>
      </trkpt>
      <trkpt lat="44.71372" lon="5.81656">
        <ele>2265.562</ele>
        <time>2014-07-19T10:37:25Z</time>
      </trkpt>
      <trkpt lat="44.71371" lon="5.81661">
        <ele>2265.01</ele>
        <time>2014-07-19T10:37:29Z</time>
      </trkpt>
      <trkpt lat="44.71369" lon="5.81672">
        <ele>2261.971</ele>
        <time>2014-07-19T10:37:39Z</time>
      </trkpt>
      <trkpt lat="44.71371" lon="5.81679">
        <ele>2260.514</ele>
        <time>2014-07-19T10:37:43Z</time>
      </trkpt>
      <trkpt lat="44.71373" lon="5.81688">
        <ele>2259.192</ele>
        <time>2014-07-19T10:37:56Z</time>
      </trkpt>
      <trkpt lat="44.71359" lon="5.81703">
        <ele>2256.492</ele>
        <time>2014-07-19T10:44:18Z</time>
      </trkpt>
      <trkpt lat="44.71353" lon="5.81708">
        <ele>2254.187</ele>
        <time>2014-07-19T10:44:32Z</time>
      </trkpt>
      <trkpt lat="44.71351" lon="5.81712">
        <ele>2253.132</ele>
        <time>2014-07-19T10:44:36Z</time>
      </trkpt>
      <trkpt lat="44.7135" lon="5.81718">
        <ele>2252.585</ele>
        <time>2014-07-19T10:44:40Z</time>
      </trkpt>
      <trkpt lat="44.7136" lon="5.81732">
        <ele>2251.181</ele>
        <time>2014-07-19T10:44:56Z</time>
      </trkpt>
      <trkpt lat="44.71373" lon="5.81738">
        <ele>2249.789</ele>
        <time>2014-07-19T10:45:09Z</time>
      </trkpt>
      <trkpt lat="44.71381" lon="5.81748">
        <ele>2246.753</ele>
        <time>2014-07-19T10:45:25Z</time>
      </trkpt>
      <trkpt lat="44.71385" lon="5.81757">
        <ele>2243.259</ele>
        <time>2014-07-19T10:45:38Z</time>
      </trkpt>
      <trkpt lat="44.71387" lon="5.8176">
        <ele>2242.62</ele>
        <time>2014-07-19T10:45:40Z</time>
      </trkpt>
      <trkpt lat="44.71394" lon="5.81767">
        <ele>2238.737</ele>
        <time>2014-07-19T10:45:54Z</time>
      </trkpt>
      <trkpt lat="44.71399" lon="5.81773">
        <ele>2235.351</ele>
        <time>2014-07-19T10:46:04Z</time>
      </trkpt>
      <trkpt lat="44.714" lon="5.81776">
        <ele>2234.538</ele>
        <time>2014-07-19T10:46:17Z</time>
      </trkpt>
      <trkpt lat="44.71397" lon="5.81784">
        <ele>2231.228</ele>
        <time>2014-07-19T10:49:00Z</time>
      </trkpt>
      <trkpt lat="44.71395" lon="5.81787">
        <ele>2229.821</ele>
        <time>2014-07-19T10:49:22Z</time>
      </trkpt>
      <trkpt lat="44.7139" lon="5.81794">
        <ele>2226.594</ele>
        <time>2014-07-19T10:49:49Z</time>
      </trkpt>
      <trkpt lat="44.71385" lon="5.81795">
        <ele>2224.34</ele>
        <time>2014-07-19T10:50:03Z</time>
      </trkpt>
      <trkpt lat="44.7138" lon="5.81802">
        <ele>2221.339</ele>
        <time>2014-07-19T10:50:15Z</time>
      </trkpt>
      <trkpt lat="44.71374" lon="5.81811">
        <ele>2217.691</ele>
        <time>2014-07-19T10:50:30Z</time>
      </trkpt>
      <trkpt lat="44.71366" lon="5.81821">
        <ele>2214.493</ele>
        <time>2014-07-19T10:50:50Z</time>
      </trkpt>
      <trkpt lat="44.71355" lon="5.81828">
        <ele>2211.162</ele>
        <time>2014-07-19T10:51:09Z</time>
      </trkpt>
      <trkpt lat="44.71352" lon="5.81829">
        <ele>2208.652</ele>
        <time>2014-07-19T10:51:15Z</time>
      </trkpt>
      <trkpt lat="44.71343" lon="5.81831">
        <ele>2204.261</ele>
        <time>2014-07-19T10:51:28Z</time>
      </trkpt>
      <trkpt lat="44.7134" lon="5.81832">
        <ele>2202.864</ele>
        <time>2014-07-19T10:51:32Z</time>
      </trkpt>
      <trkpt lat="44.7133" lon="5.81834">
        <ele>2199.336</ele>
        <time>2014-07-19T10:51:46Z</time>
      </trkpt>
      <trkpt lat="44.71323" lon="5.81832">
        <ele>2196.092</ele>
        <time>2014-07-19T10:52:00Z</time>
      </trkpt>
      <trkpt lat="44.71316" lon="5.81834">
        <ele>2192.976</ele>
        <time>2014-07-19T10:52:10Z</time>
      </trkpt>
      <trkpt lat="44.71306" lon="5.81837">
        <ele>2190.129</ele>
        <time>2014-07-19T10:52:25Z</time>
      </trkpt>
      <trkpt lat="44.71296" lon="5.81838">
        <ele>2187.24</ele>
        <time>2014-07-19T10:52:37Z</time>
      </trkpt>
      <trkpt lat="44.71277" lon="5.81835">
        <ele>2183.253</ele>
        <time>2014-07-19T10:52:58Z</time>
      </trkpt>
      <trkpt lat="44.71263" lon="5.81836">
        <ele>2180.21</ele>
        <time>2014-07-19T10:53:14Z</time>
      </trkpt>
      <trkpt lat="44.71253" lon="5.81842">
        <ele>2176.955</ele>
        <time>2014-07-19T10:53:28Z</time>
      </trkpt>
      <trkpt lat="44.71248" lon="5.81848">
        <ele>2174.796</ele>
        <time>2014-07-19T10:53:36Z</time>
      </trkpt>
      <trkpt lat="44.71235" lon="5.8185">
        <ele>2171.426</ele>
        <time>2014-07-19T10:53:51Z</time>
      </trkpt>
      <trkpt lat="44.71224" lon="5.81851">
        <ele>2169.752</ele>
        <time>2014-07-19T10:54:06Z</time>
      </trkpt>
      <trkpt lat="44.71213" lon="5.81853">
        <ele>2169.145</ele>
        <time>2014-07-19T10:54:23Z</time>
      </trkpt>
      <trkpt lat="44.71211" lon="5.81852">
        <ele>2167.573</ele>
        <time>2014-07-19T10:54:48Z</time>
      </trkpt>
      <trkpt lat="44.7121" lon="5.81849">
        <ele>2166.86</ele>
        <time>2014-07-19T10:55:01Z</time>
      </trkpt>
      <trkpt lat="44.71207" lon="5.81846">
        <ele>2166.222</ele>
        <time>2014-07-19T10:55:53Z</time>
      </trkpt>
      <trkpt lat="44.71204" lon="5.81849">
        <ele>2165.913</ele>
        <time>2014-07-19T10:56:18Z</time>
      </trkpt>
      <trkpt lat="44.71194" lon="5.81847">
        <ele>2165.044</ele>
        <time>2014-07-19T10:56:28Z</time>
      </trkpt>
      <trkpt lat="44.71168" lon="5.81846">
        <ele>2162.343</ele>
        <time>2014-07-19T10:56:50Z</time>
      </trkpt>
      <trkpt lat="44.71163" lon="5.81844">
        <ele>2162.605</ele>
        <time>2014-07-19T10:56:55Z</time>
      </trkpt>
      <trkpt lat="44.7114" lon="5.81842">
        <ele>2161.47</ele>
        <time>2014-07-19T10:57:14Z</time>
      </trkpt>
      <trkpt lat="44.71118" lon="5.81844">
        <ele>2159.166</ele>
        <time>2014-07-19T10:57:34Z</time>
      </trkpt>
      <trkpt lat="44.71116" lon="5.81844">
        <ele>2158.928</ele>
        <time>2014-07-19T10:57:37Z</time>
      </trkpt>
      <trkpt lat="44.71113" lon="5.81843">
        <ele>2157.932</ele>
        <time>2014-07-19T10:57:51Z</time>
      </trkpt>
      <trkpt lat="44.71109" lon="5.81843">
        <ele>2157.747</ele>
        <time>2014-07-19T10:58:07Z</time>
      </trkpt>
      <trkpt lat="44.71092" lon="5.81839">
        <ele>2154.761</ele>
        <time>2014-07-19T10:58:22Z</time>
      </trkpt>
      <trkpt lat="44.71081" lon="5.81833">
        <ele>2151.39</ele>
        <time>2014-07-19T10:58:34Z</time>
      </trkpt>
      <trkpt lat="44.71067" lon="5.81824">
        <ele>2148.368</ele>
        <time>2014-07-19T10:58:50Z</time>
      </trkpt>
      <trkpt lat="44.7106" lon="5.81815">
        <ele>2144.646</ele>
        <time>2014-07-19T10:59:02Z</time>
      </trkpt>
      <trkpt lat="44.71055" lon="5.81815">
        <ele>2142.752</ele>
        <time>2014-07-19T10:59:08Z</time>
      </trkpt>
      <trkpt lat="44.71046" lon="5.81814">
        <ele>2139.715</ele>
        <time>2014-07-19T10:59:18Z</time>
      </trkpt>
      <trkpt lat="44.71033" lon="5.81816">
        <ele>2137.579</ele>
        <time>2014-07-19T10:59:35Z</time>
      </trkpt>
      <trkpt lat="44.71031" lon="5.81819">
        <ele>2137.048</ele>
        <time>2014-07-19T10:59:41Z</time>
      </trkpt>
      <trkpt lat="44.71018" lon="5.81825">
        <ele>2133.974</ele>
        <time>2014-07-19T10:59:55Z</time>
      </trkpt>
      <trkpt lat="44.71015" lon="5.81826">
        <ele>2132.87</ele>
        <time>2014-07-19T10:59:58Z</time>
      </trkpt>
      <trkpt lat="44.71011" lon="5.81824">
        <ele>2131.977</ele>
        <time>2014-07-19T11:00:03Z</time>
      </trkpt>
      <trkpt lat="44.71002" lon="5.81821">
        <ele>2128.024</ele>
        <time>2014-07-19T11:00:14Z</time>
      </trkpt>
      <trkpt lat="44.70998" lon="5.81819">
        <ele>2125.75</ele>
        <time>2014-07-19T11:00:22Z</time>
      </trkpt>
      <trkpt lat="44.70994" lon="5.81816">
        <ele>2122.232</ele>
        <time>2014-07-19T11:00:37Z</time>
      </trkpt>
      <trkpt lat="44.70992" lon="5.81813">
        <ele>2123.655</ele>
        <time>2014-07-19T11:01:37Z</time>
      </trkpt>
      <trkpt lat="44.70985" lon="5.81819">
        <ele>2120.408</ele>
        <time>2014-07-19T11:01:48Z</time>
      </trkpt>
      <trkpt lat="44.70982" lon="5.81822">
        <ele>2119.174</ele>
        <time>2014-07-19T11:01:52Z</time>
      </trkpt>
      <trkpt lat="44.70979" lon="5.8183">
        <ele>2116.898</ele>
        <time>2014-07-19T11:02:01Z</time>
      </trkpt>
      <trkpt lat="44.70975" lon="5.81832">
        <ele>2114.578</ele>
        <time>2014-07-19T11:02:06Z</time>
      </trkpt>
      <trkpt lat="44.70974" lon="5.81836">
        <ele>2112.783</ele>
        <time>2014-07-19T11:02:11Z</time>
      </trkpt>
      <trkpt lat="44.70972" lon="5.8184">
        <ele>2109.661</ele>
        <time>2014-07-19T11:02:19Z</time>
      </trkpt>
      <trkpt lat="44.70968" lon="5.81848">
        <ele>2107.665</ele>
        <time>2014-07-19T11:02:29Z</time>
      </trkpt>
      <trkpt lat="44.70961" lon="5.81853">
        <ele>2103.99</ele>
        <time>2014-07-19T11:02:39Z</time>
      </trkpt>
      <trkpt lat="44.70961" lon="5.81862">
        <ele>2101.085</ele>
        <time>2014-07-19T11:02:46Z</time>
      </trkpt>
      <trkpt lat="44.70956" lon="5.81868">
        <ele>2097.704</ele>
        <time>2014-07-19T11:02:56Z</time>
      </trkpt>
      <trkpt lat="44.70956" lon="5.81872">
        <ele>2096.441</ele>
        <time>2014-07-19T11:03:00Z</time>
      </trkpt>
      <trkpt lat="44.70949" lon="5.81889">
        <ele>2092.451</ele>
        <time>2014-07-19T11:03:12Z</time>
      </trkpt>
      <trkpt lat="44.70947" lon="5.81892">
        <ele>2092.167</ele>
        <time>2014-07-19T11:03:15Z</time>
      </trkpt>
      <trkpt lat="44.70943" lon="5.819">
        <ele>2090.72</ele>
        <time>2014-07-19T11:03:21Z</time>
      </trkpt>
      <trkpt lat="44.70932" lon="5.81904">
        <ele>2088.826</ele>
        <time>2014-07-19T11:03:31Z</time>
      </trkpt>
      <trkpt lat="44.70923" lon="5.81915">
        <ele>2088.068</ele>
        <time>2014-07-19T11:03:41Z</time>
      </trkpt>
      <trkpt lat="44.70921" lon="5.81923">
        <ele>2088.081</ele>
        <time>2014-07-19T11:03:46Z</time>
      </trkpt>
      <trkpt lat="44.70905" lon="5.81939">
        <ele>2085.45</ele>
        <time>2014-07-19T11:04:02Z</time>
      </trkpt>
      <trkpt lat="44.70898" lon="5.8195">
        <ele>2081.281</ele>
        <time>2014-07-19T11:04:12Z</time>
      </trkpt>
      <trkpt lat="44.70896" lon="5.81955">
        <ele>2079.926</ele>
        <time>2014-07-19T11:04:16Z</time>
      </trkpt>
      <trkpt lat="44.70895" lon="5.81959">
        <ele>2079.383</ele>
        <time>2014-07-19T11:04:19Z</time>
      </trkpt>
      <trkpt lat="44.70891" lon="5.8196">
        <ele>2077.739</ele>
        <time>2014-07-19T11:04:23Z</time>
      </trkpt>
      <trkpt lat="44.70888" lon="5.81958">
        <ele>2076.643</ele>
        <time>2014-07-19T11:04:27Z</time>
      </trkpt>
      <trkpt lat="44.70882" lon="5.81955">
        <ele>2073.243</ele>
        <time>2014-07-19T11:04:37Z</time>
      </trkpt>
      <trkpt lat="44.70867" lon="5.81947">
        <ele>2069.81</ele>
        <time>2014-07-19T11:04:52Z</time>
      </trkpt>
      <trkpt lat="44.70858" lon="5.81937">
        <ele>2067.921</ele>
        <time>2014-07-19T11:05:10Z</time>
      </trkpt>
      <trkpt lat="44.70855" lon="5.81942">
        <ele>2065.22</ele>
        <time>2014-07-19T11:05:51Z</time>
      </trkpt>
      <trkpt lat="44.7085" lon="5.81949">
        <ele>2061.616</ele>
        <time>2014-07-19T11:06:01Z</time>
      </trkpt>
      <trkpt lat="44.70843" lon="5.81948">
        <ele>2058.492</ele>
        <time>2014-07-19T11:06:10Z</time>
      </trkpt>
      <trkpt lat="44.7084" lon="5.81948">
        <ele>2056.873</ele>
        <time>2014-07-19T11:06:14Z</time>
      </trkpt>
      <trkpt lat="44.70835" lon="5.81948">
        <ele>2053.674</ele>
        <time>2014-07-19T11:06:24Z</time>
      </trkpt>
      <trkpt lat="44.70832" lon="5.81948">
        <ele>2052.031</ele>
        <time>2014-07-19T11:06:28Z</time>
      </trkpt>
      <trkpt lat="44.70828" lon="5.81961">
        <ele>2048.89</ele>
        <time>2014-07-19T11:06:39Z</time>
      </trkpt>
      <trkpt lat="44.70824" lon="5.81968">
        <ele>2046.119</ele>
        <time>2014-07-19T11:06:54Z</time>
      </trkpt>
      <trkpt lat="44.70819" lon="5.81966">
        <ele>2043.688</ele>
        <time>2014-07-19T11:07:05Z</time>
      </trkpt>
      <trkpt lat="44.70811" lon="5.81961">
        <ele>2040.153</ele>
        <time>2014-07-19T11:07:17Z</time>
      </trkpt>
      <trkpt lat="44.70805" lon="5.8196">
        <ele>2036.911</ele>
        <time>2014-07-19T11:07:25Z</time>
      </trkpt>
      <trkpt lat="44.708" lon="5.81959">
        <ele>2034.272</ele>
        <time>2014-07-19T11:07:34Z</time>
      </trkpt>
      <trkpt lat="44.70794" lon="5.81959">
        <ele>2030.814</ele>
        <time>2014-07-19T11:07:43Z</time>
      </trkpt>
      <trkpt lat="44.70791" lon="5.81956">
        <ele>2029.666</ele>
        <time>2014-07-19T11:07:47Z</time>
      </trkpt>
      <trkpt lat="44.70777" lon="5.81942">
        <ele>2026.351</ele>
        <time>2014-07-19T11:08:08Z</time>
      </trkpt>
      <trkpt lat="44.7077" lon="5.81941">
        <ele>2023.223</ele>
        <time>2014-07-19T11:08:24Z</time>
      </trkpt>
      <trkpt lat="44.70761" lon="5.81939">
        <ele>2020.241</ele>
        <time>2014-07-19T11:08:47Z</time>
      </trkpt>
      <trkpt lat="44.70758" lon="5.81945">
        <ele>2018.534</ele>
        <time>2014-07-19T11:08:54Z</time>
      </trkpt>
      <trkpt lat="44.70757" lon="5.81947">
        <ele>2017.709</ele>
        <time>2014-07-19T11:08:56Z</time>
      </trkpt>
      <trkpt lat="44.70754" lon="5.8195">
        <ele>2015.645</ele>
        <time>2014-07-19T11:09:02Z</time>
      </trkpt>
      <trkpt lat="44.70748" lon="5.81948">
        <ele>2013.349</ele>
        <time>2014-07-19T11:09:10Z</time>
      </trkpt>
      <trkpt lat="44.70745" lon="5.81949">
        <ele>2011.91</ele>
        <time>2014-07-19T11:09:15Z</time>
      </trkpt>
      <trkpt lat="44.70743" lon="5.81951">
        <ele>2010.843</ele>
        <time>2014-07-19T11:09:17Z</time>
      </trkpt>
      <trkpt lat="44.70736" lon="5.81959">
        <ele>2007.827</ele>
        <time>2014-07-19T11:09:27Z</time>
      </trkpt>
      <trkpt lat="44.70735" lon="5.81967">
        <ele>2008.139</ele>
        <time>2014-07-19T11:12:25Z</time>
      </trkpt>
      <trkpt lat="44.70738" lon="5.81984">
        <ele>2003.793</ele>
        <time>2014-07-19T11:12:39Z</time>
      </trkpt>
      <trkpt lat="44.70738" lon="5.81991">
        <ele>2000.076</ele>
        <time>2014-07-19T11:12:48Z</time>
      </trkpt>
      <trkpt lat="44.70732" lon="5.82002">
        <ele>1996.019</ele>
        <time>2014-07-19T11:13:05Z</time>
      </trkpt>
      <trkpt lat="44.70732" lon="5.82018">
        <ele>1992.069</ele>
        <time>2014-07-19T11:13:19Z</time>
      </trkpt>
      <trkpt lat="44.7073" lon="5.82027">
        <ele>1989.918</ele>
        <time>2014-07-19T11:13:27Z</time>
      </trkpt>
      <trkpt lat="44.70731" lon="5.82036">
        <ele>1986.819</ele>
        <time>2014-07-19T11:13:35Z</time>
      </trkpt>
      <trkpt lat="44.70729" lon="5.8205">
        <ele>1984.49</ele>
        <time>2014-07-19T11:13:50Z</time>
      </trkpt>
      <trkpt lat="44.70729" lon="5.8206">
        <ele>1981.374</ele>
        <time>2014-07-19T11:14:00Z</time>
      </trkpt>
      <trkpt lat="44.70729" lon="5.82069">
        <ele>1977.926</ele>
        <time>2014-07-19T11:14:10Z</time>
      </trkpt>
      <trkpt lat="44.70731" lon="5.82077">
        <ele>1976.637</ele>
        <time>2014-07-19T11:14:15Z</time>
      </trkpt>
      <trkpt lat="44.7073" lon="5.8209">
        <ele>1974.812</ele>
        <time>2014-07-19T11:14:24Z</time>
      </trkpt>
      <trkpt lat="44.70727" lon="5.82107">
        <ele>1971.739</ele>
        <time>2014-07-19T11:14:35Z</time>
      </trkpt>
      <trkpt lat="44.70724" lon="5.82117">
        <ele>1971.405</ele>
        <time>2014-07-19T11:14:41Z</time>
      </trkpt>
      <trkpt lat="44.70724" lon="5.82121">
        <ele>1971.464</ele>
        <time>2014-07-19T11:14:43Z</time>
      </trkpt>
      <trkpt lat="44.70715" lon="5.82136">
        <ele>1970.532</ele>
        <time>2014-07-19T11:14:55Z</time>
      </trkpt>
      <trkpt lat="44.70711" lon="5.82145">
        <ele>1969.29</ele>
        <time>2014-07-19T11:15:04Z</time>
      </trkpt>
      <trkpt lat="44.70703" lon="5.82148">
        <ele>1965.933</ele>
        <time>2014-07-19T11:15:14Z</time>
      </trkpt>
      <trkpt lat="44.707" lon="5.82148">
        <ele>1964.768</ele>
        <time>2014-07-19T11:15:17Z</time>
      </trkpt>
      <trkpt lat="44.70691" lon="5.82157">
        <ele>1962.291</ele>
        <time>2014-07-19T11:15:27Z</time>
      </trkpt>
      <trkpt lat="44.70688" lon="5.8216">
        <ele>1962.359</ele>
        <time>2014-07-19T11:15:40Z</time>
      </trkpt>
      <trkpt lat="44.7069" lon="5.82165">
        <ele>1962.844</ele>
        <time>2014-07-19T11:15:57Z</time>
      </trkpt>
      <trkpt lat="44.70693" lon="5.82166">
        <ele>1960.901</ele>
        <time>2014-07-19T11:16:00Z</time>
      </trkpt>
      <trkpt lat="44.707" lon="5.82179">
        <ele>1958.566</ele>
        <time>2014-07-19T11:16:13Z</time>
      </trkpt>
      <trkpt lat="44.7071" lon="5.82182">
        <ele>1956.061</ele>
        <time>2014-07-19T11:16:23Z</time>
      </trkpt>
      <trkpt lat="44.70711" lon="5.82185">
        <ele>1955.105</ele>
        <time>2014-07-19T11:16:26Z</time>
      </trkpt>
      <trkpt lat="44.70713" lon="5.8219">
        <ele>1954.388</ele>
        <time>2014-07-19T11:16:30Z</time>
      </trkpt>
      <trkpt lat="44.70719" lon="5.82202">
        <ele>1949.821</ele>
        <time>2014-07-19T11:16:43Z</time>
      </trkpt>
      <trkpt lat="44.70721" lon="5.82205">
        <ele>1951.044</ele>
        <time>2014-07-19T11:17:22Z</time>
      </trkpt>
      <trkpt lat="44.70722" lon="5.82209">
        <ele>1949.636</ele>
        <time>2014-07-19T11:17:25Z</time>
      </trkpt>
      <trkpt lat="44.70724" lon="5.82211">
        <ele>1950.024</ele>
        <time>2014-07-19T11:17:28Z</time>
      </trkpt>
      <trkpt lat="44.70731" lon="5.82228">
        <ele>1945.418</ele>
        <time>2014-07-19T11:17:40Z</time>
      </trkpt>
      <trkpt lat="44.70737" lon="5.82241">
        <ele>1941.908</ele>
        <time>2014-07-19T11:17:50Z</time>
      </trkpt>
      <trkpt lat="44.70739" lon="5.82246">
        <ele>1940.21</ele>
        <time>2014-07-19T11:17:54Z</time>
      </trkpt>
      <trkpt lat="44.70742" lon="5.8226">
        <ele>1936.567</ele>
        <time>2014-07-19T11:18:04Z</time>
      </trkpt>
      <trkpt lat="44.70745" lon="5.82273">
        <ele>1934.401</ele>
        <time>2014-07-19T11:18:14Z</time>
      </trkpt>
      <trkpt lat="44.70744" lon="5.82276">
        <ele>1933.139</ele>
        <time>2014-07-19T11:18:16Z</time>
      </trkpt>
      <trkpt lat="44.70741" lon="5.82276">
        <ele>1932.099</ele>
        <time>2014-07-19T11:18:19Z</time>
      </trkpt>
      <trkpt lat="44.70741" lon="5.82287">
        <ele>1928.974</ele>
        <time>2014-07-19T11:18:28Z</time>
      </trkpt>
      <trkpt lat="44.70742" lon="5.82292">
        <ele>1928.45</ele>
        <time>2014-07-19T11:18:32Z</time>
      </trkpt>
      <trkpt lat="44.70744" lon="5.82296">
        <ele>1927.193</ele>
        <time>2014-07-19T11:18:35Z</time>
      </trkpt>
      <trkpt lat="44.70749" lon="5.82311">
        <ele>1924.348</ele>
        <time>2014-07-19T11:18:46Z</time>
      </trkpt>
      <trkpt lat="44.70754" lon="5.8233">
        <ele>1921.893</ele>
        <time>2014-07-19T11:18:58Z</time>
      </trkpt>
      <trkpt lat="44.70769" lon="5.82361">
        <ele>1919.251</ele>
        <time>2014-07-19T11:19:20Z</time>
      </trkpt>
      <trkpt lat="44.70778" lon="5.82394">
        <ele>1915.999</ele>
        <time>2014-07-19T11:19:41Z</time>
      </trkpt>
      <trkpt lat="44.70793" lon="5.82422">
        <ele>1912.927</ele>
        <time>2014-07-19T11:20:01Z</time>
      </trkpt>
      <trkpt lat="44.70804" lon="5.82443">
        <ele>1909.753</ele>
        <time>2014-07-19T11:20:16Z</time>
      </trkpt>
      <trkpt lat="44.70818" lon="5.82485">
        <ele>1908.419</ele>
        <time>2014-07-19T11:20:43Z</time>
      </trkpt>
      <trkpt lat="44.70824" lon="5.825">
        <ele>1905.974</ele>
        <time>2014-07-19T11:20:54Z</time>
      </trkpt>
      <trkpt lat="44.70829" lon="5.8251">
        <ele>1903.229</ele>
        <time>2014-07-19T11:21:01Z</time>
      </trkpt>
      <trkpt lat="44.70839" lon="5.82544">
        <ele>1901.108</ele>
        <time>2014-07-19T11:21:23Z</time>
      </trkpt>
      <trkpt lat="44.70847" lon="5.82568">
        <ele>1900.583</ele>
        <time>2014-07-19T11:21:40Z</time>
      </trkpt>
      <trkpt lat="44.70853" lon="5.82583">
        <ele>1899.98</ele>
        <time>2014-07-19T11:21:52Z</time>
      </trkpt>
      <trkpt lat="44.70855" lon="5.82587">
        <ele>1895.846</ele>
        <time>2014-07-19T11:23:05Z</time>
      </trkpt>
      <trkpt lat="44.70857" lon="5.82591">
        <ele>1894.166</ele>
        <time>2014-07-19T11:23:43Z</time>
      </trkpt>
      <trkpt lat="44.70859" lon="5.82596">
        <ele>1890.486</ele>
        <time>2014-07-19T11:23:50Z</time>
      </trkpt>
      <trkpt lat="44.7086" lon="5.826">
        <ele>1889.318</ele>
        <time>2014-07-19T11:23:54Z</time>
      </trkpt>
      <trkpt lat="44.70868" lon="5.82611">
        <ele>1885.446</ele>
        <time>2014-07-19T11:24:05Z</time>
      </trkpt>
      <trkpt lat="44.70868" lon="5.82625">
        <ele>1883.125</ele>
        <time>2014-07-19T11:24:13Z</time>
      </trkpt>
      <trkpt lat="44.7087" lon="5.8263">
        <ele>1882.139</ele>
        <time>2014-07-19T11:24:17Z</time>
      </trkpt>
      <trkpt lat="44.70872" lon="5.82633">
        <ele>1880.76</ele>
        <time>2014-07-19T11:24:20Z</time>
      </trkpt>
      <trkpt lat="44.70879" lon="5.82664">
        <ele>1878.115</ele>
        <time>2014-07-19T11:24:38Z</time>
      </trkpt>
      <trkpt lat="44.70883" lon="5.82681">
        <ele>1879.028</ele>
        <time>2014-07-19T11:24:50Z</time>
      </trkpt>
      <trkpt lat="44.70887" lon="5.82685">
        <ele>1878.222</ele>
        <time>2014-07-19T11:24:56Z</time>
      </trkpt>
      <trkpt lat="44.7089" lon="5.82686">
        <ele>1876.865</ele>
        <time>2014-07-19T11:24:59Z</time>
      </trkpt>
      <trkpt lat="44.70895" lon="5.82688">
        <ele>1875.066</ele>
        <time>2014-07-19T11:25:04Z</time>
      </trkpt>
      <trkpt lat="44.70902" lon="5.82699">
        <ele>1871.074</ele>
        <time>2014-07-19T11:25:16Z</time>
      </trkpt>
      <trkpt lat="44.70904" lon="5.82702">
        <ele>1870.392</ele>
        <time>2014-07-19T11:25:19Z</time>
      </trkpt>
      <trkpt lat="44.70905" lon="5.82705">
        <ele>1869.138</ele>
        <time>2014-07-19T11:25:22Z</time>
      </trkpt>
      <trkpt lat="44.70907" lon="5.82708">
        <ele>1868.155</ele>
        <time>2014-07-19T11:25:26Z</time>
      </trkpt>
      <trkpt lat="44.70914" lon="5.82711">
        <ele>1865.722</ele>
        <time>2014-07-19T11:25:33Z</time>
      </trkpt>
      <trkpt lat="44.7092" lon="5.8272">
        <ele>1861.02</ele>
        <time>2014-07-19T11:25:44Z</time>
      </trkpt>
      <trkpt lat="44.70923" lon="5.82724">
        <ele>1859.628</ele>
        <time>2014-07-19T11:25:48Z</time>
      </trkpt>
      <trkpt lat="44.70932" lon="5.82726">
        <ele>1855.445</ele>
        <time>2014-07-19T11:26:00Z</time>
      </trkpt>
      <trkpt lat="44.70934" lon="5.82726">
        <ele>1854.751</ele>
        <time>2014-07-19T11:26:02Z</time>
      </trkpt>
      <trkpt lat="44.70945" lon="5.8273">
        <ele>1851.543</ele>
        <time>2014-07-19T11:26:12Z</time>
      </trkpt>
      <trkpt lat="44.70952" lon="5.82732">
        <ele>1849.056</ele>
        <time>2014-07-19T11:26:20Z</time>
      </trkpt>
      <trkpt lat="44.70955" lon="5.82735">
        <ele>1847.074</ele>
        <time>2014-07-19T11:26:25Z</time>
      </trkpt>
      <trkpt lat="44.70956" lon="5.82748">
        <ele>1844.023</ele>
        <time>2014-07-19T11:26:38Z</time>
      </trkpt>
      <trkpt lat="44.70962" lon="5.82764">
        <ele>1842.018</ele>
        <time>2014-07-19T11:26:53Z</time>
      </trkpt>
      <trkpt lat="44.70958" lon="5.82764">
        <ele>1841.525</ele>
        <time>2014-07-19T11:28:07Z</time>
      </trkpt>
      <trkpt lat="44.70958" lon="5.82768">
        <ele>1840.986</ele>
        <time>2014-07-19T11:28:11Z</time>
      </trkpt>
      <trkpt lat="44.70956" lon="5.82774">
        <ele>1839.441</ele>
        <time>2014-07-19T11:28:16Z</time>
      </trkpt>
      <trkpt lat="44.70955" lon="5.82778">
        <ele>1838.457</ele>
        <time>2014-07-19T11:28:19Z</time>
      </trkpt>
      <trkpt lat="44.70954" lon="5.828">
        <ele>1835.398</ele>
        <time>2014-07-19T11:28:34Z</time>
      </trkpt>
      <trkpt lat="44.70959" lon="5.8281">
        <ele>1833.363</ele>
        <time>2014-07-19T11:28:42Z</time>
      </trkpt>
      <trkpt lat="44.7096" lon="5.82813">
        <ele>1832.576</ele>
        <time>2014-07-19T11:28:44Z</time>
      </trkpt>
      <trkpt lat="44.70961" lon="5.82818">
        <ele>1831.37</ele>
        <time>2014-07-19T11:28:47Z</time>
      </trkpt>
      <trkpt lat="44.70964" lon="5.82823">
        <ele>1830.546</ele>
        <time>2014-07-19T11:28:51Z</time>
      </trkpt>
      <trkpt lat="44.70966" lon="5.82836">
        <ele>1827.756</ele>
        <time>2014-07-19T11:28:59Z</time>
      </trkpt>
      <trkpt lat="44.70963" lon="5.82856">
        <ele>1824.196</ele>
        <time>2014-07-19T11:29:12Z</time>
      </trkpt>
      <trkpt lat="44.70961" lon="5.82866">
        <ele>1823.432</ele>
        <time>2014-07-19T11:29:17Z</time>
      </trkpt>
      <trkpt lat="44.70951" lon="5.82897">
        <ele>1821.686</ele>
        <time>2014-07-19T11:29:38Z</time>
      </trkpt>
      <trkpt lat="44.70951" lon="5.82907">
        <ele>1820.518</ele>
        <time>2014-07-19T11:29:44Z</time>
      </trkpt>
      <trkpt lat="44.70952" lon="5.82914">
        <ele>1818.376</ele>
        <time>2014-07-19T11:29:50Z</time>
      </trkpt>
      <trkpt lat="44.70957" lon="5.82932">
        <ele>1816.101</ele>
        <time>2014-07-19T11:30:00Z</time>
      </trkpt>
      <trkpt lat="44.70957" lon="5.82952">
        <ele>1813.126</ele>
        <time>2014-07-19T11:30:12Z</time>
      </trkpt>
      <trkpt lat="44.70958" lon="5.82958">
        <ele>1812.698</ele>
        <time>2014-07-19T11:30:15Z</time>
      </trkpt>
      <trkpt lat="44.70957" lon="5.82969">
        <ele>1812.528</ele>
        <time>2014-07-19T11:30:21Z</time>
      </trkpt>
      <trkpt lat="44.70962" lon="5.83007">
        <ele>1810.505</ele>
        <time>2014-07-19T11:30:43Z</time>
      </trkpt>
      <trkpt lat="44.70963" lon="5.83043">
        <ele>1807.984</ele>
        <time>2014-07-19T11:31:01Z</time>
      </trkpt>
      <trkpt lat="44.70961" lon="5.83048">
        <ele>1807.61</ele>
        <time>2014-07-19T11:31:04Z</time>
      </trkpt>
      <trkpt lat="44.70957" lon="5.83057">
        <ele>1806.778</ele>
        <time>2014-07-19T11:31:11Z</time>
      </trkpt>
      <trkpt lat="44.70955" lon="5.83089">
        <ele>1805.308</ele>
        <time>2014-07-19T11:31:28Z</time>
      </trkpt>
      <trkpt lat="44.70955" lon="5.83122">
        <ele>1803.312</ele>
        <time>2014-07-19T11:31:45Z</time>
      </trkpt>
      <trkpt lat="44.70957" lon="5.83134">
        <ele>1802.714</ele>
        <time>2014-07-19T11:31:52Z</time>
      </trkpt>
      <trkpt lat="44.70958" lon="5.83171">
        <ele>1800.727</ele>
        <time>2014-07-19T11:32:13Z</time>
      </trkpt>
      <trkpt lat="44.70954" lon="5.83189">
        <ele>1800.066</ele>
        <time>2014-07-19T11:32:24Z</time>
      </trkpt>
      <trkpt lat="44.70953" lon="5.83213">
        <ele>1799.048</ele>
        <time>2014-07-19T11:32:36Z</time>
      </trkpt>
      <trkpt lat="44.70953" lon="5.83246">
        <ele>1797.609</ele>
        <time>2014-07-19T11:32:53Z</time>
      </trkpt>
      <trkpt lat="44.70947" lon="5.83271">
        <ele>1796.818</ele>
        <time>2014-07-19T11:33:05Z</time>
      </trkpt>
      <trkpt lat="44.70948" lon="5.83275">
        <ele>1796.454</ele>
        <time>2014-07-19T11:33:07Z</time>
      </trkpt>
      <trkpt lat="44.7094" lon="5.83315">
        <ele>1794.21</ele>
        <time>2014-07-19T11:33:28Z</time>
      </trkpt>
      <trkpt lat="44.70938" lon="5.83342">
        <ele>1794.8</ele>
        <time>2014-07-19T11:33:43Z</time>
      </trkpt>
      <trkpt lat="44.70933" lon="5.83354">
        <ele>1794.108</ele>
        <time>2014-07-19T11:33:49Z</time>
      </trkpt>
      <trkpt lat="44.70928" lon="5.8336">
        <ele>1793.643</ele>
        <time>2014-07-19T11:33:53Z</time>
      </trkpt>
      <trkpt lat="44.70925" lon="5.83368">
        <ele>1792.955</ele>
        <time>2014-07-19T11:33:58Z</time>
      </trkpt>
      <trkpt lat="44.70925" lon="5.834">
        <ele>1791.694</ele>
        <time>2014-07-19T11:34:16Z</time>
      </trkpt>
      <trkpt lat="44.70922" lon="5.83411">
        <ele>1790.875</ele>
        <time>2014-07-19T11:34:23Z</time>
      </trkpt>
      <trkpt lat="44.70911" lon="5.83431">
        <ele>1788.275</ele>
        <time>2014-07-19T11:34:37Z</time>
      </trkpt>
      <trkpt lat="44.70908" lon="5.83439">
        <ele>1787.327</ele>
        <time>2014-07-19T11:34:42Z</time>
      </trkpt>
      <trkpt lat="44.709" lon="5.83458">
        <ele>1786.363</ele>
        <time>2014-07-19T11:34:54Z</time>
      </trkpt>
      <trkpt lat="44.70893" lon="5.8348">
        <ele>1784.783</ele>
        <time>2014-07-19T11:35:08Z</time>
      </trkpt>
      <trkpt lat="44.70889" lon="5.8349">
        <ele>1784.966</ele>
        <time>2014-07-19T11:35:15Z</time>
      </trkpt>
      <trkpt lat="44.70885" lon="5.83502">
        <ele>1784.888</ele>
        <time>2014-07-19T11:35:23Z</time>
      </trkpt>
      <trkpt lat="44.70882" lon="5.83516">
        <ele>1785.093</ele>
        <time>2014-07-19T11:35:32Z</time>
      </trkpt>
      <trkpt lat="44.7088" lon="5.8352">
        <ele>1784.686</ele>
        <time>2014-07-19T11:35:35Z</time>
      </trkpt>
      <trkpt lat="44.70877" lon="5.83541">
        <ele>1783.922</ele>
        <time>2014-07-19T11:35:46Z</time>
      </trkpt>
      <trkpt lat="44.7087" lon="5.83552">
        <ele>1783.654</ele>
        <time>2014-07-19T11:35:54Z</time>
      </trkpt>
      <trkpt lat="44.70869" lon="5.83556">
        <ele>1783.67</ele>
        <time>2014-07-19T11:35:57Z</time>
      </trkpt>
      <trkpt lat="44.70867" lon="5.83568">
        <ele>1782.829</ele>
        <time>2014-07-19T11:36:04Z</time>
      </trkpt>
      <trkpt lat="44.70865" lon="5.83577">
        <ele>1783.189</ele>
        <time>2014-07-19T11:36:11Z</time>
      </trkpt>
      <trkpt lat="44.70864" lon="5.8358">
        <ele>1783.168</ele>
        <time>2014-07-19T11:36:13Z</time>
      </trkpt>
      <trkpt lat="44.70858" lon="5.83592">
        <ele>1783.686</ele>
        <time>2014-07-19T11:36:24Z</time>
      </trkpt>
      <trkpt lat="44.70849" lon="5.83596">
        <ele>1784.814</ele>
        <time>2014-07-19T11:36:37Z</time>
      </trkpt>
      <trkpt lat="44.70848" lon="5.83606">
        <ele>1785.061</ele>
        <time>2014-07-19T11:36:49Z</time>
      </trkpt>
      <trkpt lat="44.70843" lon="5.83612">
        <ele>1785.428</ele>
        <time>2014-07-19T11:36:55Z</time>
      </trkpt>
      <trkpt lat="44.70838" lon="5.8363">
        <ele>1786.319</ele>
        <time>2014-07-19T11:37:06Z</time>
      </trkpt>
      <trkpt lat="44.70825" lon="5.83646">
        <ele>1786.789</ele>
        <time>2014-07-19T11:37:20Z</time>
      </trkpt>
      <trkpt lat="44.70825" lon="5.8365">
        <ele>1786.959</ele>
        <time>2014-07-19T11:37:23Z</time>
      </trkpt>
      <trkpt lat="44.70817" lon="5.83655">
        <ele>1787.489</ele>
        <time>2014-07-19T11:37:29Z</time>
      </trkpt>
      <trkpt lat="44.70815" lon="5.8366">
        <ele>1787.12</ele>
        <time>2014-07-19T11:37:34Z</time>
      </trkpt>
      <trkpt lat="44.70812" lon="5.83661">
        <ele>1787.234</ele>
        <time>2014-07-19T11:37:36Z</time>
      </trkpt>
      <trkpt lat="44.70802" lon="5.8367">
        <ele>1787.676</ele>
        <time>2014-07-19T11:37:43Z</time>
      </trkpt>
      <trkpt lat="44.70799" lon="5.83679">
        <ele>1787.566</ele>
        <time>2014-07-19T11:37:49Z</time>
      </trkpt>
      <trkpt lat="44.70796" lon="5.83683">
        <ele>1787.291</ele>
        <time>2014-07-19T11:37:53Z</time>
      </trkpt>
      <trkpt lat="44.70791" lon="5.83686">
        <ele>1786.697</ele>
        <time>2014-07-19T11:37:57Z</time>
      </trkpt>
      <trkpt lat="44.70785" lon="5.83696">
        <ele>1785.264</ele>
        <time>2014-07-19T11:38:11Z</time>
      </trkpt>
      <trkpt lat="44.70789" lon="5.83707">
        <ele>1784.557</ele>
        <time>2014-07-19T11:38:37Z</time>
      </trkpt>
      <trkpt lat="44.70785" lon="5.83719">
        <ele>1782.312</ele>
        <time>2014-07-19T11:38:47Z</time>
      </trkpt>
      <trkpt lat="44.70783" lon="5.83727">
        <ele>1781.925</ele>
        <time>2014-07-19T11:38:51Z</time>
      </trkpt>
      <trkpt lat="44.70771" lon="5.83758">
        <ele>1779.974</ele>
        <time>2014-07-19T11:39:10Z</time>
      </trkpt>
      <trkpt lat="44.70757" lon="5.83782">
        <ele>1779.844</ele>
        <time>2014-07-19T11:39:25Z</time>
      </trkpt>
      <trkpt lat="44.70757" lon="5.83787">
        <ele>1779.609</ele>
        <time>2014-07-19T11:39:28Z</time>
      </trkpt>
      <trkpt lat="44.70751" lon="5.83807">
        <ele>1779.962</ele>
        <time>2014-07-19T11:39:48Z</time>
      </trkpt>
      <trkpt lat="44.70748" lon="5.83818">
        <ele>1779.897</ele>
        <time>2014-07-19T11:40:00Z</time>
      </trkpt>
      <trkpt lat="44.70746" lon="5.8382">
        <ele>1780.185</ele>
        <time>2014-07-19T11:40:03Z</time>
      </trkpt>
      <trkpt lat="44.70744" lon="5.83825">
        <ele>1780.056</ele>
        <time>2014-07-19T11:40:06Z</time>
      </trkpt>
      <trkpt lat="44.7074" lon="5.83833">
        <ele>1780.339</ele>
        <time>2014-07-19T11:40:10Z</time>
      </trkpt>
      <trkpt lat="44.7074" lon="5.83838">
        <ele>1780.854</ele>
        <time>2014-07-19T11:40:13Z</time>
      </trkpt>
      <trkpt lat="44.70737" lon="5.83847">
        <ele>1780.997</ele>
        <time>2014-07-19T11:40:20Z</time>
      </trkpt>
      <trkpt lat="44.70722" lon="5.83866">
        <ele>1783.616</ele>
        <time>2014-07-19T11:40:37Z</time>
      </trkpt>
      <trkpt lat="44.70715" lon="5.83877">
        <ele>1784.603</ele>
        <time>2014-07-19T11:40:49Z</time>
      </trkpt>
      <trkpt lat="44.70711" lon="5.839">
        <ele>1786.103</ele>
        <time>2014-07-19T11:41:08Z</time>
      </trkpt>
      <trkpt lat="44.7071" lon="5.83908">
        <ele>1787.288</ele>
        <time>2014-07-19T11:41:15Z</time>
      </trkpt>
      <trkpt lat="44.70713" lon="5.83917">
        <ele>1787.086</ele>
        <time>2014-07-19T11:41:22Z</time>
      </trkpt>
      <trkpt lat="44.70723" lon="5.83949">
        <ele>1789.366</ele>
        <time>2014-07-19T11:41:46Z</time>
      </trkpt>
      <trkpt lat="44.70724" lon="5.8397">
        <ele>1791.823</ele>
        <time>2014-07-19T11:42:05Z</time>
      </trkpt>
      <trkpt lat="44.70726" lon="5.8399">
        <ele>1794.899</ele>
        <time>2014-07-19T11:42:22Z</time>
      </trkpt>
      <trkpt lat="44.70725" lon="5.84016">
        <ele>1797.618</ele>
        <time>2014-07-19T11:42:39Z</time>
      </trkpt>
      <trkpt lat="44.70719" lon="5.84031">
        <ele>1799.683</ele>
        <time>2014-07-19T11:43:00Z</time>
      </trkpt>
      <trkpt lat="44.70721" lon="5.84039">
        <ele>1802.764</ele>
        <time>2014-07-19T11:43:15Z</time>
      </trkpt>
      <trkpt lat="44.70716" lon="5.84042">
        <ele>1805.643</ele>
        <time>2014-07-19T11:43:31Z</time>
      </trkpt>
      <trkpt lat="44.70719" lon="5.84055">
        <ele>1808.668</ele>
        <time>2014-07-19T11:43:46Z</time>
      </trkpt>
      <trkpt lat="44.70715" lon="5.84062">
        <ele>1810.122</ele>
        <time>2014-07-19T11:43:56Z</time>
      </trkpt>
      <trkpt lat="44.70705" lon="5.84068">
        <ele>1813.562</ele>
        <time>2014-07-19T11:44:13Z</time>
      </trkpt>
      <trkpt lat="44.70693" lon="5.84076">
        <ele>1816.435</ele>
        <time>2014-07-19T11:44:30Z</time>
      </trkpt>
      <trkpt lat="44.70687" lon="5.84084">
        <ele>1818.971</ele>
        <time>2014-07-19T11:44:41Z</time>
      </trkpt>
      <trkpt lat="44.70696" lon="5.84098">
        <ele>1821.237</ele>
        <time>2014-07-19T11:45:01Z</time>
      </trkpt>
      <trkpt lat="44.70697" lon="5.84107">
        <ele>1822.683</ele>
        <time>2014-07-19T11:45:16Z</time>
      </trkpt>
      <trkpt lat="44.70695" lon="5.84112">
        <ele>1824.063</ele>
        <time>2014-07-19T11:45:23Z</time>
      </trkpt>
      <trkpt lat="44.70685" lon="5.8412">
        <ele>1825.372</ele>
        <time>2014-07-19T11:48:12Z</time>
      </trkpt>
      <trkpt lat="44.70682" lon="5.84123">
        <ele>1824.981</ele>
        <time>2014-07-19T11:50:54Z</time>
      </trkpt>
      <trkpt lat="44.70664" lon="5.8413">
        <ele>1824.532</ele>
        <time>2014-07-19T11:51:13Z</time>
      </trkpt>
      <trkpt lat="44.70643" lon="5.84142">
        <ele>1823.837</ele>
        <time>2014-07-19T11:51:35Z</time>
      </trkpt>
      <trkpt lat="44.7063" lon="5.84159">
        <ele>1823.8</ele>
        <time>2014-07-19T11:51:52Z</time>
      </trkpt>
      <trkpt lat="44.70612" lon="5.84172">
        <ele>1825.178</ele>
        <time>2014-07-19T11:52:12Z</time>
      </trkpt>
      <trkpt lat="44.70596" lon="5.84177">
        <ele>1823.098</ele>
        <time>2014-07-19T11:52:27Z</time>
      </trkpt>
      <trkpt lat="44.70575" lon="5.84186">
        <ele>1823.336</ele>
        <time>2014-07-19T11:52:48Z</time>
      </trkpt>
      <trkpt lat="44.70559" lon="5.84198">
        <ele>1823.082</ele>
        <time>2014-07-19T11:53:05Z</time>
      </trkpt>
      <trkpt lat="44.70533" lon="5.84215">
        <ele>1821.576</ele>
        <time>2014-07-19T11:53:30Z</time>
      </trkpt>
      <trkpt lat="44.70518" lon="5.84224">
        <ele>1820.863</ele>
        <time>2014-07-19T11:53:44Z</time>
      </trkpt>
      <trkpt lat="44.70513" lon="5.84229">
        <ele>1819.815</ele>
        <time>2014-07-19T11:53:50Z</time>
      </trkpt>
      <trkpt lat="44.70511" lon="5.84229">
        <ele>1819.239</ele>
        <time>2014-07-19T11:53:52Z</time>
      </trkpt>
      <trkpt lat="44.70487" lon="5.84251">
        <ele>1816.589</ele>
        <time>2014-07-19T11:54:15Z</time>
      </trkpt>
      <trkpt lat="44.70456" lon="5.84279">
        <ele>1813.737</ele>
        <time>2014-07-19T11:54:46Z</time>
      </trkpt>
      <trkpt lat="44.70431" lon="5.84289">
        <ele>1810.358</ele>
        <time>2014-07-19T11:55:07Z</time>
      </trkpt>
      <trkpt lat="44.70411" lon="5.84307">
        <ele>1808.892</ele>
        <time>2014-07-19T11:55:28Z</time>
      </trkpt>
      <trkpt lat="44.70401" lon="5.84342">
        <ele>1808.852</ele>
        <time>2014-07-19T11:55:50Z</time>
      </trkpt>
      <trkpt lat="44.704" lon="5.84346">
        <ele>1809.159</ele>
        <time>2014-07-19T11:55:53Z</time>
      </trkpt>
      <trkpt lat="44.70398" lon="5.84378">
        <ele>1809.377</ele>
        <time>2014-07-19T11:56:14Z</time>
      </trkpt>
      <trkpt lat="44.70388" lon="5.84416">
        <ele>1808.925</ele>
        <time>2014-07-19T11:56:38Z</time>
      </trkpt>
      <trkpt lat="44.70382" lon="5.84431">
        <ele>1809.344</ele>
        <time>2014-07-19T11:56:49Z</time>
      </trkpt>
      <trkpt lat="44.70374" lon="5.84449">
        <ele>1809.876</ele>
        <time>2014-07-19T11:57:02Z</time>
      </trkpt>
      <trkpt lat="44.70373" lon="5.84453">
        <ele>1810.314</ele>
        <time>2014-07-19T11:57:05Z</time>
      </trkpt>
      <trkpt lat="44.70374" lon="5.84459">
        <ele>1810.444</ele>
        <time>2014-07-19T11:57:09Z</time>
      </trkpt>
      <trkpt lat="44.70372" lon="5.84463">
        <ele>1809.017</ele>
        <time>2014-07-19T11:57:12Z</time>
      </trkpt>
      <trkpt lat="44.70368" lon="5.84482">
        <ele>1805.892</ele>
        <time>2014-07-19T11:57:25Z</time>
      </trkpt>
      <trkpt lat="44.70362" lon="5.84503">
        <ele>1804.07</ele>
        <time>2014-07-19T11:57:39Z</time>
      </trkpt>
      <trkpt lat="44.70356" lon="5.8452">
        <ele>1802.105</ele>
        <time>2014-07-19T11:57:51Z</time>
      </trkpt>
      <trkpt lat="44.70353" lon="5.84525">
        <ele>1801.194</ele>
        <time>2014-07-19T11:57:55Z</time>
      </trkpt>
      <trkpt lat="44.70345" lon="5.84555">
        <ele>1798.29</ele>
        <time>2014-07-19T11:58:16Z</time>
      </trkpt>
      <trkpt lat="44.70343" lon="5.8457">
        <ele>1795.929</ele>
        <time>2014-07-19T11:58:27Z</time>
      </trkpt>
      <trkpt lat="44.70334" lon="5.84591">
        <ele>1792.186</ele>
        <time>2014-07-19T11:58:45Z</time>
      </trkpt>
      <trkpt lat="44.70326" lon="5.84602">
        <ele>1790.016</ele>
        <time>2014-07-19T11:58:55Z</time>
      </trkpt>
      <trkpt lat="44.70323" lon="5.84607">
        <ele>1789.339</ele>
        <time>2014-07-19T11:59:13Z</time>
      </trkpt>
      <trkpt lat="44.70317" lon="5.84623">
        <ele>1787.191</ele>
        <time>2014-07-19T11:59:46Z</time>
      </trkpt>
      <trkpt lat="44.70313" lon="5.84644">
        <ele>1783.696</ele>
        <time>2014-07-19T12:00:01Z</time>
      </trkpt>
      <trkpt lat="44.70313" lon="5.84648">
        <ele>1783.211</ele>
        <time>2014-07-19T12:00:04Z</time>
      </trkpt>
      <trkpt lat="44.70309" lon="5.84658">
        <ele>1782.255</ele>
        <time>2014-07-19T12:00:11Z</time>
      </trkpt>
      <trkpt lat="44.70308" lon="5.84666">
        <ele>1780.076</ele>
        <time>2014-07-19T12:00:20Z</time>
      </trkpt>
      <trkpt lat="44.70304" lon="5.84677">
        <ele>1777.511</ele>
        <time>2014-07-19T12:00:29Z</time>
      </trkpt>
      <trkpt lat="44.70281" lon="5.84694">
        <ele>1776.103</ele>
        <time>2014-07-19T12:00:51Z</time>
      </trkpt>
      <trkpt lat="44.70273" lon="5.84697">
        <ele>1775.321</ele>
        <time>2014-07-19T12:00:58Z</time>
      </trkpt>
      <trkpt lat="44.70263" lon="5.84708">
        <ele>1773.989</ele>
        <time>2014-07-19T12:01:10Z</time>
      </trkpt>
      <trkpt lat="44.70251" lon="5.84729">
        <ele>1772.137</ele>
        <time>2014-07-19T12:01:30Z</time>
      </trkpt>
      <trkpt lat="44.70242" lon="5.84742">
        <ele>1769.477</ele>
        <time>2014-07-19T12:01:47Z</time>
      </trkpt>
      <trkpt lat="44.70239" lon="5.84744">
        <ele>1768.991</ele>
        <time>2014-07-19T12:01:50Z</time>
      </trkpt>
      <trkpt lat="44.70237" lon="5.84747">
        <ele>1768.479</ele>
        <time>2014-07-19T12:01:53Z</time>
      </trkpt>
      <trkpt lat="44.70235" lon="5.84748">
        <ele>1767.547</ele>
        <time>2014-07-19T12:01:56Z</time>
      </trkpt>
      <trkpt lat="44.70231" lon="5.84767">
        <ele>1763.765</ele>
        <time>2014-07-19T12:02:13Z</time>
      </trkpt>
      <trkpt lat="44.70225" lon="5.84776">
        <ele>1760.577</ele>
        <time>2014-07-19T12:02:27Z</time>
      </trkpt>
      <trkpt lat="44.7022" lon="5.8479">
        <ele>1757.227</ele>
        <time>2014-07-19T12:02:45Z</time>
      </trkpt>
      <trkpt lat="44.70214" lon="5.84803">
        <ele>1754.012</ele>
        <time>2014-07-19T12:03:01Z</time>
      </trkpt>
      <trkpt lat="44.70205" lon="5.84814">
        <ele>1750.883</ele>
        <time>2014-07-19T12:03:19Z</time>
      </trkpt>
      <trkpt lat="44.70195" lon="5.84831">
        <ele>1746.946</ele>
        <time>2014-07-19T12:03:36Z</time>
      </trkpt>
      <trkpt lat="44.70187" lon="5.84836">
        <ele>1746.364</ele>
        <time>2014-07-19T12:03:45Z</time>
      </trkpt>
      <trkpt lat="44.70186" lon="5.84843">
        <ele>1743.798</ele>
        <time>2014-07-19T12:04:00Z</time>
      </trkpt>
      <trkpt lat="44.70191" lon="5.84849">
        <ele>1742.736</ele>
        <time>2014-07-19T12:04:21Z</time>
      </trkpt>
      <trkpt lat="44.70196" lon="5.84848">
        <ele>1741.273</ele>
        <time>2014-07-19T12:04:39Z</time>
      </trkpt>
      <trkpt lat="44.70198" lon="5.8485">
        <ele>1741.232</ele>
        <time>2014-07-19T12:05:38Z</time>
      </trkpt>
      <trkpt lat="44.70197" lon="5.84855">
        <ele>1741.246</ele>
        <time>2014-07-19T12:05:59Z</time>
      </trkpt>
      <trkpt lat="44.70194" lon="5.84866">
        <ele>1738.78</ele>
        <time>2014-07-19T12:06:14Z</time>
      </trkpt>
      <trkpt lat="44.7019" lon="5.84871">
        <ele>1738.648</ele>
        <time>2014-07-19T12:06:20Z</time>
      </trkpt>
      <trkpt lat="44.7018" lon="5.84898">
        <ele>1737.956</ele>
        <time>2014-07-19T12:06:39Z</time>
      </trkpt>
      <trkpt lat="44.70184" lon="5.8493">
        <ele>1737.238</ele>
        <time>2014-07-19T12:06:59Z</time>
      </trkpt>
      <trkpt lat="44.70196" lon="5.84952">
        <ele>1736.282</ele>
        <time>2014-07-19T12:07:19Z</time>
      </trkpt>
      <trkpt lat="44.70199" lon="5.8496">
        <ele>1735.107</ele>
        <time>2014-07-19T12:07:30Z</time>
      </trkpt>
      <trkpt lat="44.702" lon="5.84962">
        <ele>1734.805</ele>
        <time>2014-07-19T12:07:32Z</time>
      </trkpt>
      <trkpt lat="44.70202" lon="5.8497">
        <ele>1733.584</ele>
        <time>2014-07-19T12:07:37Z</time>
      </trkpt>
      <trkpt lat="44.702" lon="5.84978">
        <ele>1732.721</ele>
        <time>2014-07-19T12:07:43Z</time>
      </trkpt>
      <trkpt lat="44.70202" lon="5.85003">
        <ele>1728.552</ele>
        <time>2014-07-19T12:07:58Z</time>
      </trkpt>
      <trkpt lat="44.70203" lon="5.85012">
        <ele>1728.132</ele>
        <time>2014-07-19T12:08:03Z</time>
      </trkpt>
      <trkpt lat="44.70208" lon="5.85022">
        <ele>1727.593</ele>
        <time>2014-07-19T12:08:10Z</time>
      </trkpt>
      <trkpt lat="44.70218" lon="5.85054">
        <ele>1727.779</ele>
        <time>2014-07-19T12:08:31Z</time>
      </trkpt>
      <trkpt lat="44.7023" lon="5.85062">
        <ele>1726.97</ele>
        <time>2014-07-19T12:08:43Z</time>
      </trkpt>
      <trkpt lat="44.7025" lon="5.85074">
        <ele>1726.938</ele>
        <time>2014-07-19T12:09:02Z</time>
      </trkpt>
      <trkpt lat="44.70256" lon="5.85082">
        <ele>1726.136</ele>
        <time>2014-07-19T12:09:17Z</time>
      </trkpt>
      <trkpt lat="44.70259" lon="5.85084">
        <ele>1725.608</ele>
        <time>2014-07-19T12:09:20Z</time>
      </trkpt>
      <trkpt lat="44.70261" lon="5.85087">
        <ele>1725.52</ele>
        <time>2014-07-19T12:09:22Z</time>
      </trkpt>
      <trkpt lat="44.70267" lon="5.85089">
        <ele>1724.496</ele>
        <time>2014-07-19T12:09:28Z</time>
      </trkpt>
      <trkpt lat="44.7027" lon="5.85094">
        <ele>1723.634</ele>
        <time>2014-07-19T12:09:33Z</time>
      </trkpt>
      <trkpt lat="44.70276" lon="5.85099">
        <ele>1722.208</ele>
        <time>2014-07-19T12:09:39Z</time>
      </trkpt>
      <trkpt lat="44.70279" lon="5.85106">
        <ele>1720.505</ele>
        <time>2014-07-19T12:09:45Z</time>
      </trkpt>
      <trkpt lat="44.70294" lon="5.85115">
        <ele>1717.272</ele>
        <time>2014-07-19T12:10:00Z</time>
      </trkpt>
      <trkpt lat="44.70307" lon="5.85132">
        <ele>1714.056</ele>
        <time>2014-07-19T12:10:16Z</time>
      </trkpt>
      <trkpt lat="44.70309" lon="5.85132">
        <ele>1713.757</ele>
        <time>2014-07-19T12:10:25Z</time>
      </trkpt>
      <trkpt lat="44.70326" lon="5.85138">
        <ele>1712.543</ele>
        <time>2014-07-19T12:10:40Z</time>
      </trkpt>
      <trkpt lat="44.70329" lon="5.85138">
        <ele>1712.133</ele>
        <time>2014-07-19T12:10:42Z</time>
      </trkpt>
      <trkpt lat="44.70339" lon="5.85148">
        <ele>1709.098</ele>
        <time>2014-07-19T12:10:54Z</time>
      </trkpt>
      <trkpt lat="44.70343" lon="5.85151">
        <ele>1708.126</ele>
        <time>2014-07-19T12:10:59Z</time>
      </trkpt>
      <trkpt lat="44.70345" lon="5.85155">
        <ele>1707.184</ele>
        <time>2014-07-19T12:11:02Z</time>
      </trkpt>
      <trkpt lat="44.70354" lon="5.85168">
        <ele>1703.08</ele>
        <time>2014-07-19T12:11:16Z</time>
      </trkpt>
      <trkpt lat="44.70359" lon="5.85179">
        <ele>1699.698</ele>
        <time>2014-07-19T12:11:28Z</time>
      </trkpt>
      <trkpt lat="44.70366" lon="5.85189">
        <ele>1696.591</ele>
        <time>2014-07-19T12:11:40Z</time>
      </trkpt>
      <trkpt lat="44.70368" lon="5.85196">
        <ele>1695.641</ele>
        <time>2014-07-19T12:11:46Z</time>
      </trkpt>
      <trkpt lat="44.70372" lon="5.85197">
        <ele>1693.153</ele>
        <time>2014-07-19T12:12:03Z</time>
      </trkpt>
      <trkpt lat="44.70374" lon="5.852">
        <ele>1693.892</ele>
        <time>2014-07-19T12:13:00Z</time>
      </trkpt>
      <trkpt lat="44.70385" lon="5.8522">
        <ele>1690.385</ele>
        <time>2014-07-19T12:13:16Z</time>
      </trkpt>
      <trkpt lat="44.70389" lon="5.85227">
        <ele>1688.691</ele>
        <time>2014-07-19T12:13:22Z</time>
      </trkpt>
      <trkpt lat="44.70392" lon="5.85232">
        <ele>1687.974</ele>
        <time>2014-07-19T12:13:26Z</time>
      </trkpt>
      <trkpt lat="44.70398" lon="5.85254">
        <ele>1684.448</ele>
        <time>2014-07-19T12:13:42Z</time>
      </trkpt>
      <trkpt lat="44.70401" lon="5.85262">
        <ele>1683.536</ele>
        <time>2014-07-19T12:13:49Z</time>
      </trkpt>
      <trkpt lat="44.70407" lon="5.85277">
        <ele>1679.997</ele>
        <time>2014-07-19T12:14:01Z</time>
      </trkpt>
      <trkpt lat="44.70413" lon="5.85283">
        <ele>1678.481</ele>
        <time>2014-07-19T12:14:10Z</time>
      </trkpt>
      <trkpt lat="44.70417" lon="5.85281">
        <ele>1678.868</ele>
        <time>2014-07-19T12:14:14Z</time>
      </trkpt>
      <trkpt lat="44.70421" lon="5.85285">
        <ele>1677.572</ele>
        <time>2014-07-19T12:14:19Z</time>
      </trkpt>
      <trkpt lat="44.70422" lon="5.85288">
        <ele>1676.554</ele>
        <time>2014-07-19T12:14:21Z</time>
      </trkpt>
      <trkpt lat="44.70423" lon="5.8529">
        <ele>1676.195</ele>
        <time>2014-07-19T12:14:23Z</time>
      </trkpt>
      <trkpt lat="44.70424" lon="5.85294">
        <ele>1675.254</ele>
        <time>2014-07-19T12:14:26Z</time>
      </trkpt>
      <trkpt lat="44.7043" lon="5.85303">
        <ele>1673.076</ele>
        <time>2014-07-19T12:14:34Z</time>
      </trkpt>
      <trkpt lat="44.70429" lon="5.85307">
        <ele>1672.143</ele>
        <time>2014-07-19T12:14:38Z</time>
      </trkpt>
      <trkpt lat="44.70435" lon="5.85323">
        <ele>1667.912</ele>
        <time>2014-07-19T12:14:52Z</time>
      </trkpt>
      <trkpt lat="44.70438" lon="5.85328">
        <ele>1666.98</ele>
        <time>2014-07-19T12:14:57Z</time>
      </trkpt>
      <trkpt lat="44.70441" lon="5.85339">
        <ele>1663.886</ele>
        <time>2014-07-19T12:15:08Z</time>
      </trkpt>
      <trkpt lat="44.70441" lon="5.85343">
        <ele>1663.124</ele>
        <time>2014-07-19T12:15:12Z</time>
      </trkpt>
      <trkpt lat="44.70446" lon="5.85353">
        <ele>1659.367</ele>
        <time>2014-07-19T12:15:24Z</time>
      </trkpt>
      <trkpt lat="44.7045" lon="5.85362">
        <ele>1655.877</ele>
        <time>2014-07-19T12:15:34Z</time>
      </trkpt>
      <trkpt lat="44.70452" lon="5.85374">
        <ele>1652.733</ele>
        <time>2014-07-19T12:15:43Z</time>
      </trkpt>
      <trkpt lat="44.70456" lon="5.85383">
        <ele>1650.557</ele>
        <time>2014-07-19T12:15:50Z</time>
      </trkpt>
      <trkpt lat="44.70458" lon="5.85395">
        <ele>1648.773</ele>
        <time>2014-07-19T12:15:58Z</time>
      </trkpt>
      <trkpt lat="44.70459" lon="5.85401">
        <ele>1647.23</ele>
        <time>2014-07-19T12:16:02Z</time>
      </trkpt>
      <trkpt lat="44.70469" lon="5.85412">
        <ele>1643.888</ele>
        <time>2014-07-19T12:16:13Z</time>
      </trkpt>
      <trkpt lat="44.70475" lon="5.85419">
        <ele>1642.038</ele>
        <time>2014-07-19T12:16:21Z</time>
      </trkpt>
      <trkpt lat="44.70477" lon="5.85427">
        <ele>1640.539</ele>
        <time>2014-07-19T12:16:27Z</time>
      </trkpt>
      <trkpt lat="44.70478" lon="5.85434">
        <ele>1639.129</ele>
        <time>2014-07-19T12:16:44Z</time>
      </trkpt>
      <trkpt lat="44.70475" lon="5.85442">
        <ele>1637.831</ele>
        <time>2014-07-19T12:16:53Z</time>
      </trkpt>
      <trkpt lat="44.70476" lon="5.85447">
        <ele>1636.895</ele>
        <time>2014-07-19T12:16:58Z</time>
      </trkpt>
      <trkpt lat="44.70476" lon="5.85465">
        <ele>1632.969</ele>
        <time>2014-07-19T12:17:11Z</time>
      </trkpt>
      <trkpt lat="44.70475" lon="5.85469">
        <ele>1632.092</ele>
        <time>2014-07-19T12:17:15Z</time>
      </trkpt>
      <trkpt lat="44.70472" lon="5.85485">
        <ele>1628.606</ele>
        <time>2014-07-19T12:17:29Z</time>
      </trkpt>
      <trkpt lat="44.7047" lon="5.85487">
        <ele>1627.9</ele>
        <time>2014-07-19T12:17:32Z</time>
      </trkpt>
      <trkpt lat="44.70471" lon="5.85495">
        <ele>1626.805</ele>
        <time>2014-07-19T12:17:37Z</time>
      </trkpt>
      <trkpt lat="44.70467" lon="5.85503">
        <ele>1625.921</ele>
        <time>2014-07-19T12:17:43Z</time>
      </trkpt>
      <trkpt lat="44.70465" lon="5.85518">
        <ele>1622.769</ele>
        <time>2014-07-19T12:17:53Z</time>
      </trkpt>
      <trkpt lat="44.70462" lon="5.8555">
        <ele>1619.591</ele>
        <time>2014-07-19T12:18:13Z</time>
      </trkpt>
      <trkpt lat="44.70461" lon="5.85581">
        <ele>1617.564</ele>
        <time>2014-07-19T12:18:31Z</time>
      </trkpt>
      <trkpt lat="44.70464" lon="5.85614">
        <ele>1615.106</ele>
        <time>2014-07-19T12:18:51Z</time>
      </trkpt>
      <trkpt lat="44.70464" lon="5.85623">
        <ele>1613.387</ele>
        <time>2014-07-19T12:19:07Z</time>
      </trkpt>
      <trkpt lat="44.70466" lon="5.85628">
        <ele>1612.707</ele>
        <time>2014-07-19T12:19:59Z</time>
      </trkpt>
      <trkpt lat="44.70466" lon="5.85646">
        <ele>1610.572</ele>
        <time>2014-07-19T12:20:09Z</time>
      </trkpt>
      <trkpt lat="44.70466" lon="5.85649">
        <ele>1610.348</ele>
        <time>2014-07-19T12:20:11Z</time>
      </trkpt>
      <trkpt lat="44.70467" lon="5.85653">
        <ele>1609.623</ele>
        <time>2014-07-19T12:20:14Z</time>
      </trkpt>
      <trkpt lat="44.70464" lon="5.85669">
        <ele>1607.359</ele>
        <time>2014-07-19T12:20:24Z</time>
      </trkpt>
      <trkpt lat="44.70463" lon="5.85677">
        <ele>1606.526</ele>
        <time>2014-07-19T12:20:29Z</time>
      </trkpt>
      <trkpt lat="44.70459" lon="5.85698">
        <ele>1605.47</ele>
        <time>2014-07-19T12:20:43Z</time>
      </trkpt>
      <trkpt lat="44.70461" lon="5.85715">
        <ele>1602.761</ele>
        <time>2014-07-19T12:20:54Z</time>
      </trkpt>
      <trkpt lat="44.70459" lon="5.85722">
        <ele>1601.605</ele>
        <time>2014-07-19T12:20:59Z</time>
      </trkpt>
      <trkpt lat="44.70459" lon="5.85729">
        <ele>1600.341</ele>
        <time>2014-07-19T12:21:04Z</time>
      </trkpt>
      <trkpt lat="44.70458" lon="5.85735">
        <ele>1599.705</ele>
        <time>2014-07-19T12:21:08Z</time>
      </trkpt>
      <trkpt lat="44.7046" lon="5.85751">
        <ele>1597.346</ele>
        <time>2014-07-19T12:21:18Z</time>
      </trkpt>
      <trkpt lat="44.70463" lon="5.85769">
        <ele>1594.372</ele>
        <time>2014-07-19T12:21:32Z</time>
      </trkpt>
      <trkpt lat="44.70465" lon="5.85771">
        <ele>1593.696</ele>
        <time>2014-07-19T12:21:34Z</time>
      </trkpt>
      <trkpt lat="44.70467" lon="5.85777">
        <ele>1591.929</ele>
        <time>2014-07-19T12:21:40Z</time>
      </trkpt>
      <trkpt lat="44.70466" lon="5.85799">
        <ele>1588.727</ele>
        <time>2014-07-19T12:21:54Z</time>
      </trkpt>
      <trkpt lat="44.70463" lon="5.85809">
        <ele>1587.591</ele>
        <time>2014-07-19T12:22:02Z</time>
      </trkpt>
      <trkpt lat="44.70463" lon="5.85818">
        <ele>1586.523</ele>
        <time>2014-07-19T12:22:08Z</time>
      </trkpt>
      <trkpt lat="44.70461" lon="5.85823">
        <ele>1585.375</ele>
        <time>2014-07-19T12:22:12Z</time>
      </trkpt>
      <trkpt lat="44.70459" lon="5.8583">
        <ele>1583.92</ele>
        <time>2014-07-19T12:22:19Z</time>
      </trkpt>
      <trkpt lat="44.70454" lon="5.85841">
        <ele>1581.909</ele>
        <time>2014-07-19T12:22:29Z</time>
      </trkpt>
      <trkpt lat="44.70455" lon="5.85848">
        <ele>1580.207</ele>
        <time>2014-07-19T12:22:35Z</time>
      </trkpt>
      <trkpt lat="44.70457" lon="5.85855">
        <ele>1579.081</ele>
        <time>2014-07-19T12:22:39Z</time>
      </trkpt>
      <trkpt lat="44.70453" lon="5.85862">
        <ele>1577.748</ele>
        <time>2014-07-19T12:22:44Z</time>
      </trkpt>
      <trkpt lat="44.70453" lon="5.85867">
        <ele>1577.86</ele>
        <time>2014-07-19T12:22:47Z</time>
      </trkpt>
      <trkpt lat="44.7045" lon="5.85873">
        <ele>1577.107</ele>
        <time>2014-07-19T12:22:52Z</time>
      </trkpt>
      <trkpt lat="44.70454" lon="5.85888">
        <ele>1575.634</ele>
        <time>2014-07-19T12:23:02Z</time>
      </trkpt>
      <trkpt lat="44.70449" lon="5.8592">
        <ele>1574.376</ele>
        <time>2014-07-19T12:23:22Z</time>
      </trkpt>
      <trkpt lat="44.7045" lon="5.85927">
        <ele>1573.715</ele>
        <time>2014-07-19T12:23:26Z</time>
      </trkpt>
      <trkpt lat="44.70454" lon="5.85933">
        <ele>1573.603</ele>
        <time>2014-07-19T12:23:30Z</time>
      </trkpt>
      <trkpt lat="44.70456" lon="5.85939">
        <ele>1573.168</ele>
        <time>2014-07-19T12:23:34Z</time>
      </trkpt>
      <trkpt lat="44.70457" lon="5.85945">
        <ele>1573.19</ele>
        <time>2014-07-19T12:23:37Z</time>
      </trkpt>
      <trkpt lat="44.70461" lon="5.85951">
        <ele>1572.753</ele>
        <time>2014-07-19T12:23:42Z</time>
      </trkpt>
      <trkpt lat="44.70463" lon="5.85956">
        <ele>1572.651</ele>
        <time>2014-07-19T12:23:46Z</time>
      </trkpt>
      <trkpt lat="44.70467" lon="5.8596">
        <ele>1572.504</ele>
        <time>2014-07-19T12:23:50Z</time>
      </trkpt>
      <trkpt lat="44.70475" lon="5.85974">
        <ele>1570.73</ele>
        <time>2014-07-19T12:24:03Z</time>
      </trkpt>
      <trkpt lat="44.70483" lon="5.85984">
        <ele>1567.565</ele>
        <time>2014-07-19T12:24:17Z</time>
      </trkpt>
      <trkpt lat="44.70484" lon="5.85991">
        <ele>1566.885</ele>
        <time>2014-07-19T12:24:22Z</time>
      </trkpt>
      <trkpt lat="44.70485" lon="5.85993">
        <ele>1566.107</ele>
        <time>2014-07-19T12:24:24Z</time>
      </trkpt>
      <trkpt lat="44.70486" lon="5.85996">
        <ele>1565.551</ele>
        <time>2014-07-19T12:24:26Z</time>
      </trkpt>
      <trkpt lat="44.70488" lon="5.86008">
        <ele>1564.8</ele>
        <time>2014-07-19T12:24:33Z</time>
      </trkpt>
      <trkpt lat="44.70493" lon="5.86038">
        <ele>1563.952</ele>
        <time>2014-07-19T12:24:53Z</time>
      </trkpt>
      <trkpt lat="44.70496" lon="5.86049">
        <ele>1562.785</ele>
        <time>2014-07-19T12:25:01Z</time>
      </trkpt>
      <trkpt lat="44.70497" lon="5.86062">
        <ele>1560.975</ele>
        <time>2014-07-19T12:25:10Z</time>
      </trkpt>
      <trkpt lat="44.70499" lon="5.86067">
        <ele>1560.162</ele>
        <time>2014-07-19T12:25:13Z</time>
      </trkpt>
      <trkpt lat="44.70499" lon="5.86072">
        <ele>1559.373</ele>
        <time>2014-07-19T12:25:17Z</time>
      </trkpt>
      <trkpt lat="44.70502" lon="5.86076">
        <ele>1558.881</ele>
        <time>2014-07-19T12:25:20Z</time>
      </trkpt>
      <trkpt lat="44.70501" lon="5.861">
        <ele>1556.744</ele>
        <time>2014-07-19T12:25:36Z</time>
      </trkpt>
      <trkpt lat="44.705" lon="5.86115">
        <ele>1555.084</ele>
        <time>2014-07-19T12:25:47Z</time>
      </trkpt>
      <trkpt lat="44.705" lon="5.86121">
        <ele>1554.715</ele>
        <time>2014-07-19T12:25:51Z</time>
      </trkpt>
      <trkpt lat="44.70497" lon="5.86132">
        <ele>1553.925</ele>
        <time>2014-07-19T12:25:59Z</time>
      </trkpt>
      <trkpt lat="44.70484" lon="5.86137">
        <ele>1550.911</ele>
        <time>2014-07-19T12:26:13Z</time>
      </trkpt>
      <trkpt lat="44.70473" lon="5.86139">
        <ele>1548.068</ele>
        <time>2014-07-19T12:26:27Z</time>
      </trkpt>
      <trkpt lat="44.70469" lon="5.86137">
        <ele>1547.725</ele>
        <time>2014-07-19T12:26:32Z</time>
      </trkpt>
      <trkpt lat="44.70464" lon="5.86136">
        <ele>1546.23</ele>
        <time>2014-07-19T12:26:37Z</time>
      </trkpt>
      <trkpt lat="44.7046" lon="5.86143">
        <ele>1546.025</ele>
        <time>2014-07-19T12:26:51Z</time>
      </trkpt>
      <trkpt lat="44.70455" lon="5.86147">
        <ele>1544.216</ele>
        <time>2014-07-19T12:27:22Z</time>
      </trkpt>
      <trkpt lat="44.70453" lon="5.8615">
        <ele>1543.635</ele>
        <time>2014-07-19T12:27:41Z</time>
      </trkpt>
      <trkpt lat="44.70442" lon="5.86167">
        <ele>1540.63</ele>
        <time>2014-07-19T12:27:56Z</time>
      </trkpt>
      <trkpt lat="44.70441" lon="5.8617">
        <ele>1540.09</ele>
        <time>2014-07-19T12:27:58Z</time>
      </trkpt>
      <trkpt lat="44.70431" lon="5.86182">
        <ele>1536.44</ele>
        <time>2014-07-19T12:28:09Z</time>
      </trkpt>
      <trkpt lat="44.70417" lon="5.86193">
        <ele>1534.378</ele>
        <time>2014-07-19T12:28:27Z</time>
      </trkpt>
      <trkpt lat="44.70396" lon="5.86198">
        <ele>1531.147</ele>
        <time>2014-07-19T12:28:45Z</time>
      </trkpt>
      <trkpt lat="44.7038" lon="5.86204">
        <ele>1529.598</ele>
        <time>2014-07-19T12:28:59Z</time>
      </trkpt>
      <trkpt lat="44.70364" lon="5.86217">
        <ele>1525.784</ele>
        <time>2014-07-19T12:29:16Z</time>
      </trkpt>
      <trkpt lat="44.70358" lon="5.86219">
        <ele>1524.977</ele>
        <time>2014-07-19T12:29:21Z</time>
      </trkpt>
      <trkpt lat="44.70354" lon="5.86222">
        <ele>1523.427</ele>
        <time>2014-07-19T12:29:25Z</time>
      </trkpt>
      <trkpt lat="44.70345" lon="5.86231">
        <ele>1521.155</ele>
        <time>2014-07-19T12:29:35Z</time>
      </trkpt>
      <trkpt lat="44.70332" lon="5.86241">
        <ele>1518.01</ele>
        <time>2014-07-19T12:29:50Z</time>
      </trkpt>
      <trkpt lat="44.70319" lon="5.86249">
        <ele>1515.792</ele>
        <time>2014-07-19T12:30:02Z</time>
      </trkpt>
      <trkpt lat="44.70315" lon="5.86253">
        <ele>1514.844</ele>
        <time>2014-07-19T12:30:06Z</time>
      </trkpt>
      <trkpt lat="44.70309" lon="5.86265">
        <ele>1513.384</ele>
        <time>2014-07-19T12:30:13Z</time>
      </trkpt>
      <trkpt lat="44.70311" lon="5.8627">
        <ele>1512.971</ele>
        <time>2014-07-19T12:30:16Z</time>
      </trkpt>
      <trkpt lat="44.70311" lon="5.86279">
        <ele>1511.884</ele>
        <time>2014-07-19T12:30:22Z</time>
      </trkpt>
      <trkpt lat="44.70309" lon="5.86293">
        <ele>1509.943</ele>
        <time>2014-07-19T12:30:31Z</time>
      </trkpt>
      <trkpt lat="44.70289" lon="5.86307">
        <ele>1507.199</ele>
        <time>2014-07-19T12:30:49Z</time>
      </trkpt>
      <trkpt lat="44.70283" lon="5.86311">
        <ele>1504.995</ele>
        <time>2014-07-19T12:30:57Z</time>
      </trkpt>
      <trkpt lat="44.70278" lon="5.86315">
        <ele>1503.842</ele>
        <time>2014-07-19T12:31:01Z</time>
      </trkpt>
      <trkpt lat="44.70275" lon="5.86321">
        <ele>1502.384</ele>
        <time>2014-07-19T12:31:06Z</time>
      </trkpt>
      <trkpt lat="44.70262" lon="5.86339">
        <ele>1500.306</ele>
        <time>2014-07-19T12:31:21Z</time>
      </trkpt>
      <trkpt lat="44.70256" lon="5.86342">
        <ele>1499.603</ele>
        <time>2014-07-19T12:31:26Z</time>
      </trkpt>
      <trkpt lat="44.70254" lon="5.86343">
        <ele>1500.6</ele>
        <time>2014-07-19T12:31:28Z</time>
      </trkpt>
      <trkpt lat="44.70247" lon="5.86349">
        <ele>1498.913</ele>
        <time>2014-07-19T12:31:34Z</time>
      </trkpt>
      <trkpt lat="44.70244" lon="5.86355">
        <ele>1497.413</ele>
        <time>2014-07-19T12:31:39Z</time>
      </trkpt>
      <trkpt lat="44.70239" lon="5.8636">
        <ele>1496.918</ele>
        <time>2014-07-19T12:31:45Z</time>
      </trkpt>
      <trkpt lat="44.70234" lon="5.86366">
        <ele>1495.483</ele>
        <time>2014-07-19T12:31:50Z</time>
      </trkpt>
      <trkpt lat="44.70231" lon="5.86377">
        <ele>1493.279</ele>
        <time>2014-07-19T12:31:59Z</time>
      </trkpt>
      <trkpt lat="44.70233" lon="5.86394">
        <ele>1490.81</ele>
        <time>2014-07-19T12:32:11Z</time>
      </trkpt>
      <trkpt lat="44.70236" lon="5.86401">
        <ele>1489.343</ele>
        <time>2014-07-19T12:32:16Z</time>
      </trkpt>
      <trkpt lat="44.70235" lon="5.86407">
        <ele>1488.042</ele>
        <time>2014-07-19T12:32:20Z</time>
      </trkpt>
      <trkpt lat="44.70231" lon="5.86418">
        <ele>1485.532</ele>
        <time>2014-07-19T12:32:30Z</time>
      </trkpt>
      <trkpt lat="44.7023" lon="5.86422">
        <ele>1484.965</ele>
        <time>2014-07-19T12:32:33Z</time>
      </trkpt>
      <trkpt lat="44.70228" lon="5.86431">
        <ele>1483.198</ele>
        <time>2014-07-19T12:32:40Z</time>
      </trkpt>
      <trkpt lat="44.70224" lon="5.86437">
        <ele>1481.981</ele>
        <time>2014-07-19T12:32:46Z</time>
      </trkpt>
      <trkpt lat="44.70223" lon="5.86441">
        <ele>1481.126</ele>
        <time>2014-07-19T12:32:49Z</time>
      </trkpt>
      <trkpt lat="44.70221" lon="5.86446">
        <ele>1480.692</ele>
        <time>2014-07-19T12:32:53Z</time>
      </trkpt>
      <trkpt lat="44.70219" lon="5.86452">
        <ele>1480.02</ele>
        <time>2014-07-19T12:32:57Z</time>
      </trkpt>
      <trkpt lat="44.70211" lon="5.86475">
        <ele>1476.782</ele>
        <time>2014-07-19T12:33:12Z</time>
      </trkpt>
      <trkpt lat="44.70194" lon="5.86492">
        <ele>1473.877</ele>
        <time>2014-07-19T12:33:29Z</time>
      </trkpt>
      <trkpt lat="44.7019" lon="5.86489">
        <ele>1473.599</ele>
        <time>2014-07-19T12:33:35Z</time>
      </trkpt>
      <trkpt lat="44.70165" lon="5.86478">
        <ele>1471.003</ele>
        <time>2014-07-19T12:33:56Z</time>
      </trkpt>
      <trkpt lat="44.7016" lon="5.86475">
        <ele>1469.995</ele>
        <time>2014-07-19T12:34:01Z</time>
      </trkpt>
      <trkpt lat="44.70141" lon="5.86468">
        <ele>1469.406</ele>
        <time>2014-07-19T12:34:17Z</time>
      </trkpt>
      <trkpt lat="44.70114" lon="5.86463">
        <ele>1466.743</ele>
        <time>2014-07-19T12:34:39Z</time>
      </trkpt>
      <trkpt lat="44.70087" lon="5.86464">
        <ele>1464.768</ele>
        <time>2014-07-19T12:35:00Z</time>
      </trkpt>
      <trkpt lat="44.70065" lon="5.86457">
        <ele>1464.611</ele>
        <time>2014-07-19T12:35:20Z</time>
      </trkpt>
      <trkpt lat="44.70047" lon="5.8645">
        <ele>1462.537</ele>
        <time>2014-07-19T12:35:34Z</time>
      </trkpt>
      <trkpt lat="44.70043" lon="5.86448">
        <ele>1462.043</ele>
        <time>2014-07-19T12:35:37Z</time>
      </trkpt>
      <trkpt lat="44.70031" lon="5.86446">
        <ele>1461.626</ele>
        <time>2014-07-19T12:35:46Z</time>
      </trkpt>
      <trkpt lat="44.70012" lon="5.86438">
        <ele>1461.7</ele>
        <time>2014-07-19T12:36:05Z</time>
      </trkpt>
      <trkpt lat="44.69996" lon="5.8643">
        <ele>1461.848</ele>
        <time>2014-07-19T12:36:21Z</time>
      </trkpt>
      <trkpt lat="44.69977" lon="5.86421">
        <ele>1462.375</ele>
        <time>2014-07-19T12:36:37Z</time>
      </trkpt>
      <trkpt lat="44.69972" lon="5.86417">
        <ele>1462.059</ele>
        <time>2014-07-19T12:36:42Z</time>
      </trkpt>
      <trkpt lat="44.69948" lon="5.86401">
        <ele>1461.991</ele>
        <time>2014-07-19T12:37:04Z</time>
      </trkpt>
      <trkpt lat="44.69933" lon="5.86385">
        <ele>1462.158</ele>
        <time>2014-07-19T12:37:21Z</time>
      </trkpt>
      <trkpt lat="44.6991" lon="5.86365">
        <ele>1462.31</ele>
        <time>2014-07-19T12:37:42Z</time>
      </trkpt>
      <trkpt lat="44.69897" lon="5.86356">
        <ele>1461.913</ele>
        <time>2014-07-19T12:37:55Z</time>
      </trkpt>
      <trkpt lat="44.69875" lon="5.86349">
        <ele>1460.682</ele>
        <time>2014-07-19T12:38:13Z</time>
      </trkpt>
      <trkpt lat="44.69861" lon="5.86349">
        <ele>1461.172</ele>
        <time>2014-07-19T12:38:31Z</time>
      </trkpt>
      <trkpt lat="44.69846" lon="5.86348">
        <ele>1460.235</ele>
        <time>2014-07-19T12:39:09Z</time>
      </trkpt>
      <trkpt lat="44.69827" lon="5.86344">
        <ele>1459.131</ele>
        <time>2014-07-19T12:39:26Z</time>
      </trkpt>
      <trkpt lat="44.69801" lon="5.86347">
        <ele>1459.263</ele>
        <time>2014-07-19T12:39:46Z</time>
      </trkpt>
      <trkpt lat="44.69772" lon="5.86342">
        <ele>1456.712</ele>
        <time>2014-07-19T12:40:09Z</time>
      </trkpt>
      <trkpt lat="44.69745" lon="5.86335">
        <ele>1453.688</ele>
        <time>2014-07-19T12:40:30Z</time>
      </trkpt>
      <trkpt lat="44.69719" lon="5.86329">
        <ele>1450.283</ele>
        <time>2014-07-19T12:40:51Z</time>
      </trkpt>
      <trkpt lat="44.69717" lon="5.86329">
        <ele>1450.392</ele>
        <time>2014-07-19T12:40:53Z</time>
      </trkpt>
      <trkpt lat="44.69713" lon="5.86329">
        <ele>1449.702</ele>
        <time>2014-07-19T12:40:56Z</time>
      </trkpt>
      <trkpt lat="44.69692" lon="5.86323">
        <ele>1446.433</ele>
        <time>2014-07-19T12:41:14Z</time>
      </trkpt>
      <trkpt lat="44.69684" lon="5.8632">
        <ele>1445.537</ele>
        <time>2014-07-19T12:41:21Z</time>
      </trkpt>
      <trkpt lat="44.69673" lon="5.86324">
        <ele>1443.854</ele>
        <time>2014-07-19T12:41:39Z</time>
      </trkpt>
      <trkpt lat="44.69662" lon="5.86327">
        <ele>1443.34</ele>
        <time>2014-07-19T12:42:07Z</time>
      </trkpt>
      <trkpt lat="44.69644" lon="5.86329">
        <ele>1441.439</ele>
        <time>2014-07-19T12:42:22Z</time>
      </trkpt>
      <trkpt lat="44.69639" lon="5.8633">
        <ele>1440.845</ele>
        <time>2014-07-19T12:42:27Z</time>
      </trkpt>
      <trkpt lat="44.69636" lon="5.86331">
        <ele>1440.701</ele>
        <time>2014-07-19T12:42:29Z</time>
      </trkpt>
      <trkpt lat="44.69619" lon="5.86331">
        <ele>1438.273</ele>
        <time>2014-07-19T12:42:46Z</time>
      </trkpt>
      <trkpt lat="44.69612" lon="5.86327">
        <ele>1436.641</ele>
        <time>2014-07-19T12:43:04Z</time>
      </trkpt>
      <trkpt lat="44.69597" lon="5.86326">
        <ele>1434.664</ele>
        <time>2014-07-19T12:43:22Z</time>
      </trkpt>
      <trkpt lat="44.69569" lon="5.86325">
        <ele>1432.695</ele>
        <time>2014-07-19T12:43:47Z</time>
      </trkpt>
      <trkpt lat="44.69537" lon="5.86323">
        <ele>1430.402</ele>
        <time>2014-07-19T12:44:15Z</time>
      </trkpt>
      <trkpt lat="44.69521" lon="5.86326">
        <ele>1426.837</ele>
        <time>2014-07-19T12:44:30Z</time>
      </trkpt>
      <trkpt lat="44.69517" lon="5.86325">
        <ele>1426.44</ele>
        <time>2014-07-19T12:44:34Z</time>
      </trkpt>
      <trkpt lat="44.69497" lon="5.8632">
        <ele>1423.601</ele>
        <time>2014-07-19T12:44:52Z</time>
      </trkpt>
      <trkpt lat="44.69472" lon="5.86323">
        <ele>1421.133</ele>
        <time>2014-07-19T12:45:15Z</time>
      </trkpt>
      <trkpt lat="44.69452" lon="5.86331">
        <ele>1419.511</ele>
        <time>2014-07-19T12:45:33Z</time>
      </trkpt>
      <trkpt lat="44.69426" lon="5.86338">
        <ele>1416.852</ele>
        <time>2014-07-19T12:45:54Z</time>
      </trkpt>
      <trkpt lat="44.69402" lon="5.86352">
        <ele>1415.153</ele>
        <time>2014-07-19T12:46:14Z</time>
      </trkpt>
      <trkpt lat="44.69379" lon="5.86361">
        <ele>1413.881</ele>
        <time>2014-07-19T12:46:34Z</time>
      </trkpt>
      <trkpt lat="44.69357" lon="5.86361">
        <ele>1413.133</ele>
        <time>2014-07-19T12:46:52Z</time>
      </trkpt>
      <trkpt lat="44.69336" lon="5.86361">
        <ele>1411.695</ele>
        <time>2014-07-19T12:47:12Z</time>
      </trkpt>
      <trkpt lat="44.69327" lon="5.86368">
        <ele>1410.532</ele>
        <time>2014-07-19T12:47:20Z</time>
      </trkpt>
      <trkpt lat="44.69313" lon="5.86388">
        <ele>1408.457</ele>
        <time>2014-07-19T12:47:35Z</time>
      </trkpt>
      <trkpt lat="44.69302" lon="5.86408">
        <ele>1406.393</ele>
        <time>2014-07-19T12:47:51Z</time>
      </trkpt>
      <trkpt lat="44.69287" lon="5.86405">
        <ele>1406.433</ele>
        <time>2014-07-19T12:48:03Z</time>
      </trkpt>
      <trkpt lat="44.69284" lon="5.86396">
        <ele>1406.592</ele>
        <time>2014-07-19T12:48:08Z</time>
      </trkpt>
      <trkpt lat="44.69283" lon="5.86391">
        <ele>1406.474</ele>
        <time>2014-07-19T12:48:10Z</time>
      </trkpt>
      <trkpt lat="44.69271" lon="5.86373">
        <ele>1407.087</ele>
        <time>2014-07-19T12:48:18Z</time>
      </trkpt>
      <trkpt lat="44.69269" lon="5.86367">
        <ele>1406.807</ele>
        <time>2014-07-19T12:48:23Z</time>
      </trkpt>
      <trkpt lat="44.69255" lon="5.86357">
        <ele>1408.096</ele>
        <time>2014-07-19T12:48:38Z</time>
      </trkpt>
      <trkpt lat="44.6925" lon="5.86357">
        <ele>1407.76</ele>
        <time>2014-07-19T12:48:46Z</time>
      </trkpt>
      <trkpt lat="44.69242" lon="5.8636">
        <ele>1407.426</ele>
        <time>2014-07-19T12:48:54Z</time>
      </trkpt>
      <trkpt lat="44.69223" lon="5.86364">
        <ele>1407.302</ele>
        <time>2014-07-19T12:49:09Z</time>
      </trkpt>
      <trkpt lat="44.69221" lon="5.86364">
        <ele>1407.445</ele>
        <time>2014-07-19T12:49:11Z</time>
      </trkpt>
      <trkpt lat="44.69213" lon="5.86369">
        <ele>1407.221</ele>
        <time>2014-07-19T12:49:18Z</time>
      </trkpt>
      <trkpt lat="44.69208" lon="5.86374">
        <ele>1406.445</ele>
        <time>2014-07-19T12:49:22Z</time>
      </trkpt>
      <trkpt lat="44.69208" lon="5.86382">
        <ele>1406.507</ele>
        <time>2014-07-19T12:49:26Z</time>
      </trkpt>
      <trkpt lat="44.69205" lon="5.86398">
        <ele>1405.769</ele>
        <time>2014-07-19T12:49:42Z</time>
      </trkpt>
      <trkpt lat="44.69206" lon="5.86404">
        <ele>1405.36</ele>
        <time>2014-07-19T12:50:26Z</time>
      </trkpt>
      <trkpt lat="44.69211" lon="5.86409">
        <ele>1404.375</ele>
        <time>2014-07-19T12:50:54Z</time>
      </trkpt>
    </trkseg>
  </trk>
</gpx>